<?xml version="1.0" encoding="UTF-8" standalone="no" ?>
<gpx xmlns="http://www.topografix.com/GPX/1/1" xmlns:xsi="http://www.w3.org/2001/XMLSchema-instance" xsi:schemaLocation="http://www.topografix.com/GPX/1/1 http://www.topografix.com/GPX/1/1/gpx.xsd" version="1.1" creator="VisuGPX - https://www.visugpx.com">
  <metadata>
    <name>Laisse - Dôme de la Cochette</name>
    <desc><![CDATA[Passage par l\'Aiguille de la Laisse pour aller au dôme de la cochette, temps bien gris]]></desc>
  </metadata>
  <trk>
    <name><![CDATA[2014-05-25-laisse dome cochette]]></name>
    <trkseg>
      <trkpt lat="45.23241" lon="6.16459">
        <ele>1810.5</ele>
        <time>2014-05-25T04:26:05Z</time>
      </trkpt>
      <trkpt lat="45.23241" lon="6.16459">
        <ele>1810.5</ele>
        <time>2014-05-25T04:26:06Z</time>
      </trkpt>
      <trkpt lat="45.23232" lon="6.16464">
        <ele>1807.5</ele>
        <time>2014-05-25T04:32:31Z</time>
      </trkpt>
      <trkpt lat="45.23226" lon="6.16475">
        <ele>1804.5</ele>
        <time>2014-05-25T04:32:39Z</time>
      </trkpt>
      <trkpt lat="45.23223" lon="6.16487">
        <ele>1806.5</ele>
        <time>2014-05-25T04:32:51Z</time>
      </trkpt>
      <trkpt lat="45.23216" lon="6.16496">
        <ele>1806.5</ele>
        <time>2014-05-25T04:33:00Z</time>
      </trkpt>
      <trkpt lat="45.23211" lon="6.16508">
        <ele>1801.5</ele>
        <time>2014-05-25T04:33:23Z</time>
      </trkpt>
      <trkpt lat="45.23202" lon="6.16518">
        <ele>1796.5</ele>
        <time>2014-05-25T04:33:28Z</time>
      </trkpt>
      <trkpt lat="45.23195" lon="6.16527">
        <ele>1794.5</ele>
        <time>2014-05-25T04:33:33Z</time>
      </trkpt>
      <trkpt lat="45.23189" lon="6.16537">
        <ele>1792.5</ele>
        <time>2014-05-25T04:33:45Z</time>
      </trkpt>
      <trkpt lat="45.23181" lon="6.16546">
        <ele>1796.5</ele>
        <time>2014-05-25T04:33:55Z</time>
      </trkpt>
      <trkpt lat="45.23179" lon="6.1656">
        <ele>1793.5</ele>
        <time>2014-05-25T04:34:05Z</time>
      </trkpt>
      <trkpt lat="45.23171" lon="6.16572">
        <ele>1795.5</ele>
        <time>2014-05-25T04:34:12Z</time>
      </trkpt>
      <trkpt lat="45.23166" lon="6.16584">
        <ele>1800.5</ele>
        <time>2014-05-25T04:34:16Z</time>
      </trkpt>
      <trkpt lat="45.23158" lon="6.1658">
        <ele>1795.5</ele>
        <time>2014-05-25T04:34:23Z</time>
      </trkpt>
      <trkpt lat="45.2315" lon="6.16574">
        <ele>1793.5</ele>
        <time>2014-05-25T04:34:28Z</time>
      </trkpt>
      <trkpt lat="45.2314" lon="6.16571">
        <ele>1790.5</ele>
        <time>2014-05-25T04:34:41Z</time>
      </trkpt>
      <trkpt lat="45.23131" lon="6.16574">
        <ele>1788.5</ele>
        <time>2014-05-25T04:34:48Z</time>
      </trkpt>
      <trkpt lat="45.23122" lon="6.16574">
        <ele>1787.5</ele>
        <time>2014-05-25T04:34:56Z</time>
      </trkpt>
      <trkpt lat="45.23113" lon="6.1657">
        <ele>1788.5</ele>
        <time>2014-05-25T04:35:04Z</time>
      </trkpt>
      <trkpt lat="45.23105" lon="6.16563">
        <ele>1778.5</ele>
        <time>2014-05-25T04:35:13Z</time>
      </trkpt>
      <trkpt lat="45.23096" lon="6.1656">
        <ele>1777.5</ele>
        <time>2014-05-25T04:35:20Z</time>
      </trkpt>
      <trkpt lat="45.23087" lon="6.16565">
        <ele>1769.5</ele>
        <time>2014-05-25T04:35:50Z</time>
      </trkpt>
      <trkpt lat="45.2308" lon="6.16575">
        <ele>1769.5</ele>
        <time>2014-05-25T04:35:59Z</time>
      </trkpt>
      <trkpt lat="45.23074" lon="6.16586">
        <ele>1776.5</ele>
        <time>2014-05-25T04:36:06Z</time>
      </trkpt>
      <trkpt lat="45.23068" lon="6.16596">
        <ele>1773.5</ele>
        <time>2014-05-25T04:36:15Z</time>
      </trkpt>
      <trkpt lat="45.23063" lon="6.16607">
        <ele>1775.5</ele>
        <time>2014-05-25T04:36:26Z</time>
      </trkpt>
      <trkpt lat="45.23059" lon="6.16619">
        <ele>1776.5</ele>
        <time>2014-05-25T04:36:42Z</time>
      </trkpt>
      <trkpt lat="45.23058" lon="6.16633">
        <ele>1777.5</ele>
        <time>2014-05-25T04:36:55Z</time>
      </trkpt>
      <trkpt lat="45.2306" lon="6.16646">
        <ele>1779.5</ele>
        <time>2014-05-25T04:37:08Z</time>
      </trkpt>
      <trkpt lat="45.23052" lon="6.16653">
        <ele>1781.5</ele>
        <time>2014-05-25T04:37:23Z</time>
      </trkpt>
      <trkpt lat="45.23052" lon="6.16666">
        <ele>1781.5</ele>
        <time>2014-05-25T04:37:36Z</time>
      </trkpt>
      <trkpt lat="45.2305" lon="6.1668">
        <ele>1781.5</ele>
        <time>2014-05-25T04:37:54Z</time>
      </trkpt>
      <trkpt lat="45.23047" lon="6.16692">
        <ele>1785.5</ele>
        <time>2014-05-25T04:38:04Z</time>
      </trkpt>
      <trkpt lat="45.23039" lon="6.16715">
        <ele>1792.5</ele>
        <time>2014-05-25T04:38:31Z</time>
      </trkpt>
      <trkpt lat="45.23038" lon="6.16729">
        <ele>1796.5</ele>
        <time>2014-05-25T04:38:50Z</time>
      </trkpt>
      <trkpt lat="45.23038" lon="6.16743">
        <ele>1804.5</ele>
        <time>2014-05-25T04:39:08Z</time>
      </trkpt>
      <trkpt lat="45.23027" lon="6.16764">
        <ele>1807.5</ele>
        <time>2014-05-25T04:39:29Z</time>
      </trkpt>
      <trkpt lat="45.23025" lon="6.16778">
        <ele>1812.5</ele>
        <time>2014-05-25T04:39:47Z</time>
      </trkpt>
      <trkpt lat="45.23027" lon="6.1679">
        <ele>1815.5</ele>
        <time>2014-05-25T04:40:05Z</time>
      </trkpt>
      <trkpt lat="45.23032" lon="6.16801">
        <ele>1812.5</ele>
        <time>2014-05-25T04:40:20Z</time>
      </trkpt>
      <trkpt lat="45.23027" lon="6.16825">
        <ele>1812.5</ele>
        <time>2014-05-25T04:40:44Z</time>
      </trkpt>
      <trkpt lat="45.23024" lon="6.16837">
        <ele>1822.5</ele>
        <time>2014-05-25T04:41:03Z</time>
      </trkpt>
      <trkpt lat="45.23016" lon="6.16845">
        <ele>1825.5</ele>
        <time>2014-05-25T04:41:21Z</time>
      </trkpt>
      <trkpt lat="45.23014" lon="6.16873">
        <ele>1828.5</ele>
        <time>2014-05-25T04:42:28Z</time>
      </trkpt>
      <trkpt lat="45.23006" lon="6.16897">
        <ele>1836.5</ele>
        <time>2014-05-25T04:43:00Z</time>
      </trkpt>
      <trkpt lat="45.23003" lon="6.1691">
        <ele>1835.5</ele>
        <time>2014-05-25T04:43:10Z</time>
      </trkpt>
      <trkpt lat="45.22998" lon="6.16921">
        <ele>1832.5</ele>
        <time>2014-05-25T04:43:24Z</time>
      </trkpt>
      <trkpt lat="45.22991" lon="6.16929">
        <ele>1833.5</ele>
        <time>2014-05-25T04:43:40Z</time>
      </trkpt>
      <trkpt lat="45.2298" lon="6.1695">
        <ele>1841.5</ele>
        <time>2014-05-25T04:44:11Z</time>
      </trkpt>
      <trkpt lat="45.22972" lon="6.16957">
        <ele>1852.5</ele>
        <time>2014-05-25T04:44:20Z</time>
      </trkpt>
      <trkpt lat="45.22971" lon="6.1697">
        <ele>1840.5</ele>
        <time>2014-05-25T04:44:32Z</time>
      </trkpt>
      <trkpt lat="45.22964" lon="6.16979">
        <ele>1846.5</ele>
        <time>2014-05-25T04:44:47Z</time>
      </trkpt>
      <trkpt lat="45.22947" lon="6.16986">
        <ele>1857.5</ele>
        <time>2014-05-25T04:46:02Z</time>
      </trkpt>
      <trkpt lat="45.22929" lon="6.16989">
        <ele>1863.5</ele>
        <time>2014-05-25T04:47:07Z</time>
      </trkpt>
      <trkpt lat="45.22912" lon="6.16979">
        <ele>1871.5</ele>
        <time>2014-05-25T04:47:41Z</time>
      </trkpt>
      <trkpt lat="45.22904" lon="6.16973">
        <ele>1876.5</ele>
        <time>2014-05-25T04:48:01Z</time>
      </trkpt>
      <trkpt lat="45.22898" lon="6.16962">
        <ele>1883.5</ele>
        <time>2014-05-25T04:48:17Z</time>
      </trkpt>
      <trkpt lat="45.22881" lon="6.16951">
        <ele>1885.5</ele>
        <time>2014-05-25T04:49:00Z</time>
      </trkpt>
      <trkpt lat="45.22874" lon="6.16944">
        <ele>1888.5</ele>
        <time>2014-05-25T04:49:12Z</time>
      </trkpt>
      <trkpt lat="45.22865" lon="6.16937">
        <ele>1893.5</ele>
        <time>2014-05-25T04:50:07Z</time>
      </trkpt>
      <trkpt lat="45.22852" lon="6.16919">
        <ele>1897.5</ele>
        <time>2014-05-25T04:50:32Z</time>
      </trkpt>
      <trkpt lat="45.22844" lon="6.16911">
        <ele>1903.5</ele>
        <time>2014-05-25T04:50:58Z</time>
      </trkpt>
      <trkpt lat="45.22835" lon="6.16906">
        <ele>1904.5</ele>
        <time>2014-05-25T04:51:07Z</time>
      </trkpt>
      <trkpt lat="45.22823" lon="6.16888">
        <ele>1903.5</ele>
        <time>2014-05-25T04:51:33Z</time>
      </trkpt>
      <trkpt lat="45.22815" lon="6.16879">
        <ele>1909.5</ele>
        <time>2014-05-25T04:51:47Z</time>
      </trkpt>
      <trkpt lat="45.22807" lon="6.16872">
        <ele>1914.5</ele>
        <time>2014-05-25T04:52:00Z</time>
      </trkpt>
      <trkpt lat="45.228" lon="6.16863">
        <ele>1919.5</ele>
        <time>2014-05-25T04:52:16Z</time>
      </trkpt>
      <trkpt lat="45.22786" lon="6.16846">
        <ele>1926.5</ele>
        <time>2014-05-25T04:52:47Z</time>
      </trkpt>
      <trkpt lat="45.22779" lon="6.16838">
        <ele>1932.5</ele>
        <time>2014-05-25T04:53:02Z</time>
      </trkpt>
      <trkpt lat="45.22776" lon="6.16826">
        <ele>1937.5</ele>
        <time>2014-05-25T04:53:20Z</time>
      </trkpt>
      <trkpt lat="45.22759" lon="6.16814">
        <ele>1945.5</ele>
        <time>2014-05-25T04:53:59Z</time>
      </trkpt>
      <trkpt lat="45.22755" lon="6.16803">
        <ele>1947.5</ele>
        <time>2014-05-25T04:54:16Z</time>
      </trkpt>
      <trkpt lat="45.22747" lon="6.16795">
        <ele>1947.5</ele>
        <time>2014-05-25T04:54:30Z</time>
      </trkpt>
      <trkpt lat="45.22732" lon="6.16781">
        <ele>1951.5</ele>
        <time>2014-05-25T04:55:16Z</time>
      </trkpt>
      <trkpt lat="45.22725" lon="6.16772">
        <ele>1955.5</ele>
        <time>2014-05-25T04:55:45Z</time>
      </trkpt>
      <trkpt lat="45.22708" lon="6.1676">
        <ele>1958.5</ele>
        <time>2014-05-25T04:56:09Z</time>
      </trkpt>
      <trkpt lat="45.227" lon="6.16752">
        <ele>1960.5</ele>
        <time>2014-05-25T04:56:25Z</time>
      </trkpt>
      <trkpt lat="45.22692" lon="6.16746">
        <ele>1965.5</ele>
        <time>2014-05-25T04:56:56Z</time>
      </trkpt>
      <trkpt lat="45.22679" lon="6.16728">
        <ele>1975.5</ele>
        <time>2014-05-25T04:57:20Z</time>
      </trkpt>
      <trkpt lat="45.2267" lon="6.16721">
        <ele>1980.5</ele>
        <time>2014-05-25T04:57:37Z</time>
      </trkpt>
      <trkpt lat="45.22663" lon="6.16713">
        <ele>1978.5</ele>
        <time>2014-05-25T04:57:53Z</time>
      </trkpt>
      <trkpt lat="45.22654" lon="6.16709">
        <ele>1986.5</ele>
        <time>2014-05-25T04:58:10Z</time>
      </trkpt>
      <trkpt lat="45.22639" lon="6.16694">
        <ele>1996.5</ele>
        <time>2014-05-25T04:59:02Z</time>
      </trkpt>
      <trkpt lat="45.22629" lon="6.16692">
        <ele>1997.5</ele>
        <time>2014-05-25T04:59:32Z</time>
      </trkpt>
      <trkpt lat="45.22611" lon="6.16687">
        <ele>1997.5</ele>
        <time>2014-05-25T05:00:09Z</time>
      </trkpt>
      <trkpt lat="45.22602" lon="6.16685">
        <ele>2005.5</ele>
        <time>2014-05-25T05:00:18Z</time>
      </trkpt>
      <trkpt lat="45.22594" lon="6.16679">
        <ele>2011.5</ele>
        <time>2014-05-25T05:00:53Z</time>
      </trkpt>
      <trkpt lat="45.22576" lon="6.16672">
        <ele>2010.5</ele>
        <time>2014-05-25T05:01:13Z</time>
      </trkpt>
      <trkpt lat="45.22568" lon="6.16664">
        <ele>2011.5</ele>
        <time>2014-05-25T05:01:22Z</time>
      </trkpt>
      <trkpt lat="45.2256" lon="6.16656">
        <ele>2013.5</ele>
        <time>2014-05-25T05:01:33Z</time>
      </trkpt>
      <trkpt lat="45.22551" lon="6.16654">
        <ele>2014.5</ele>
        <time>2014-05-25T05:01:48Z</time>
      </trkpt>
      <trkpt lat="45.22541" lon="6.16653">
        <ele>2014.5</ele>
        <time>2014-05-25T05:02:09Z</time>
      </trkpt>
      <trkpt lat="45.22524" lon="6.16644">
        <ele>2020.5</ele>
        <time>2014-05-25T05:02:38Z</time>
      </trkpt>
      <trkpt lat="45.22515" lon="6.1664">
        <ele>2022.5</ele>
        <time>2014-05-25T05:02:52Z</time>
      </trkpt>
      <trkpt lat="45.22507" lon="6.16634">
        <ele>2029.5</ele>
        <time>2014-05-25T05:03:11Z</time>
      </trkpt>
      <trkpt lat="45.22492" lon="6.1662">
        <ele>2029.5</ele>
        <time>2014-05-25T05:03:54Z</time>
      </trkpt>
      <trkpt lat="45.22483" lon="6.16614">
        <ele>2031.5</ele>
        <time>2014-05-25T05:04:04Z</time>
      </trkpt>
      <trkpt lat="45.22475" lon="6.16607">
        <ele>2039.5</ele>
        <time>2014-05-25T05:04:30Z</time>
      </trkpt>
      <trkpt lat="45.22457" lon="6.16598">
        <ele>2038.5</ele>
        <time>2014-05-25T05:04:50Z</time>
      </trkpt>
      <trkpt lat="45.22447" lon="6.16594">
        <ele>2046.5</ele>
        <time>2014-05-25T05:05:00Z</time>
      </trkpt>
      <trkpt lat="45.22439" lon="6.16587">
        <ele>2047.5</ele>
        <time>2014-05-25T05:05:10Z</time>
      </trkpt>
      <trkpt lat="45.2243" lon="6.16584">
        <ele>2039.5</ele>
        <time>2014-05-25T05:05:23Z</time>
      </trkpt>
      <trkpt lat="45.22421" lon="6.16581">
        <ele>2038.5</ele>
        <time>2014-05-25T05:05:40Z</time>
      </trkpt>
      <trkpt lat="45.22404" lon="6.16568">
        <ele>2048.5</ele>
        <time>2014-05-25T05:06:08Z</time>
      </trkpt>
      <trkpt lat="45.22396" lon="6.16563">
        <ele>2052.5</ele>
        <time>2014-05-25T05:06:45Z</time>
      </trkpt>
      <trkpt lat="45.2238" lon="6.16549">
        <ele>2059.5</ele>
        <time>2014-05-25T05:07:01Z</time>
      </trkpt>
      <trkpt lat="45.22371" lon="6.16546">
        <ele>2060.5</ele>
        <time>2014-05-25T05:07:13Z</time>
      </trkpt>
      <trkpt lat="45.22363" lon="6.16538">
        <ele>2058.5</ele>
        <time>2014-05-25T05:07:27Z</time>
      </trkpt>
      <trkpt lat="45.22354" lon="6.16531">
        <ele>2055.5</ele>
        <time>2014-05-25T05:07:39Z</time>
      </trkpt>
      <trkpt lat="45.22345" lon="6.16527">
        <ele>2053.5</ele>
        <time>2014-05-25T05:07:53Z</time>
      </trkpt>
      <trkpt lat="45.22327" lon="6.16521">
        <ele>2064.5</ele>
        <time>2014-05-25T05:08:38Z</time>
      </trkpt>
      <trkpt lat="45.22319" lon="6.16515">
        <ele>2057.5</ele>
        <time>2014-05-25T05:08:44Z</time>
      </trkpt>
      <trkpt lat="45.22312" lon="6.16507">
        <ele>2065.5</ele>
        <time>2014-05-25T05:08:59Z</time>
      </trkpt>
      <trkpt lat="45.22294" lon="6.16498">
        <ele>2075.5</ele>
        <time>2014-05-25T05:09:35Z</time>
      </trkpt>
      <trkpt lat="45.22285" lon="6.16492">
        <ele>2072.5</ele>
        <time>2014-05-25T05:09:48Z</time>
      </trkpt>
      <trkpt lat="45.22276" lon="6.16486">
        <ele>2075.5</ele>
        <time>2014-05-25T05:10:02Z</time>
      </trkpt>
      <trkpt lat="45.22259" lon="6.16475">
        <ele>2079.5</ele>
        <time>2014-05-25T05:10:36Z</time>
      </trkpt>
      <trkpt lat="45.22251" lon="6.16469">
        <ele>2084.5</ele>
        <time>2014-05-25T05:11:06Z</time>
      </trkpt>
      <trkpt lat="45.22234" lon="6.16457">
        <ele>2084.5</ele>
        <time>2014-05-25T05:11:24Z</time>
      </trkpt>
      <trkpt lat="45.22225" lon="6.16453">
        <ele>2086.5</ele>
        <time>2014-05-25T05:11:54Z</time>
      </trkpt>
      <trkpt lat="45.22216" lon="6.16455">
        <ele>2087.5</ele>
        <time>2014-05-25T05:12:02Z</time>
      </trkpt>
      <trkpt lat="45.22207" lon="6.16449">
        <ele>2092.5</ele>
        <time>2014-05-25T05:12:34Z</time>
      </trkpt>
      <trkpt lat="45.2218" lon="6.16416">
        <ele>2107.5</ele>
        <time>2014-05-25T05:18:43Z</time>
      </trkpt>
      <trkpt lat="45.22171" lon="6.16411">
        <ele>2109.5</ele>
        <time>2014-05-25T05:18:57Z</time>
      </trkpt>
      <trkpt lat="45.22162" lon="6.1641">
        <ele>2110.5</ele>
        <time>2014-05-25T05:19:10Z</time>
      </trkpt>
      <trkpt lat="45.22153" lon="6.16405">
        <ele>2115.5</ele>
        <time>2014-05-25T05:19:52Z</time>
      </trkpt>
      <trkpt lat="45.22134" lon="6.16398">
        <ele>2116.5</ele>
        <time>2014-05-25T05:20:09Z</time>
      </trkpt>
      <trkpt lat="45.22126" lon="6.16394">
        <ele>2121.5</ele>
        <time>2014-05-25T05:20:20Z</time>
      </trkpt>
      <trkpt lat="45.22117" lon="6.16389">
        <ele>2124.5</ele>
        <time>2014-05-25T05:20:43Z</time>
      </trkpt>
      <trkpt lat="45.22108" lon="6.16384">
        <ele>2129.5</ele>
        <time>2014-05-25T05:20:55Z</time>
      </trkpt>
      <trkpt lat="45.22092" lon="6.16371">
        <ele>2135.5</ele>
        <time>2014-05-25T05:21:24Z</time>
      </trkpt>
      <trkpt lat="45.22086" lon="6.16362">
        <ele>2138.5</ele>
        <time>2014-05-25T05:21:43Z</time>
      </trkpt>
      <trkpt lat="45.22083" lon="6.16349">
        <ele>2143.5</ele>
        <time>2014-05-25T05:22:02Z</time>
      </trkpt>
      <trkpt lat="45.22077" lon="6.16323">
        <ele>2144.5</ele>
        <time>2014-05-25T05:22:29Z</time>
      </trkpt>
      <trkpt lat="45.22073" lon="6.16311">
        <ele>2148.5</ele>
        <time>2014-05-25T05:22:41Z</time>
      </trkpt>
      <trkpt lat="45.22068" lon="6.16299">
        <ele>2147.5</ele>
        <time>2014-05-25T05:23:03Z</time>
      </trkpt>
      <trkpt lat="45.22056" lon="6.16281">
        <ele>2150.5</ele>
        <time>2014-05-25T05:23:29Z</time>
      </trkpt>
      <trkpt lat="45.22047" lon="6.16275">
        <ele>2145.5</ele>
        <time>2014-05-25T05:23:42Z</time>
      </trkpt>
      <trkpt lat="45.22039" lon="6.16267">
        <ele>2151.5</ele>
        <time>2014-05-25T05:23:59Z</time>
      </trkpt>
      <trkpt lat="45.22032" lon="6.16259">
        <ele>2155.5</ele>
        <time>2014-05-25T05:24:07Z</time>
      </trkpt>
      <trkpt lat="45.22016" lon="6.16247">
        <ele>2160.5</ele>
        <time>2014-05-25T05:24:25Z</time>
      </trkpt>
      <trkpt lat="45.22009" lon="6.16239">
        <ele>2162.5</ele>
        <time>2014-05-25T05:24:33Z</time>
      </trkpt>
      <trkpt lat="45.22" lon="6.16233">
        <ele>2164.5</ele>
        <time>2014-05-25T05:24:44Z</time>
      </trkpt>
      <trkpt lat="45.21991" lon="6.16229">
        <ele>2169.5</ele>
        <time>2014-05-25T05:24:59Z</time>
      </trkpt>
      <trkpt lat="45.21983" lon="6.16224">
        <ele>2169.5</ele>
        <time>2014-05-25T05:25:09Z</time>
      </trkpt>
      <trkpt lat="45.21968" lon="6.16208">
        <ele>2170.5</ele>
        <time>2014-05-25T05:25:41Z</time>
      </trkpt>
      <trkpt lat="45.21961" lon="6.16199">
        <ele>2172.5</ele>
        <time>2014-05-25T05:25:50Z</time>
      </trkpt>
      <trkpt lat="45.21953" lon="6.16192">
        <ele>2177.5</ele>
        <time>2014-05-25T05:25:58Z</time>
      </trkpt>
      <trkpt lat="45.21946" lon="6.16183">
        <ele>2174.5</ele>
        <time>2014-05-25T05:26:06Z</time>
      </trkpt>
      <trkpt lat="45.21937" lon="6.16183">
        <ele>2183.5</ele>
        <time>2014-05-25T05:26:23Z</time>
      </trkpt>
      <trkpt lat="45.21919" lon="6.16174">
        <ele>2181.5</ele>
        <time>2014-05-25T05:26:48Z</time>
      </trkpt>
      <trkpt lat="45.21911" lon="6.16168">
        <ele>2182.5</ele>
        <time>2014-05-25T05:26:57Z</time>
      </trkpt>
      <trkpt lat="45.21902" lon="6.16165">
        <ele>2189.5</ele>
        <time>2014-05-25T05:27:09Z</time>
      </trkpt>
      <trkpt lat="45.21893" lon="6.16166">
        <ele>2180.5</ele>
        <time>2014-05-25T05:27:26Z</time>
      </trkpt>
      <trkpt lat="45.21874" lon="6.16165">
        <ele>2187.5</ele>
        <time>2014-05-25T05:27:52Z</time>
      </trkpt>
      <trkpt lat="45.21867" lon="6.16156">
        <ele>2190.5</ele>
        <time>2014-05-25T05:28:31Z</time>
      </trkpt>
      <trkpt lat="45.21851" lon="6.16141">
        <ele>2196.5</ele>
        <time>2014-05-25T05:29:10Z</time>
      </trkpt>
      <trkpt lat="45.21843" lon="6.16135">
        <ele>2199.5</ele>
        <time>2014-05-25T05:29:18Z</time>
      </trkpt>
      <trkpt lat="45.21837" lon="6.16125">
        <ele>2203.5</ele>
        <time>2014-05-25T05:29:22Z</time>
      </trkpt>
      <trkpt lat="45.21831" lon="6.16116">
        <ele>2208.5</ele>
        <time>2014-05-25T05:29:27Z</time>
      </trkpt>
      <trkpt lat="45.21824" lon="6.16103">
        <ele>2210.5</ele>
        <time>2014-05-25T05:29:32Z</time>
      </trkpt>
      <trkpt lat="45.21806" lon="6.161">
        <ele>2213.5</ele>
        <time>2014-05-25T05:29:54Z</time>
      </trkpt>
      <trkpt lat="45.21798" lon="6.16093">
        <ele>2211.5</ele>
        <time>2014-05-25T05:30:03Z</time>
      </trkpt>
      <trkpt lat="45.2179" lon="6.16084">
        <ele>2210.5</ele>
        <time>2014-05-25T05:30:11Z</time>
      </trkpt>
      <trkpt lat="45.21782" lon="6.16078">
        <ele>2212.5</ele>
        <time>2014-05-25T05:30:21Z</time>
      </trkpt>
      <trkpt lat="45.21775" lon="6.1607">
        <ele>2213.5</ele>
        <time>2014-05-25T05:30:30Z</time>
      </trkpt>
      <trkpt lat="45.21767" lon="6.16063">
        <ele>2212.5</ele>
        <time>2014-05-25T05:30:41Z</time>
      </trkpt>
      <trkpt lat="45.21751" lon="6.16047">
        <ele>2218.5</ele>
        <time>2014-05-25T05:31:02Z</time>
      </trkpt>
      <trkpt lat="45.21742" lon="6.16042">
        <ele>2218.5</ele>
        <time>2014-05-25T05:31:13Z</time>
      </trkpt>
      <trkpt lat="45.21734" lon="6.16036">
        <ele>2219.5</ele>
        <time>2014-05-25T05:31:25Z</time>
      </trkpt>
      <trkpt lat="45.21725" lon="6.16032">
        <ele>2222.5</ele>
        <time>2014-05-25T05:31:39Z</time>
      </trkpt>
      <trkpt lat="45.21717" lon="6.16027">
        <ele>2229.5</ele>
        <time>2014-05-25T05:31:50Z</time>
      </trkpt>
      <trkpt lat="45.21699" lon="6.16018">
        <ele>2231.5</ele>
        <time>2014-05-25T05:32:14Z</time>
      </trkpt>
      <trkpt lat="45.21691" lon="6.16013">
        <ele>2232.5</ele>
        <time>2014-05-25T05:32:24Z</time>
      </trkpt>
      <trkpt lat="45.21682" lon="6.16008">
        <ele>2233.5</ele>
        <time>2014-05-25T05:32:38Z</time>
      </trkpt>
      <trkpt lat="45.21673" lon="6.16006">
        <ele>2236.5</ele>
        <time>2014-05-25T05:32:50Z</time>
      </trkpt>
      <trkpt lat="45.21655" lon="6.16011">
        <ele>2231.5</ele>
        <time>2014-05-25T05:33:20Z</time>
      </trkpt>
      <trkpt lat="45.21646" lon="6.16013">
        <ele>2229.5</ele>
        <time>2014-05-25T05:33:33Z</time>
      </trkpt>
      <trkpt lat="45.21637" lon="6.16018">
        <ele>2231.5</ele>
        <time>2014-05-25T05:33:48Z</time>
      </trkpt>
      <trkpt lat="45.21628" lon="6.16022">
        <ele>2235.5</ele>
        <time>2014-05-25T05:34:02Z</time>
      </trkpt>
      <trkpt lat="45.21615" lon="6.16038">
        <ele>2240.5</ele>
        <time>2014-05-25T05:34:27Z</time>
      </trkpt>
      <trkpt lat="45.21609" lon="6.16047">
        <ele>2235.5</ele>
        <time>2014-05-25T05:34:46Z</time>
      </trkpt>
      <trkpt lat="45.21603" lon="6.16058">
        <ele>2240.5</ele>
        <time>2014-05-25T05:34:59Z</time>
      </trkpt>
      <trkpt lat="45.21601" lon="6.1607">
        <ele>2249.5</ele>
        <time>2014-05-25T05:35:13Z</time>
      </trkpt>
      <trkpt lat="45.21602" lon="6.16097">
        <ele>2259.5</ele>
        <time>2014-05-25T05:35:40Z</time>
      </trkpt>
      <trkpt lat="45.216" lon="6.1611">
        <ele>2260.5</ele>
        <time>2014-05-25T05:35:51Z</time>
      </trkpt>
      <trkpt lat="45.21598" lon="6.16123">
        <ele>2266.5</ele>
        <time>2014-05-25T05:36:07Z</time>
      </trkpt>
      <trkpt lat="45.21589" lon="6.16122">
        <ele>2266.5</ele>
        <time>2014-05-25T05:36:59Z</time>
      </trkpt>
      <trkpt lat="45.21574" lon="6.16106">
        <ele>2263.5</ele>
        <time>2014-05-25T05:37:23Z</time>
      </trkpt>
      <trkpt lat="45.21565" lon="6.16099">
        <ele>2260.5</ele>
        <time>2014-05-25T05:37:39Z</time>
      </trkpt>
      <trkpt lat="45.21557" lon="6.16094">
        <ele>2263.5</ele>
        <time>2014-05-25T05:37:53Z</time>
      </trkpt>
      <trkpt lat="45.21549" lon="6.16087">
        <ele>2270.5</ele>
        <time>2014-05-25T05:39:12Z</time>
      </trkpt>
      <trkpt lat="45.21532" lon="6.16074">
        <ele>2270.5</ele>
        <time>2014-05-25T05:39:31Z</time>
      </trkpt>
      <trkpt lat="45.21527" lon="6.16063">
        <ele>2278.5</ele>
        <time>2014-05-25T05:41:03Z</time>
      </trkpt>
      <trkpt lat="45.21513" lon="6.16046">
        <ele>2281.5</ele>
        <time>2014-05-25T05:41:31Z</time>
      </trkpt>
      <trkpt lat="45.21505" lon="6.16036">
        <ele>2283.5</ele>
        <time>2014-05-25T05:41:40Z</time>
      </trkpt>
      <trkpt lat="45.21501" lon="6.16025">
        <ele>2289.5</ele>
        <time>2014-05-25T05:41:52Z</time>
      </trkpt>
      <trkpt lat="45.21494" lon="6.16034">
        <ele>2300.5</ele>
        <time>2014-05-25T05:42:15Z</time>
      </trkpt>
      <trkpt lat="45.21492" lon="6.1606">
        <ele>2309.5</ele>
        <time>2014-05-25T05:42:50Z</time>
      </trkpt>
      <trkpt lat="45.21491" lon="6.16073">
        <ele>2309.5</ele>
        <time>2014-05-25T05:43:04Z</time>
      </trkpt>
      <trkpt lat="45.21489" lon="6.16086">
        <ele>2313.5</ele>
        <time>2014-05-25T05:43:17Z</time>
      </trkpt>
      <trkpt lat="45.21487" lon="6.16113">
        <ele>2316.5</ele>
        <time>2014-05-25T05:44:17Z</time>
      </trkpt>
      <trkpt lat="45.21477" lon="6.16124">
        <ele>2328.5</ele>
        <time>2014-05-25T05:45:09Z</time>
      </trkpt>
      <trkpt lat="45.21469" lon="6.16116">
        <ele>2331.5</ele>
        <time>2014-05-25T05:45:24Z</time>
      </trkpt>
      <trkpt lat="45.21455" lon="6.16097">
        <ele>2334.5</ele>
        <time>2014-05-25T05:45:48Z</time>
      </trkpt>
      <trkpt lat="45.21447" lon="6.1609">
        <ele>2338.5</ele>
        <time>2014-05-25T05:45:59Z</time>
      </trkpt>
      <trkpt lat="45.21439" lon="6.16085">
        <ele>2335.5</ele>
        <time>2014-05-25T05:46:12Z</time>
      </trkpt>
      <trkpt lat="45.2143" lon="6.16083">
        <ele>2340.5</ele>
        <time>2014-05-25T05:46:29Z</time>
      </trkpt>
      <trkpt lat="45.21412" lon="6.16083">
        <ele>2343.5</ele>
        <time>2014-05-25T05:47:01Z</time>
      </trkpt>
      <trkpt lat="45.21405" lon="6.16092">
        <ele>2346.5</ele>
        <time>2014-05-25T05:47:15Z</time>
      </trkpt>
      <trkpt lat="45.21397" lon="6.16098">
        <ele>2348.5</ele>
        <time>2014-05-25T05:47:30Z</time>
      </trkpt>
      <trkpt lat="45.21395" lon="6.1611">
        <ele>2352.5</ele>
        <time>2014-05-25T05:48:13Z</time>
      </trkpt>
      <trkpt lat="45.21397" lon="6.16123">
        <ele>2362.5</ele>
        <time>2014-05-25T05:48:26Z</time>
      </trkpt>
      <trkpt lat="45.21394" lon="6.16135">
        <ele>2362.5</ele>
        <time>2014-05-25T05:48:37Z</time>
      </trkpt>
      <trkpt lat="45.21367" lon="6.1614">
        <ele>2359.5</ele>
        <time>2014-05-25T05:52:19Z</time>
      </trkpt>
      <trkpt lat="45.21358" lon="6.16138">
        <ele>2355.5</ele>
        <time>2014-05-25T05:52:27Z</time>
      </trkpt>
      <trkpt lat="45.2135" lon="6.16136">
        <ele>2357.5</ele>
        <time>2014-05-25T05:52:35Z</time>
      </trkpt>
      <trkpt lat="45.2134" lon="6.16131">
        <ele>2362.5</ele>
        <time>2014-05-25T05:52:45Z</time>
      </trkpt>
      <trkpt lat="45.21332" lon="6.16136">
        <ele>2366.5</ele>
        <time>2014-05-25T05:52:57Z</time>
      </trkpt>
      <trkpt lat="45.21323" lon="6.16128">
        <ele>2370.5</ele>
        <time>2014-05-25T05:53:07Z</time>
      </trkpt>
      <trkpt lat="45.21307" lon="6.16112">
        <ele>2372.5</ele>
        <time>2014-05-25T05:53:22Z</time>
      </trkpt>
      <trkpt lat="45.213" lon="6.1612">
        <ele>2373.5</ele>
        <time>2014-05-25T05:53:31Z</time>
      </trkpt>
      <trkpt lat="45.21292" lon="6.16127">
        <ele>2367.5</ele>
        <time>2014-05-25T05:53:44Z</time>
      </trkpt>
      <trkpt lat="45.21282" lon="6.16128">
        <ele>2370.5</ele>
        <time>2014-05-25T05:53:55Z</time>
      </trkpt>
      <trkpt lat="45.21273" lon="6.16126">
        <ele>2373.5</ele>
        <time>2014-05-25T05:54:05Z</time>
      </trkpt>
      <trkpt lat="45.21263" lon="6.1613">
        <ele>2370.5</ele>
        <time>2014-05-25T05:54:14Z</time>
      </trkpt>
      <trkpt lat="45.21245" lon="6.16135">
        <ele>2380.5</ele>
        <time>2014-05-25T05:54:38Z</time>
      </trkpt>
      <trkpt lat="45.21235" lon="6.16137">
        <ele>2380.5</ele>
        <time>2014-05-25T05:54:49Z</time>
      </trkpt>
      <trkpt lat="45.21225" lon="6.1614">
        <ele>2385.5</ele>
        <time>2014-05-25T05:55:01Z</time>
      </trkpt>
      <trkpt lat="45.21216" lon="6.16135">
        <ele>2385.5</ele>
        <time>2014-05-25T05:55:10Z</time>
      </trkpt>
      <trkpt lat="45.21211" lon="6.16146">
        <ele>2385.5</ele>
        <time>2014-05-25T05:55:21Z</time>
      </trkpt>
      <trkpt lat="45.21194" lon="6.16132">
        <ele>2383.5</ele>
        <time>2014-05-25T05:55:36Z</time>
      </trkpt>
      <trkpt lat="45.21185" lon="6.16128">
        <ele>2382.5</ele>
        <time>2014-05-25T05:55:42Z</time>
      </trkpt>
      <trkpt lat="45.21176" lon="6.16124">
        <ele>2383.5</ele>
        <time>2014-05-25T05:55:50Z</time>
      </trkpt>
      <trkpt lat="45.21167" lon="6.16123">
        <ele>2384.5</ele>
        <time>2014-05-25T05:55:58Z</time>
      </trkpt>
      <trkpt lat="45.21158" lon="6.16116">
        <ele>2386.5</ele>
        <time>2014-05-25T05:56:04Z</time>
      </trkpt>
      <trkpt lat="45.21149" lon="6.16118">
        <ele>2387.5</ele>
        <time>2014-05-25T05:56:23Z</time>
      </trkpt>
      <trkpt lat="45.21131" lon="6.16112">
        <ele>2385.5</ele>
        <time>2014-05-25T05:56:37Z</time>
      </trkpt>
      <trkpt lat="45.21122" lon="6.16105">
        <ele>2386.5</ele>
        <time>2014-05-25T05:56:46Z</time>
      </trkpt>
      <trkpt lat="45.21113" lon="6.16101">
        <ele>2388.5</ele>
        <time>2014-05-25T05:56:59Z</time>
      </trkpt>
      <trkpt lat="45.21107" lon="6.16091">
        <ele>2392.5</ele>
        <time>2014-05-25T05:57:21Z</time>
      </trkpt>
      <trkpt lat="45.21099" lon="6.16083">
        <ele>2393.5</ele>
        <time>2014-05-25T05:57:29Z</time>
      </trkpt>
      <trkpt lat="45.21082" lon="6.16083">
        <ele>2388.5</ele>
        <time>2014-05-25T05:57:55Z</time>
      </trkpt>
      <trkpt lat="45.21074" lon="6.16076">
        <ele>2396.5</ele>
        <time>2014-05-25T05:58:09Z</time>
      </trkpt>
      <trkpt lat="45.21065" lon="6.16069">
        <ele>2392.5</ele>
        <time>2014-05-25T05:58:21Z</time>
      </trkpt>
      <trkpt lat="45.21059" lon="6.16059">
        <ele>2397.5</ele>
        <time>2014-05-25T05:58:32Z</time>
      </trkpt>
      <trkpt lat="45.21043" lon="6.16044">
        <ele>2397.5</ele>
        <time>2014-05-25T05:58:50Z</time>
      </trkpt>
      <trkpt lat="45.21035" lon="6.16037">
        <ele>2399.5</ele>
        <time>2014-05-25T05:58:59Z</time>
      </trkpt>
      <trkpt lat="45.2103" lon="6.16026">
        <ele>2402.5</ele>
        <time>2014-05-25T05:59:21Z</time>
      </trkpt>
      <trkpt lat="45.21024" lon="6.16016">
        <ele>2400.5</ele>
        <time>2014-05-25T05:59:27Z</time>
      </trkpt>
      <trkpt lat="45.21016" lon="6.1601">
        <ele>2396.5</ele>
        <time>2014-05-25T05:59:34Z</time>
      </trkpt>
      <trkpt lat="45.20999" lon="6.15993">
        <ele>2397.5</ele>
        <time>2014-05-25T05:59:48Z</time>
      </trkpt>
      <trkpt lat="45.20993" lon="6.15984">
        <ele>2393.5</ele>
        <time>2014-05-25T05:59:53Z</time>
      </trkpt>
      <trkpt lat="45.20984" lon="6.15989">
        <ele>2395.5</ele>
        <time>2014-05-25T06:00:04Z</time>
      </trkpt>
      <trkpt lat="45.20975" lon="6.15986">
        <ele>2393.5</ele>
        <time>2014-05-25T06:00:13Z</time>
      </trkpt>
      <trkpt lat="45.20966" lon="6.15987">
        <ele>2392.5</ele>
        <time>2014-05-25T06:00:30Z</time>
      </trkpt>
      <trkpt lat="45.20956" lon="6.15984">
        <ele>2395.5</ele>
        <time>2014-05-25T06:00:41Z</time>
      </trkpt>
      <trkpt lat="45.20938" lon="6.15986">
        <ele>2403.5</ele>
        <time>2014-05-25T06:00:59Z</time>
      </trkpt>
      <trkpt lat="45.20929" lon="6.1599">
        <ele>2406.5</ele>
        <time>2014-05-25T06:01:11Z</time>
      </trkpt>
      <trkpt lat="45.20919" lon="6.15988">
        <ele>2404.5</ele>
        <time>2014-05-25T06:01:20Z</time>
      </trkpt>
      <trkpt lat="45.20912" lon="6.15996">
        <ele>2403.5</ele>
        <time>2014-05-25T06:01:29Z</time>
      </trkpt>
      <trkpt lat="45.20903" lon="6.15993">
        <ele>2398.5</ele>
        <time>2014-05-25T06:01:41Z</time>
      </trkpt>
      <trkpt lat="45.20895" lon="6.15985">
        <ele>2403.5</ele>
        <time>2014-05-25T06:01:47Z</time>
      </trkpt>
      <trkpt lat="45.20877" lon="6.15993">
        <ele>2413.5</ele>
        <time>2014-05-25T06:02:14Z</time>
      </trkpt>
      <trkpt lat="45.20867" lon="6.15993">
        <ele>2416.5</ele>
        <time>2014-05-25T06:02:24Z</time>
      </trkpt>
      <trkpt lat="45.20858" lon="6.15997">
        <ele>2419.5</ele>
        <time>2014-05-25T06:02:37Z</time>
      </trkpt>
      <trkpt lat="45.20852" lon="6.15986">
        <ele>2422.5</ele>
        <time>2014-05-25T06:02:54Z</time>
      </trkpt>
      <trkpt lat="45.20837" lon="6.15967">
        <ele>2427.5</ele>
        <time>2014-05-25T06:03:14Z</time>
      </trkpt>
      <trkpt lat="45.20828" lon="6.15963">
        <ele>2430.5</ele>
        <time>2014-05-25T06:03:23Z</time>
      </trkpt>
      <trkpt lat="45.20818" lon="6.15962">
        <ele>2431.5</ele>
        <time>2014-05-25T06:03:36Z</time>
      </trkpt>
      <trkpt lat="45.20809" lon="6.15965">
        <ele>2429.5</ele>
        <time>2014-05-25T06:03:49Z</time>
      </trkpt>
      <trkpt lat="45.208" lon="6.15961">
        <ele>2434.5</ele>
        <time>2014-05-25T06:03:57Z</time>
      </trkpt>
      <trkpt lat="45.20781" lon="6.15965">
        <ele>2431.5</ele>
        <time>2014-05-25T06:04:17Z</time>
      </trkpt>
      <trkpt lat="45.20773" lon="6.15972">
        <ele>2436.5</ele>
        <time>2014-05-25T06:04:30Z</time>
      </trkpt>
      <trkpt lat="45.20763" lon="6.15974">
        <ele>2438.5</ele>
        <time>2014-05-25T06:04:37Z</time>
      </trkpt>
      <trkpt lat="45.20756" lon="6.15965">
        <ele>2449.5</ele>
        <time>2014-05-25T06:04:44Z</time>
      </trkpt>
      <trkpt lat="45.20749" lon="6.15973">
        <ele>2446.5</ele>
        <time>2014-05-25T06:04:52Z</time>
      </trkpt>
      <trkpt lat="45.20739" lon="6.15974">
        <ele>2450.5</ele>
        <time>2014-05-25T06:05:00Z</time>
      </trkpt>
      <trkpt lat="45.20721" lon="6.15971">
        <ele>2448.5</ele>
        <time>2014-05-25T06:05:33Z</time>
      </trkpt>
      <trkpt lat="45.20712" lon="6.1597">
        <ele>2448.5</ele>
        <time>2014-05-25T06:05:48Z</time>
      </trkpt>
      <trkpt lat="45.20703" lon="6.15969">
        <ele>2458.5</ele>
        <time>2014-05-25T06:06:02Z</time>
      </trkpt>
      <trkpt lat="45.20687" lon="6.15977">
        <ele>2469.5</ele>
        <time>2014-05-25T06:06:35Z</time>
      </trkpt>
      <trkpt lat="45.20678" lon="6.15982">
        <ele>2475.5</ele>
        <time>2014-05-25T06:06:50Z</time>
      </trkpt>
      <trkpt lat="45.20668" lon="6.15985">
        <ele>2480.5</ele>
        <time>2014-05-25T06:12:12Z</time>
      </trkpt>
      <trkpt lat="45.20651" lon="6.15998">
        <ele>2480.5</ele>
        <time>2014-05-25T06:12:26Z</time>
      </trkpt>
      <trkpt lat="45.20641" lon="6.16002">
        <ele>2480.5</ele>
        <time>2014-05-25T06:12:33Z</time>
      </trkpt>
      <trkpt lat="45.20633" lon="6.16008">
        <ele>2486.5</ele>
        <time>2014-05-25T06:12:44Z</time>
      </trkpt>
      <trkpt lat="45.20625" lon="6.16016">
        <ele>2489.5</ele>
        <time>2014-05-25T06:12:54Z</time>
      </trkpt>
      <trkpt lat="45.20616" lon="6.16021">
        <ele>2485.5</ele>
        <time>2014-05-25T06:13:14Z</time>
      </trkpt>
      <trkpt lat="45.20601" lon="6.16036">
        <ele>2485.5</ele>
        <time>2014-05-25T06:13:42Z</time>
      </trkpt>
      <trkpt lat="45.20592" lon="6.16038">
        <ele>2487.5</ele>
        <time>2014-05-25T06:13:52Z</time>
      </trkpt>
      <trkpt lat="45.20585" lon="6.16048">
        <ele>2484.5</ele>
        <time>2014-05-25T06:13:58Z</time>
      </trkpt>
      <trkpt lat="45.20577" lon="6.16056">
        <ele>2484.5</ele>
        <time>2014-05-25T06:14:03Z</time>
      </trkpt>
      <trkpt lat="45.20572" lon="6.16068">
        <ele>2483.5</ele>
        <time>2014-05-25T06:14:15Z</time>
      </trkpt>
      <trkpt lat="45.20558" lon="6.16083">
        <ele>2481.5</ele>
        <time>2014-05-25T06:14:27Z</time>
      </trkpt>
      <trkpt lat="45.20552" lon="6.16096">
        <ele>2483.5</ele>
        <time>2014-05-25T06:14:32Z</time>
      </trkpt>
      <trkpt lat="45.20549" lon="6.16108">
        <ele>2485.5</ele>
        <time>2014-05-25T06:14:39Z</time>
      </trkpt>
      <trkpt lat="45.20553" lon="6.16121">
        <ele>2488.5</ele>
        <time>2014-05-25T06:14:53Z</time>
      </trkpt>
      <trkpt lat="45.20555" lon="6.16133">
        <ele>2489.5</ele>
        <time>2014-05-25T06:15:07Z</time>
      </trkpt>
      <trkpt lat="45.20554" lon="6.16147">
        <ele>2490.5</ele>
        <time>2014-05-25T06:15:20Z</time>
      </trkpt>
      <trkpt lat="45.20557" lon="6.16174">
        <ele>2496.5</ele>
        <time>2014-05-25T06:15:53Z</time>
      </trkpt>
      <trkpt lat="45.20551" lon="6.16185">
        <ele>2495.5</ele>
        <time>2014-05-25T06:16:02Z</time>
      </trkpt>
      <trkpt lat="45.20545" lon="6.16194">
        <ele>2492.5</ele>
        <time>2014-05-25T06:16:11Z</time>
      </trkpt>
      <trkpt lat="45.20536" lon="6.16198">
        <ele>2496.5</ele>
        <time>2014-05-25T06:16:17Z</time>
      </trkpt>
      <trkpt lat="45.20527" lon="6.16199">
        <ele>2496.5</ele>
        <time>2014-05-25T06:16:26Z</time>
      </trkpt>
      <trkpt lat="45.20508" lon="6.16201">
        <ele>2492.5</ele>
        <time>2014-05-25T06:16:52Z</time>
      </trkpt>
      <trkpt lat="45.20499" lon="6.16203">
        <ele>2496.5</ele>
        <time>2014-05-25T06:17:03Z</time>
      </trkpt>
      <trkpt lat="45.20489" lon="6.16203">
        <ele>2498.5</ele>
        <time>2014-05-25T06:17:13Z</time>
      </trkpt>
      <trkpt lat="45.2048" lon="6.16203">
        <ele>2500.5</ele>
        <time>2014-05-25T06:17:24Z</time>
      </trkpt>
      <trkpt lat="45.2047" lon="6.16201">
        <ele>2496.5</ele>
        <time>2014-05-25T06:17:41Z</time>
      </trkpt>
      <trkpt lat="45.20454" lon="6.16186">
        <ele>2500.5</ele>
        <time>2014-05-25T06:18:24Z</time>
      </trkpt>
      <trkpt lat="45.20447" lon="6.16177">
        <ele>2507.5</ele>
        <time>2014-05-25T06:18:32Z</time>
      </trkpt>
      <trkpt lat="45.20439" lon="6.1617">
        <ele>2508.5</ele>
        <time>2014-05-25T06:18:41Z</time>
      </trkpt>
      <trkpt lat="45.20431" lon="6.16163">
        <ele>2509.5</ele>
        <time>2014-05-25T06:18:56Z</time>
      </trkpt>
      <trkpt lat="45.20415" lon="6.1615">
        <ele>2509.5</ele>
        <time>2014-05-25T06:19:16Z</time>
      </trkpt>
      <trkpt lat="45.20407" lon="6.16143">
        <ele>2511.5</ele>
        <time>2014-05-25T06:20:29Z</time>
      </trkpt>
      <trkpt lat="45.20388" lon="6.16133">
        <ele>2512.5</ele>
        <time>2014-05-25T06:20:49Z</time>
      </trkpt>
      <trkpt lat="45.20379" lon="6.16129">
        <ele>2520.5</ele>
        <time>2014-05-25T06:20:57Z</time>
      </trkpt>
      <trkpt lat="45.20372" lon="6.1612">
        <ele>2518.5</ele>
        <time>2014-05-25T06:21:08Z</time>
      </trkpt>
      <trkpt lat="45.20366" lon="6.1611">
        <ele>2516.5</ele>
        <time>2014-05-25T06:21:18Z</time>
      </trkpt>
      <trkpt lat="45.20359" lon="6.16101">
        <ele>2520.5</ele>
        <time>2014-05-25T06:21:26Z</time>
      </trkpt>
      <trkpt lat="45.2035" lon="6.16098">
        <ele>2521.5</ele>
        <time>2014-05-25T06:21:33Z</time>
      </trkpt>
      <trkpt lat="45.20331" lon="6.16098">
        <ele>2525.5</ele>
        <time>2014-05-25T06:21:52Z</time>
      </trkpt>
      <trkpt lat="45.20321" lon="6.16095">
        <ele>2524.5</ele>
        <time>2014-05-25T06:22:04Z</time>
      </trkpt>
      <trkpt lat="45.20312" lon="6.16101">
        <ele>2524.5</ele>
        <time>2014-05-25T06:22:10Z</time>
      </trkpt>
      <trkpt lat="45.20303" lon="6.1611">
        <ele>2524.5</ele>
        <time>2014-05-25T06:22:17Z</time>
      </trkpt>
      <trkpt lat="45.20294" lon="6.16112">
        <ele>2525.5</ele>
        <time>2014-05-25T06:22:25Z</time>
      </trkpt>
      <trkpt lat="45.20286" lon="6.1612">
        <ele>2529.5</ele>
        <time>2014-05-25T06:22:37Z</time>
      </trkpt>
      <trkpt lat="45.2027" lon="6.16133">
        <ele>2527.5</ele>
        <time>2014-05-25T06:22:51Z</time>
      </trkpt>
      <trkpt lat="45.2026" lon="6.16136">
        <ele>2527.5</ele>
        <time>2014-05-25T06:23:04Z</time>
      </trkpt>
      <trkpt lat="45.20252" lon="6.16142">
        <ele>2528.5</ele>
        <time>2014-05-25T06:23:15Z</time>
      </trkpt>
      <trkpt lat="45.20245" lon="6.16149">
        <ele>2528.5</ele>
        <time>2014-05-25T06:23:25Z</time>
      </trkpt>
      <trkpt lat="45.20236" lon="6.16157">
        <ele>2524.5</ele>
        <time>2014-05-25T06:23:39Z</time>
      </trkpt>
      <trkpt lat="45.2022" lon="6.16168">
        <ele>2533.5</ele>
        <time>2014-05-25T06:23:52Z</time>
      </trkpt>
      <trkpt lat="45.20212" lon="6.16176">
        <ele>2530.5</ele>
        <time>2014-05-25T06:23:58Z</time>
      </trkpt>
      <trkpt lat="45.20203" lon="6.16182">
        <ele>2526.5</ele>
        <time>2014-05-25T06:24:06Z</time>
      </trkpt>
      <trkpt lat="45.20194" lon="6.16183">
        <ele>2524.5</ele>
        <time>2014-05-25T06:24:22Z</time>
      </trkpt>
      <trkpt lat="45.20185" lon="6.16191">
        <ele>2528.5</ele>
        <time>2014-05-25T06:24:30Z</time>
      </trkpt>
      <trkpt lat="45.20175" lon="6.16195">
        <ele>2534.5</ele>
        <time>2014-05-25T06:24:37Z</time>
      </trkpt>
      <trkpt lat="45.20166" lon="6.16199">
        <ele>2538.5</ele>
        <time>2014-05-25T06:24:52Z</time>
      </trkpt>
      <trkpt lat="45.2015" lon="6.16215">
        <ele>2540.5</ele>
        <time>2014-05-25T06:25:08Z</time>
      </trkpt>
      <trkpt lat="45.20143" lon="6.16224">
        <ele>2537.5</ele>
        <time>2014-05-25T06:25:27Z</time>
      </trkpt>
      <trkpt lat="45.20137" lon="6.16234">
        <ele>2537.5</ele>
        <time>2014-05-25T06:25:36Z</time>
      </trkpt>
      <trkpt lat="45.20132" lon="6.16244">
        <ele>2539.5</ele>
        <time>2014-05-25T06:25:42Z</time>
      </trkpt>
      <trkpt lat="45.20123" lon="6.1625">
        <ele>2539.5</ele>
        <time>2014-05-25T06:25:52Z</time>
      </trkpt>
      <trkpt lat="45.20115" lon="6.16256">
        <ele>2533.5</ele>
        <time>2014-05-25T06:26:02Z</time>
      </trkpt>
      <trkpt lat="45.20095" lon="6.16263">
        <ele>2532.5</ele>
        <time>2014-05-25T06:26:20Z</time>
      </trkpt>
      <trkpt lat="45.20086" lon="6.16262">
        <ele>2537.5</ele>
        <time>2014-05-25T06:26:32Z</time>
      </trkpt>
      <trkpt lat="45.20077" lon="6.16269">
        <ele>2538.5</ele>
        <time>2014-05-25T06:26:39Z</time>
      </trkpt>
      <trkpt lat="45.20069" lon="6.16273">
        <ele>2537.5</ele>
        <time>2014-05-25T06:26:47Z</time>
      </trkpt>
      <trkpt lat="45.20059" lon="6.16273">
        <ele>2541.5</ele>
        <time>2014-05-25T06:26:58Z</time>
      </trkpt>
      <trkpt lat="45.20051" lon="6.16278">
        <ele>2551.5</ele>
        <time>2014-05-25T06:27:05Z</time>
      </trkpt>
      <trkpt lat="45.20032" lon="6.1628">
        <ele>2544.5</ele>
        <time>2014-05-25T06:27:29Z</time>
      </trkpt>
      <trkpt lat="45.20022" lon="6.16283">
        <ele>2535.5</ele>
        <time>2014-05-25T06:27:39Z</time>
      </trkpt>
      <trkpt lat="45.20012" lon="6.16286">
        <ele>2540.5</ele>
        <time>2014-05-25T06:27:47Z</time>
      </trkpt>
      <trkpt lat="45.20003" lon="6.16289">
        <ele>2539.5</ele>
        <time>2014-05-25T06:27:54Z</time>
      </trkpt>
      <trkpt lat="45.19993" lon="6.16292">
        <ele>2539.5</ele>
        <time>2014-05-25T06:28:05Z</time>
      </trkpt>
      <trkpt lat="45.19974" lon="6.16295">
        <ele>2539.5</ele>
        <time>2014-05-25T06:28:31Z</time>
      </trkpt>
      <trkpt lat="45.19965" lon="6.16289">
        <ele>2540.5</ele>
        <time>2014-05-25T06:28:37Z</time>
      </trkpt>
      <trkpt lat="45.19964" lon="6.16276">
        <ele>2541.5</ele>
        <time>2014-05-25T06:28:43Z</time>
      </trkpt>
      <trkpt lat="45.19956" lon="6.16283">
        <ele>2541.5</ele>
        <time>2014-05-25T06:28:49Z</time>
      </trkpt>
      <trkpt lat="45.1995" lon="6.16295">
        <ele>2548.5</ele>
        <time>2014-05-25T06:29:54Z</time>
      </trkpt>
      <trkpt lat="45.19932" lon="6.163">
        <ele>2549.5</ele>
        <time>2014-05-25T06:30:05Z</time>
      </trkpt>
      <trkpt lat="45.19922" lon="6.16295">
        <ele>2550.5</ele>
        <time>2014-05-25T06:30:10Z</time>
      </trkpt>
      <trkpt lat="45.19913" lon="6.16298">
        <ele>2549.5</ele>
        <time>2014-05-25T06:30:16Z</time>
      </trkpt>
      <trkpt lat="45.19904" lon="6.16301">
        <ele>2554.5</ele>
        <time>2014-05-25T06:30:27Z</time>
      </trkpt>
      <trkpt lat="45.19893" lon="6.16303">
        <ele>2553.5</ele>
        <time>2014-05-25T06:30:34Z</time>
      </trkpt>
      <trkpt lat="45.19887" lon="6.16293">
        <ele>2555.5</ele>
        <time>2014-05-25T06:30:41Z</time>
      </trkpt>
      <trkpt lat="45.19879" lon="6.16286">
        <ele>2556.5</ele>
        <time>2014-05-25T06:30:50Z</time>
      </trkpt>
      <trkpt lat="45.1987" lon="6.16286">
        <ele>2560.5</ele>
        <time>2014-05-25T06:31:02Z</time>
      </trkpt>
      <trkpt lat="45.19854" lon="6.16295">
        <ele>2562.5</ele>
        <time>2014-05-25T06:31:19Z</time>
      </trkpt>
      <trkpt lat="45.19845" lon="6.16301">
        <ele>2558.5</ele>
        <time>2014-05-25T06:31:37Z</time>
      </trkpt>
      <trkpt lat="45.19836" lon="6.16304">
        <ele>2562.5</ele>
        <time>2014-05-25T06:31:43Z</time>
      </trkpt>
      <trkpt lat="45.19828" lon="6.16296">
        <ele>2565.5</ele>
        <time>2014-05-25T06:31:52Z</time>
      </trkpt>
      <trkpt lat="45.19819" lon="6.16293">
        <ele>2566.5</ele>
        <time>2014-05-25T06:32:11Z</time>
      </trkpt>
      <trkpt lat="45.19799" lon="6.16294">
        <ele>2570.5</ele>
        <time>2014-05-25T06:32:29Z</time>
      </trkpt>
      <trkpt lat="45.19794" lon="6.16306">
        <ele>2561.5</ele>
        <time>2014-05-25T06:32:38Z</time>
      </trkpt>
      <trkpt lat="45.19796" lon="6.16291">
        <ele>2563.5</ele>
        <time>2014-05-25T06:32:49Z</time>
      </trkpt>
      <trkpt lat="45.19788" lon="6.16287">
        <ele>2569.5</ele>
        <time>2014-05-25T06:32:55Z</time>
      </trkpt>
      <trkpt lat="45.19783" lon="6.16298">
        <ele>2579.5</ele>
        <time>2014-05-25T06:33:03Z</time>
      </trkpt>
      <trkpt lat="45.19784" lon="6.16311">
        <ele>2587.5</ele>
        <time>2014-05-25T06:33:32Z</time>
      </trkpt>
      <trkpt lat="45.19775" lon="6.16334">
        <ele>2590.5</ele>
        <time>2014-05-25T06:33:45Z</time>
      </trkpt>
      <trkpt lat="45.19772" lon="6.16348">
        <ele>2593.5</ele>
        <time>2014-05-25T06:34:00Z</time>
      </trkpt>
      <trkpt lat="45.19769" lon="6.16361">
        <ele>2599.5</ele>
        <time>2014-05-25T06:34:18Z</time>
      </trkpt>
      <trkpt lat="45.19762" lon="6.16372">
        <ele>2601.5</ele>
        <time>2014-05-25T06:34:26Z</time>
      </trkpt>
      <trkpt lat="45.19755" lon="6.16378">
        <ele>2599.5</ele>
        <time>2014-05-25T06:34:38Z</time>
      </trkpt>
      <trkpt lat="45.19742" lon="6.16389">
        <ele>2602.5</ele>
        <time>2014-05-25T06:35:03Z</time>
      </trkpt>
      <trkpt lat="45.19733" lon="6.1639">
        <ele>2604.5</ele>
        <time>2014-05-25T06:35:15Z</time>
      </trkpt>
      <trkpt lat="45.19724" lon="6.16394">
        <ele>2607.5</ele>
        <time>2014-05-25T06:35:30Z</time>
      </trkpt>
      <trkpt lat="45.19716" lon="6.164">
        <ele>2611.5</ele>
        <time>2014-05-25T06:35:42Z</time>
      </trkpt>
      <trkpt lat="45.19698" lon="6.16409">
        <ele>2611.5</ele>
        <time>2014-05-25T06:36:06Z</time>
      </trkpt>
      <trkpt lat="45.1969" lon="6.16416">
        <ele>2616.5</ele>
        <time>2014-05-25T06:36:17Z</time>
      </trkpt>
      <trkpt lat="45.19681" lon="6.16419">
        <ele>2619.5</ele>
        <time>2014-05-25T06:36:31Z</time>
      </trkpt>
      <trkpt lat="45.19672" lon="6.16424">
        <ele>2613.5</ele>
        <time>2014-05-25T06:37:16Z</time>
      </trkpt>
      <trkpt lat="45.19652" lon="6.16425">
        <ele>2622.5</ele>
        <time>2014-05-25T06:37:29Z</time>
      </trkpt>
      <trkpt lat="45.19642" lon="6.16429">
        <ele>2623.5</ele>
        <time>2014-05-25T06:37:36Z</time>
      </trkpt>
      <trkpt lat="45.19632" lon="6.16428">
        <ele>2624.5</ele>
        <time>2014-05-25T06:37:44Z</time>
      </trkpt>
      <trkpt lat="45.19625" lon="6.16437">
        <ele>2618.5</ele>
        <time>2014-05-25T06:37:55Z</time>
      </trkpt>
      <trkpt lat="45.19616" lon="6.16435">
        <ele>2619.5</ele>
        <time>2014-05-25T06:38:04Z</time>
      </trkpt>
      <trkpt lat="45.19606" lon="6.16432">
        <ele>2622.5</ele>
        <time>2014-05-25T06:38:13Z</time>
      </trkpt>
      <trkpt lat="45.19596" lon="6.16433">
        <ele>2623.5</ele>
        <time>2014-05-25T06:38:22Z</time>
      </trkpt>
      <trkpt lat="45.19577" lon="6.16433">
        <ele>2623.5</ele>
        <time>2014-05-25T06:38:37Z</time>
      </trkpt>
      <trkpt lat="45.19568" lon="6.16431">
        <ele>2624.5</ele>
        <time>2014-05-25T06:38:46Z</time>
      </trkpt>
      <trkpt lat="45.19559" lon="6.16436">
        <ele>2628.5</ele>
        <time>2014-05-25T06:38:57Z</time>
      </trkpt>
      <trkpt lat="45.1955" lon="6.16436">
        <ele>2630.5</ele>
        <time>2014-05-25T06:39:09Z</time>
      </trkpt>
      <trkpt lat="45.19541" lon="6.16437">
        <ele>2629.5</ele>
        <time>2014-05-25T06:39:22Z</time>
      </trkpt>
      <trkpt lat="45.19521" lon="6.1644">
        <ele>2625.5</ele>
        <time>2014-05-25T06:39:41Z</time>
      </trkpt>
      <trkpt lat="45.19512" lon="6.16437">
        <ele>2622.5</ele>
        <time>2014-05-25T06:39:51Z</time>
      </trkpt>
      <trkpt lat="45.19503" lon="6.16438">
        <ele>2622.5</ele>
        <time>2014-05-25T06:40:02Z</time>
      </trkpt>
      <trkpt lat="45.19494" lon="6.16435">
        <ele>2628.5</ele>
        <time>2014-05-25T06:40:11Z</time>
      </trkpt>
      <trkpt lat="45.19485" lon="6.16434">
        <ele>2629.5</ele>
        <time>2014-05-25T06:40:24Z</time>
      </trkpt>
      <trkpt lat="45.19466" lon="6.16437">
        <ele>2633.5</ele>
        <time>2014-05-25T06:40:46Z</time>
      </trkpt>
      <trkpt lat="45.19457" lon="6.16439">
        <ele>2634.5</ele>
        <time>2014-05-25T06:41:02Z</time>
      </trkpt>
      <trkpt lat="45.19447" lon="6.16437">
        <ele>2641.5</ele>
        <time>2014-05-25T06:41:21Z</time>
      </trkpt>
      <trkpt lat="45.19438" lon="6.16436">
        <ele>2642.5</ele>
        <time>2014-05-25T06:41:34Z</time>
      </trkpt>
      <trkpt lat="45.1942" lon="6.16438">
        <ele>2641.5</ele>
        <time>2014-05-25T06:42:02Z</time>
      </trkpt>
      <trkpt lat="45.19411" lon="6.16439">
        <ele>2644.5</ele>
        <time>2014-05-25T06:42:18Z</time>
      </trkpt>
      <trkpt lat="45.19401" lon="6.16441">
        <ele>2647.5</ele>
        <time>2014-05-25T06:42:28Z</time>
      </trkpt>
      <trkpt lat="45.19391" lon="6.16443">
        <ele>2645.5</ele>
        <time>2014-05-25T06:42:43Z</time>
      </trkpt>
      <trkpt lat="45.19375" lon="6.16457">
        <ele>2646.5</ele>
        <time>2014-05-25T06:43:15Z</time>
      </trkpt>
      <trkpt lat="45.19366" lon="6.16462">
        <ele>2653.5</ele>
        <time>2014-05-25T06:43:22Z</time>
      </trkpt>
      <trkpt lat="45.19357" lon="6.16465">
        <ele>2652.5</ele>
        <time>2014-05-25T06:43:38Z</time>
      </trkpt>
      <trkpt lat="45.19348" lon="6.16464">
        <ele>2656.5</ele>
        <time>2014-05-25T06:43:56Z</time>
      </trkpt>
      <trkpt lat="45.19329" lon="6.1646">
        <ele>2665.5</ele>
        <time>2014-05-25T06:44:18Z</time>
      </trkpt>
      <trkpt lat="45.1932" lon="6.16459">
        <ele>2666.5</ele>
        <time>2014-05-25T06:44:28Z</time>
      </trkpt>
      <trkpt lat="45.1931" lon="6.1646">
        <ele>2670.5</ele>
        <time>2014-05-25T06:44:47Z</time>
      </trkpt>
      <trkpt lat="45.19301" lon="6.16455">
        <ele>2671.5</ele>
        <time>2014-05-25T06:44:55Z</time>
      </trkpt>
      <trkpt lat="45.19292" lon="6.16454">
        <ele>2677.5</ele>
        <time>2014-05-25T06:45:06Z</time>
      </trkpt>
      <trkpt lat="45.19273" lon="6.16454">
        <ele>2674.5</ele>
        <time>2014-05-25T06:45:48Z</time>
      </trkpt>
      <trkpt lat="45.19264" lon="6.1645">
        <ele>2678.5</ele>
        <time>2014-05-25T06:45:55Z</time>
      </trkpt>
      <trkpt lat="45.19255" lon="6.16446">
        <ele>2683.5</ele>
        <time>2014-05-25T06:46:09Z</time>
      </trkpt>
      <trkpt lat="45.19239" lon="6.16434">
        <ele>2686.5</ele>
        <time>2014-05-25T06:46:42Z</time>
      </trkpt>
      <trkpt lat="45.1923" lon="6.16433">
        <ele>2690.5</ele>
        <time>2014-05-25T06:46:51Z</time>
      </trkpt>
      <trkpt lat="45.19221" lon="6.16433">
        <ele>2689.5</ele>
        <time>2014-05-25T06:47:05Z</time>
      </trkpt>
      <trkpt lat="45.19212" lon="6.16431">
        <ele>2695.5</ele>
        <time>2014-05-25T06:47:28Z</time>
      </trkpt>
      <trkpt lat="45.19194" lon="6.16425">
        <ele>2698.5</ele>
        <time>2014-05-25T06:47:47Z</time>
      </trkpt>
      <trkpt lat="45.19186" lon="6.16419">
        <ele>2699.5</ele>
        <time>2014-05-25T06:48:07Z</time>
      </trkpt>
      <trkpt lat="45.19179" lon="6.1641">
        <ele>2713.5</ele>
        <time>2014-05-25T06:48:16Z</time>
      </trkpt>
      <trkpt lat="45.19173" lon="6.164">
        <ele>2716.5</ele>
        <time>2014-05-25T06:48:26Z</time>
      </trkpt>
      <trkpt lat="45.19164" lon="6.16397">
        <ele>2714.5</ele>
        <time>2014-05-25T06:48:39Z</time>
      </trkpt>
      <trkpt lat="45.19149" lon="6.16383">
        <ele>2722.5</ele>
        <time>2014-05-25T06:49:09Z</time>
      </trkpt>
      <trkpt lat="45.1914" lon="6.16381">
        <ele>2725.5</ele>
        <time>2014-05-25T06:49:21Z</time>
      </trkpt>
      <trkpt lat="45.19131" lon="6.16384">
        <ele>2724.5</ele>
        <time>2014-05-25T06:49:33Z</time>
      </trkpt>
      <trkpt lat="45.19122" lon="6.16383">
        <ele>2727.5</ele>
        <time>2014-05-25T06:49:45Z</time>
      </trkpt>
      <trkpt lat="45.19105" lon="6.16373">
        <ele>2740.5</ele>
        <time>2014-05-25T06:50:31Z</time>
      </trkpt>
      <trkpt lat="45.19096" lon="6.16369">
        <ele>2747.5</ele>
        <time>2014-05-25T06:50:43Z</time>
      </trkpt>
      <trkpt lat="45.19088" lon="6.16377">
        <ele>2742.5</ele>
        <time>2014-05-25T06:51:02Z</time>
      </trkpt>
      <trkpt lat="45.19072" lon="6.16366">
        <ele>2755.5</ele>
        <time>2014-05-25T06:51:42Z</time>
      </trkpt>
      <trkpt lat="45.19062" lon="6.16363">
        <ele>2759.5</ele>
        <time>2014-05-25T06:51:56Z</time>
      </trkpt>
      <trkpt lat="45.19053" lon="6.16359">
        <ele>2760.5</ele>
        <time>2014-05-25T06:52:08Z</time>
      </trkpt>
      <trkpt lat="45.19036" lon="6.16349">
        <ele>2764.5</ele>
        <time>2014-05-25T06:52:42Z</time>
      </trkpt>
      <trkpt lat="45.19027" lon="6.16351">
        <ele>2765.5</ele>
        <time>2014-05-25T06:53:19Z</time>
      </trkpt>
      <trkpt lat="45.19009" lon="6.16344">
        <ele>2774.5</ele>
        <time>2014-05-25T06:53:35Z</time>
      </trkpt>
      <trkpt lat="45.19001" lon="6.16339">
        <ele>2780.5</ele>
        <time>2014-05-25T06:54:00Z</time>
      </trkpt>
      <trkpt lat="45.18991" lon="6.16334">
        <ele>2783.5</ele>
        <time>2014-05-25T06:54:23Z</time>
      </trkpt>
      <trkpt lat="45.18974" lon="6.16325">
        <ele>2805.5</ele>
        <time>2014-05-25T06:55:34Z</time>
      </trkpt>
      <trkpt lat="45.18956" lon="6.16334">
        <ele>2808.5</ele>
        <time>2014-05-25T06:55:53Z</time>
      </trkpt>
      <trkpt lat="45.18946" lon="6.16332">
        <ele>2811.5</ele>
        <time>2014-05-25T06:56:10Z</time>
      </trkpt>
      <trkpt lat="45.18937" lon="6.1633">
        <ele>2814.5</ele>
        <time>2014-05-25T06:56:34Z</time>
      </trkpt>
      <trkpt lat="45.18921" lon="6.16319">
        <ele>2822.5</ele>
        <time>2014-05-25T06:57:01Z</time>
      </trkpt>
      <trkpt lat="45.18914" lon="6.1631">
        <ele>2826.5</ele>
        <time>2014-05-25T06:57:09Z</time>
      </trkpt>
      <trkpt lat="45.18906" lon="6.16303">
        <ele>2828.5</ele>
        <time>2014-05-25T06:57:24Z</time>
      </trkpt>
      <trkpt lat="45.189" lon="6.16293">
        <ele>2827.5</ele>
        <time>2014-05-25T06:57:37Z</time>
      </trkpt>
      <trkpt lat="45.18886" lon="6.16277">
        <ele>2836.5</ele>
        <time>2014-05-25T06:58:08Z</time>
      </trkpt>
      <trkpt lat="45.18878" lon="6.1627">
        <ele>2838.5</ele>
        <time>2014-05-25T06:58:25Z</time>
      </trkpt>
      <trkpt lat="45.18873" lon="6.16259">
        <ele>2840.5</ele>
        <time>2014-05-25T06:58:41Z</time>
      </trkpt>
      <trkpt lat="45.18886" lon="6.16242">
        <ele>2851.5</ele>
        <time>2014-05-25T06:59:34Z</time>
      </trkpt>
      <trkpt lat="45.1888" lon="6.16231">
        <ele>2857.5</ele>
        <time>2014-05-25T07:00:22Z</time>
      </trkpt>
      <trkpt lat="45.18865" lon="6.16217">
        <ele>2865.5</ele>
        <time>2014-05-25T07:01:12Z</time>
      </trkpt>
      <trkpt lat="45.18872" lon="6.16208">
        <ele>2879.5</ele>
        <time>2014-05-25T07:02:24Z</time>
      </trkpt>
      <trkpt lat="45.18858" lon="6.1619">
        <ele>2886.5</ele>
        <time>2014-05-25T07:21:14Z</time>
      </trkpt>
      <trkpt lat="45.18843" lon="6.16171">
        <ele>2884.5</ele>
        <time>2014-05-25T07:21:24Z</time>
      </trkpt>
      <trkpt lat="45.18839" lon="6.16158">
        <ele>2876.5</ele>
        <time>2014-05-25T07:21:50Z</time>
      </trkpt>
      <trkpt lat="45.18832" lon="6.1615">
        <ele>2878.5</ele>
        <time>2014-05-25T07:21:58Z</time>
      </trkpt>
      <trkpt lat="45.18824" lon="6.16143">
        <ele>2882.5</ele>
        <time>2014-05-25T07:22:07Z</time>
      </trkpt>
      <trkpt lat="45.18824" lon="6.16156">
        <ele>2872.5</ele>
        <time>2014-05-25T07:23:06Z</time>
      </trkpt>
      <trkpt lat="45.1882" lon="6.16184">
        <ele>2868.5</ele>
        <time>2014-05-25T07:23:15Z</time>
      </trkpt>
      <trkpt lat="45.18815" lon="6.16195">
        <ele>2859.5</ele>
        <time>2014-05-25T07:23:21Z</time>
      </trkpt>
      <trkpt lat="45.18811" lon="6.16209">
        <ele>2855.5</ele>
        <time>2014-05-25T07:23:25Z</time>
      </trkpt>
      <trkpt lat="45.18802" lon="6.1622">
        <ele>2847.5</ele>
        <time>2014-05-25T07:23:29Z</time>
      </trkpt>
      <trkpt lat="45.18794" lon="6.16229">
        <ele>2841.5</ele>
        <time>2014-05-25T07:23:32Z</time>
      </trkpt>
      <trkpt lat="45.18787" lon="6.1624">
        <ele>2838.5</ele>
        <time>2014-05-25T07:23:35Z</time>
      </trkpt>
      <trkpt lat="45.18777" lon="6.16244">
        <ele>2833.5</ele>
        <time>2014-05-25T07:23:38Z</time>
      </trkpt>
      <trkpt lat="45.18774" lon="6.16258">
        <ele>2822.5</ele>
        <time>2014-05-25T07:30:19Z</time>
      </trkpt>
      <trkpt lat="45.18752" lon="6.16276">
        <ele>2813.5</ele>
        <time>2014-05-25T07:30:25Z</time>
      </trkpt>
      <trkpt lat="45.18743" lon="6.16279">
        <ele>2812.5</ele>
        <time>2014-05-25T07:30:27Z</time>
      </trkpt>
      <trkpt lat="45.18732" lon="6.16283">
        <ele>2812.5</ele>
        <time>2014-05-25T07:30:29Z</time>
      </trkpt>
      <trkpt lat="45.18722" lon="6.16289">
        <ele>2811.5</ele>
        <time>2014-05-25T07:30:30Z</time>
      </trkpt>
      <trkpt lat="45.18713" lon="6.16301">
        <ele>2808.5</ele>
        <time>2014-05-25T07:30:32Z</time>
      </trkpt>
      <trkpt lat="45.18701" lon="6.1631">
        <ele>2806.5</ele>
        <time>2014-05-25T07:30:34Z</time>
      </trkpt>
      <trkpt lat="45.18686" lon="6.16314">
        <ele>2805.5</ele>
        <time>2014-05-25T07:30:36Z</time>
      </trkpt>
      <trkpt lat="45.18671" lon="6.16314">
        <ele>2804.5</ele>
        <time>2014-05-25T07:30:38Z</time>
      </trkpt>
      <trkpt lat="45.18656" lon="6.16315">
        <ele>2805.5</ele>
        <time>2014-05-25T07:30:40Z</time>
      </trkpt>
      <trkpt lat="45.18646" lon="6.16323">
        <ele>2801.5</ele>
        <time>2014-05-25T07:30:42Z</time>
      </trkpt>
      <trkpt lat="45.18639" lon="6.16337">
        <ele>2797.5</ele>
        <time>2014-05-25T07:30:45Z</time>
      </trkpt>
      <trkpt lat="45.18622" lon="6.16337">
        <ele>2792.5</ele>
        <time>2014-05-25T07:30:48Z</time>
      </trkpt>
      <trkpt lat="45.18608" lon="6.16335">
        <ele>2787.5</ele>
        <time>2014-05-25T07:30:51Z</time>
      </trkpt>
      <trkpt lat="45.18596" lon="6.16332">
        <ele>2784.5</ele>
        <time>2014-05-25T07:30:54Z</time>
      </trkpt>
      <trkpt lat="45.18587" lon="6.1634">
        <ele>2781.5</ele>
        <time>2014-05-25T07:30:56Z</time>
      </trkpt>
      <trkpt lat="45.18574" lon="6.1634">
        <ele>2778.5</ele>
        <time>2014-05-25T07:30:59Z</time>
      </trkpt>
      <trkpt lat="45.18558" lon="6.16326">
        <ele>2776.5</ele>
        <time>2014-05-25T07:31:01Z</time>
      </trkpt>
      <trkpt lat="45.18547" lon="6.1632">
        <ele>2775.5</ele>
        <time>2014-05-25T07:31:02Z</time>
      </trkpt>
      <trkpt lat="45.18538" lon="6.16315">
        <ele>2776.5</ele>
        <time>2014-05-25T07:31:03Z</time>
      </trkpt>
      <trkpt lat="45.18525" lon="6.16316">
        <ele>2778.5</ele>
        <time>2014-05-25T07:31:05Z</time>
      </trkpt>
      <trkpt lat="45.18509" lon="6.16319">
        <ele>2774.5</ele>
        <time>2014-05-25T07:31:07Z</time>
      </trkpt>
      <trkpt lat="45.18497" lon="6.1633">
        <ele>2770.5</ele>
        <time>2014-05-25T07:31:09Z</time>
      </trkpt>
      <trkpt lat="45.18489" lon="6.16338">
        <ele>2764.5</ele>
        <time>2014-05-25T07:31:11Z</time>
      </trkpt>
      <trkpt lat="45.18479" lon="6.16349">
        <ele>2762.5</ele>
        <time>2014-05-25T07:31:13Z</time>
      </trkpt>
      <trkpt lat="45.18472" lon="6.16358">
        <ele>2755.5</ele>
        <time>2014-05-25T07:31:16Z</time>
      </trkpt>
      <trkpt lat="45.1847" lon="6.16374">
        <ele>2750.5</ele>
        <time>2014-05-25T07:31:19Z</time>
      </trkpt>
      <trkpt lat="45.18465" lon="6.16392">
        <ele>2747.5</ele>
        <time>2014-05-25T07:31:22Z</time>
      </trkpt>
      <trkpt lat="45.18461" lon="6.16426">
        <ele>2748.5</ele>
        <time>2014-05-25T07:31:27Z</time>
      </trkpt>
      <trkpt lat="45.18455" lon="6.16438">
        <ele>2746.5</ele>
        <time>2014-05-25T07:31:30Z</time>
      </trkpt>
      <trkpt lat="45.18449" lon="6.16452">
        <ele>2743.5</ele>
        <time>2014-05-25T07:31:33Z</time>
      </trkpt>
      <trkpt lat="45.18447" lon="6.16465">
        <ele>2742.5</ele>
        <time>2014-05-25T07:31:35Z</time>
      </trkpt>
      <trkpt lat="45.18443" lon="6.16479">
        <ele>2743.5</ele>
        <time>2014-05-25T07:31:36Z</time>
      </trkpt>
      <trkpt lat="45.18432" lon="6.16482">
        <ele>2735.5</ele>
        <time>2014-05-25T07:31:39Z</time>
      </trkpt>
      <trkpt lat="45.18423" lon="6.16496">
        <ele>2733.5</ele>
        <time>2014-05-25T07:31:42Z</time>
      </trkpt>
      <trkpt lat="45.18408" lon="6.16488">
        <ele>2730.5</ele>
        <time>2014-05-25T07:31:45Z</time>
      </trkpt>
      <trkpt lat="45.184" lon="6.165">
        <ele>2730.5</ele>
        <time>2014-05-25T07:31:49Z</time>
      </trkpt>
      <trkpt lat="45.18397" lon="6.16515">
        <ele>2727.5</ele>
        <time>2014-05-25T07:31:51Z</time>
      </trkpt>
      <trkpt lat="45.1839" lon="6.1653">
        <ele>2725.5</ele>
        <time>2014-05-25T07:31:53Z</time>
      </trkpt>
      <trkpt lat="45.18383" lon="6.16546">
        <ele>2722.5</ele>
        <time>2014-05-25T07:31:57Z</time>
      </trkpt>
      <trkpt lat="45.18374" lon="6.16541">
        <ele>2717.5</ele>
        <time>2014-05-25T07:32:00Z</time>
      </trkpt>
      <trkpt lat="45.18385" lon="6.16547">
        <ele>2718.5</ele>
        <time>2014-05-25T07:32:06Z</time>
      </trkpt>
      <trkpt lat="45.18372" lon="6.16548">
        <ele>2700.5</ele>
        <time>2014-05-25T07:32:35Z</time>
      </trkpt>
      <trkpt lat="45.18346" lon="6.16545">
        <ele>2696.5</ele>
        <time>2014-05-25T07:32:38Z</time>
      </trkpt>
      <trkpt lat="45.18334" lon="6.16541">
        <ele>2692.5</ele>
        <time>2014-05-25T07:32:40Z</time>
      </trkpt>
      <trkpt lat="45.1832" lon="6.16542">
        <ele>2690.5</ele>
        <time>2014-05-25T07:32:42Z</time>
      </trkpt>
      <trkpt lat="45.18308" lon="6.16542">
        <ele>2687.5</ele>
        <time>2014-05-25T07:32:44Z</time>
      </trkpt>
      <trkpt lat="45.18299" lon="6.16551">
        <ele>2683.5</ele>
        <time>2014-05-25T07:32:47Z</time>
      </trkpt>
      <trkpt lat="45.18283" lon="6.1655">
        <ele>2682.5</ele>
        <time>2014-05-25T07:32:49Z</time>
      </trkpt>
      <trkpt lat="45.18277" lon="6.1656">
        <ele>2675.5</ele>
        <time>2014-05-25T07:32:52Z</time>
      </trkpt>
      <trkpt lat="45.18268" lon="6.16572">
        <ele>2676.5</ele>
        <time>2014-05-25T07:32:55Z</time>
      </trkpt>
      <trkpt lat="45.18259" lon="6.1658">
        <ele>2674.5</ele>
        <time>2014-05-25T07:32:58Z</time>
      </trkpt>
      <trkpt lat="45.18249" lon="6.16586">
        <ele>2672.5</ele>
        <time>2014-05-25T07:33:01Z</time>
      </trkpt>
      <trkpt lat="45.1824" lon="6.16589">
        <ele>2671.5</ele>
        <time>2014-05-25T07:33:03Z</time>
      </trkpt>
      <trkpt lat="45.1823" lon="6.16592">
        <ele>2670.5</ele>
        <time>2014-05-25T07:33:05Z</time>
      </trkpt>
      <trkpt lat="45.18218" lon="6.16599">
        <ele>2669.5</ele>
        <time>2014-05-25T07:33:07Z</time>
      </trkpt>
      <trkpt lat="45.18215" lon="6.16618">
        <ele>2666.5</ele>
        <time>2014-05-25T07:33:09Z</time>
      </trkpt>
      <trkpt lat="45.18204" lon="6.1663">
        <ele>2663.5</ele>
        <time>2014-05-25T07:33:11Z</time>
      </trkpt>
      <trkpt lat="45.1819" lon="6.16632">
        <ele>2660.5</ele>
        <time>2014-05-25T07:33:14Z</time>
      </trkpt>
      <trkpt lat="45.18182" lon="6.1664">
        <ele>2659.5</ele>
        <time>2014-05-25T07:33:17Z</time>
      </trkpt>
      <trkpt lat="45.18172" lon="6.16648">
        <ele>2654.5</ele>
        <time>2014-05-25T07:33:20Z</time>
      </trkpt>
      <trkpt lat="45.18162" lon="6.16654">
        <ele>2653.5</ele>
        <time>2014-05-25T07:33:22Z</time>
      </trkpt>
      <trkpt lat="45.18152" lon="6.16668">
        <ele>2652.5</ele>
        <time>2014-05-25T07:33:24Z</time>
      </trkpt>
      <trkpt lat="45.18142" lon="6.16685">
        <ele>2655.5</ele>
        <time>2014-05-25T07:33:26Z</time>
      </trkpt>
      <trkpt lat="45.18132" lon="6.16695">
        <ele>2644.5</ele>
        <time>2014-05-25T07:33:32Z</time>
      </trkpt>
      <trkpt lat="45.18124" lon="6.16708">
        <ele>2643.5</ele>
        <time>2014-05-25T07:33:35Z</time>
      </trkpt>
      <trkpt lat="45.18113" lon="6.1673">
        <ele>2648.5</ele>
        <time>2014-05-25T07:34:13Z</time>
      </trkpt>
      <trkpt lat="45.18108" lon="6.16741">
        <ele>2647.5</ele>
        <time>2014-05-25T07:35:09Z</time>
      </trkpt>
      <trkpt lat="45.18078" lon="6.16737">
        <ele>2654.5</ele>
        <time>2014-05-25T07:44:56Z</time>
      </trkpt>
      <trkpt lat="45.18069" lon="6.1673">
        <ele>2658.5</ele>
        <time>2014-05-25T07:45:04Z</time>
      </trkpt>
      <trkpt lat="45.1806" lon="6.16727">
        <ele>2661.5</ele>
        <time>2014-05-25T07:45:18Z</time>
      </trkpt>
      <trkpt lat="45.18061" lon="6.16714">
        <ele>2656.5</ele>
        <time>2014-05-25T07:45:33Z</time>
      </trkpt>
      <trkpt lat="45.18065" lon="6.16702">
        <ele>2658.5</ele>
        <time>2014-05-25T07:46:38Z</time>
      </trkpt>
      <trkpt lat="45.18063" lon="6.16683">
        <ele>2673.5</ele>
        <time>2014-05-25T07:46:52Z</time>
      </trkpt>
      <trkpt lat="45.18055" lon="6.16676">
        <ele>2674.5</ele>
        <time>2014-05-25T07:47:04Z</time>
      </trkpt>
      <trkpt lat="45.18052" lon="6.16664">
        <ele>2677.5</ele>
        <time>2014-05-25T07:47:11Z</time>
      </trkpt>
      <trkpt lat="45.18049" lon="6.16652">
        <ele>2677.5</ele>
        <time>2014-05-25T07:47:20Z</time>
      </trkpt>
      <trkpt lat="45.1805" lon="6.16639">
        <ele>2680.5</ele>
        <time>2014-05-25T07:47:36Z</time>
      </trkpt>
      <trkpt lat="45.18056" lon="6.16629">
        <ele>2686.5</ele>
        <time>2014-05-25T07:47:55Z</time>
      </trkpt>
      <trkpt lat="45.18039" lon="6.16627">
        <ele>2683.5</ele>
        <time>2014-05-25T07:48:49Z</time>
      </trkpt>
      <trkpt lat="45.1803" lon="6.16631">
        <ele>2688.5</ele>
        <time>2014-05-25T07:49:00Z</time>
      </trkpt>
      <trkpt lat="45.18018" lon="6.16649">
        <ele>2701.5</ele>
        <time>2014-05-25T07:49:33Z</time>
      </trkpt>
      <trkpt lat="45.18011" lon="6.16656">
        <ele>2703.5</ele>
        <time>2014-05-25T07:49:47Z</time>
      </trkpt>
      <trkpt lat="45.18003" lon="6.16647">
        <ele>2703.5</ele>
        <time>2014-05-25T07:50:00Z</time>
      </trkpt>
      <trkpt lat="45.18005" lon="6.16634">
        <ele>2709.5</ele>
        <time>2014-05-25T07:50:08Z</time>
      </trkpt>
      <trkpt lat="45.17998" lon="6.1661">
        <ele>2715.5</ele>
        <time>2014-05-25T07:50:42Z</time>
      </trkpt>
      <trkpt lat="45.17999" lon="6.16597">
        <ele>2720.5</ele>
        <time>2014-05-25T07:50:54Z</time>
      </trkpt>
      <trkpt lat="45.17992" lon="6.16589">
        <ele>2735.5</ele>
        <time>2014-05-25T07:51:58Z</time>
      </trkpt>
      <trkpt lat="45.17988" lon="6.16564">
        <ele>2750.5</ele>
        <time>2014-05-25T07:53:29Z</time>
      </trkpt>
      <trkpt lat="45.17983" lon="6.16541">
        <ele>2758.5</ele>
        <time>2014-05-25T07:55:08Z</time>
      </trkpt>
      <trkpt lat="45.17966" lon="6.16512">
        <ele>2778.5</ele>
        <time>2014-05-25T07:58:59Z</time>
      </trkpt>
      <trkpt lat="45.17963" lon="6.16486">
        <ele>2788.5</ele>
        <time>2014-05-25T08:00:08Z</time>
      </trkpt>
      <trkpt lat="45.17953" lon="6.16473">
        <ele>2794.5</ele>
        <time>2014-05-25T08:00:57Z</time>
      </trkpt>
      <trkpt lat="45.17955" lon="6.1646">
        <ele>2796.5</ele>
        <time>2014-05-25T08:01:06Z</time>
      </trkpt>
      <trkpt lat="45.17946" lon="6.16464">
        <ele>2799.5</ele>
        <time>2014-05-25T08:01:54Z</time>
      </trkpt>
      <trkpt lat="45.17928" lon="6.16465">
        <ele>2806.5</ele>
        <time>2014-05-25T08:03:01Z</time>
      </trkpt>
      <trkpt lat="45.17922" lon="6.1644">
        <ele>2808.5</ele>
        <time>2014-05-25T08:03:19Z</time>
      </trkpt>
      <trkpt lat="45.1792" lon="6.16428">
        <ele>2800.5</ele>
        <time>2014-05-25T08:03:28Z</time>
      </trkpt>
      <trkpt lat="45.17919" lon="6.16415">
        <ele>2808.5</ele>
        <time>2014-05-25T08:03:42Z</time>
      </trkpt>
      <trkpt lat="45.17924" lon="6.16404">
        <ele>2810.5</ele>
        <time>2014-05-25T08:03:54Z</time>
      </trkpt>
      <trkpt lat="45.17915" lon="6.16408">
        <ele>2820.5</ele>
        <time>2014-05-25T08:04:14Z</time>
      </trkpt>
      <trkpt lat="45.17897" lon="6.16412">
        <ele>2829.5</ele>
        <time>2014-05-25T08:04:38Z</time>
      </trkpt>
      <trkpt lat="45.17887" lon="6.16413">
        <ele>2837.5</ele>
        <time>2014-05-25T08:04:47Z</time>
      </trkpt>
      <trkpt lat="45.17878" lon="6.16411">
        <ele>2840.5</ele>
        <time>2014-05-25T08:04:58Z</time>
      </trkpt>
      <trkpt lat="45.1787" lon="6.16404">
        <ele>2833.5</ele>
        <time>2014-05-25T08:05:11Z</time>
      </trkpt>
      <trkpt lat="45.17865" lon="6.16393">
        <ele>2838.5</ele>
        <time>2014-05-25T08:05:21Z</time>
      </trkpt>
      <trkpt lat="45.1785" lon="6.16376">
        <ele>2847.5</ele>
        <time>2014-05-25T08:05:57Z</time>
      </trkpt>
      <trkpt lat="45.17842" lon="6.16371">
        <ele>2846.5</ele>
        <time>2014-05-25T08:06:08Z</time>
      </trkpt>
      <trkpt lat="45.17833" lon="6.16368">
        <ele>2849.5</ele>
        <time>2014-05-25T08:06:19Z</time>
      </trkpt>
      <trkpt lat="45.17828" lon="6.16357">
        <ele>2846.5</ele>
        <time>2014-05-25T08:06:44Z</time>
      </trkpt>
      <trkpt lat="45.17815" lon="6.16337">
        <ele>2857.5</ele>
        <time>2014-05-25T08:07:19Z</time>
      </trkpt>
      <trkpt lat="45.17809" lon="6.16327">
        <ele>2855.5</ele>
        <time>2014-05-25T08:07:25Z</time>
      </trkpt>
      <trkpt lat="45.17803" lon="6.16316">
        <ele>2864.5</ele>
        <time>2014-05-25T08:07:35Z</time>
      </trkpt>
      <trkpt lat="45.17794" lon="6.16312">
        <ele>2863.5</ele>
        <time>2014-05-25T08:20:48Z</time>
      </trkpt>
      <trkpt lat="45.17781" lon="6.16294">
        <ele>2859.5</ele>
        <time>2014-05-25T08:21:46Z</time>
      </trkpt>
      <trkpt lat="45.17776" lon="6.1628">
        <ele>2858.5</ele>
        <time>2014-05-25T08:21:51Z</time>
      </trkpt>
      <trkpt lat="45.17761" lon="6.16262">
        <ele>2863.5</ele>
        <time>2014-05-25T08:21:57Z</time>
      </trkpt>
      <trkpt lat="45.17757" lon="6.16248">
        <ele>2859.5</ele>
        <time>2014-05-25T08:22:03Z</time>
      </trkpt>
      <trkpt lat="45.17752" lon="6.16235">
        <ele>2855.5</ele>
        <time>2014-05-25T08:22:18Z</time>
      </trkpt>
      <trkpt lat="45.17749" lon="6.16222">
        <ele>2855.5</ele>
        <time>2014-05-25T08:22:27Z</time>
      </trkpt>
      <trkpt lat="45.17744" lon="6.16211">
        <ele>2854.5</ele>
        <time>2014-05-25T08:22:34Z</time>
      </trkpt>
      <trkpt lat="45.17739" lon="6.162">
        <ele>2855.5</ele>
        <time>2014-05-25T08:22:44Z</time>
      </trkpt>
      <trkpt lat="45.17733" lon="6.1619">
        <ele>2855.5</ele>
        <time>2014-05-25T08:22:50Z</time>
      </trkpt>
      <trkpt lat="45.17727" lon="6.16179">
        <ele>2864.5</ele>
        <time>2014-05-25T08:23:04Z</time>
      </trkpt>
      <trkpt lat="45.1772" lon="6.16155">
        <ele>2867.5</ele>
        <time>2014-05-25T08:23:24Z</time>
      </trkpt>
      <trkpt lat="45.17715" lon="6.16143">
        <ele>2870.5</ele>
        <time>2014-05-25T08:23:34Z</time>
      </trkpt>
      <trkpt lat="45.1771" lon="6.16132">
        <ele>2868.5</ele>
        <time>2014-05-25T08:23:42Z</time>
      </trkpt>
      <trkpt lat="45.17707" lon="6.16119">
        <ele>2870.5</ele>
        <time>2014-05-25T08:23:56Z</time>
      </trkpt>
      <trkpt lat="45.17701" lon="6.16109">
        <ele>2861.5</ele>
        <time>2014-05-25T08:24:06Z</time>
      </trkpt>
      <trkpt lat="45.17694" lon="6.16085">
        <ele>2872.5</ele>
        <time>2014-05-25T08:24:33Z</time>
      </trkpt>
      <trkpt lat="45.17688" lon="6.16076">
        <ele>2884.5</ele>
        <time>2014-05-25T08:24:45Z</time>
      </trkpt>
      <trkpt lat="45.17683" lon="6.16065">
        <ele>2883.5</ele>
        <time>2014-05-25T08:25:06Z</time>
      </trkpt>
      <trkpt lat="45.17668" lon="6.16049">
        <ele>2886.5</ele>
        <time>2014-05-25T08:25:28Z</time>
      </trkpt>
      <trkpt lat="45.1766" lon="6.1604">
        <ele>2887.5</ele>
        <time>2014-05-25T08:25:36Z</time>
      </trkpt>
      <trkpt lat="45.17655" lon="6.1603">
        <ele>2899.5</ele>
        <time>2014-05-25T08:25:49Z</time>
      </trkpt>
      <trkpt lat="45.1765" lon="6.16019">
        <ele>2895.5</ele>
        <time>2014-05-25T08:26:02Z</time>
      </trkpt>
      <trkpt lat="45.17645" lon="6.16008">
        <ele>2893.5</ele>
        <time>2014-05-25T08:26:11Z</time>
      </trkpt>
      <trkpt lat="45.17633" lon="6.15987">
        <ele>2892.5</ele>
        <time>2014-05-25T08:26:32Z</time>
      </trkpt>
      <trkpt lat="45.17627" lon="6.15977">
        <ele>2887.5</ele>
        <time>2014-05-25T08:26:44Z</time>
      </trkpt>
      <trkpt lat="45.1762" lon="6.15968">
        <ele>2887.5</ele>
        <time>2014-05-25T08:26:53Z</time>
      </trkpt>
      <trkpt lat="45.17612" lon="6.1596">
        <ele>2884.5</ele>
        <time>2014-05-25T08:27:04Z</time>
      </trkpt>
      <trkpt lat="45.17611" lon="6.15947">
        <ele>2890.5</ele>
        <time>2014-05-25T08:27:16Z</time>
      </trkpt>
      <trkpt lat="45.17597" lon="6.1593">
        <ele>2897.5</ele>
        <time>2014-05-25T08:27:50Z</time>
      </trkpt>
      <trkpt lat="45.17591" lon="6.15919">
        <ele>2900.5</ele>
        <time>2014-05-25T08:28:04Z</time>
      </trkpt>
      <trkpt lat="45.17585" lon="6.15909">
        <ele>2892.5</ele>
        <time>2014-05-25T08:28:16Z</time>
      </trkpt>
      <trkpt lat="45.17579" lon="6.15899">
        <ele>2890.5</ele>
        <time>2014-05-25T08:28:31Z</time>
      </trkpt>
      <trkpt lat="45.17563" lon="6.15887">
        <ele>2897.5</ele>
        <time>2014-05-25T08:28:52Z</time>
      </trkpt>
      <trkpt lat="45.17556" lon="6.15879">
        <ele>2898.5</ele>
        <time>2014-05-25T08:29:08Z</time>
      </trkpt>
      <trkpt lat="45.17554" lon="6.15866">
        <ele>2895.5</ele>
        <time>2014-05-25T08:29:42Z</time>
      </trkpt>
      <trkpt lat="45.17564" lon="6.15844">
        <ele>2901.5</ele>
        <time>2014-05-25T08:30:00Z</time>
      </trkpt>
      <trkpt lat="45.17574" lon="6.15839">
        <ele>2904.5</ele>
        <time>2014-05-25T08:30:06Z</time>
      </trkpt>
      <trkpt lat="45.17568" lon="6.15828">
        <ele>2915.5</ele>
        <time>2014-05-25T08:30:32Z</time>
      </trkpt>
      <trkpt lat="45.1756" lon="6.15823">
        <ele>2916.5</ele>
        <time>2014-05-25T08:30:45Z</time>
      </trkpt>
      <trkpt lat="45.17554" lon="6.15809">
        <ele>2929.5</ele>
        <time>2014-05-25T08:31:55Z</time>
      </trkpt>
      <trkpt lat="45.17565" lon="6.15787">
        <ele>2921.5</ele>
        <time>2014-05-25T08:32:11Z</time>
      </trkpt>
      <trkpt lat="45.17573" lon="6.15781">
        <ele>2924.5</ele>
        <time>2014-05-25T08:32:24Z</time>
      </trkpt>
      <trkpt lat="45.17572" lon="6.15768">
        <ele>2930.5</ele>
        <time>2014-05-25T08:32:35Z</time>
      </trkpt>
      <trkpt lat="45.17579" lon="6.15759">
        <ele>2942.5</ele>
        <time>2014-05-25T08:33:07Z</time>
      </trkpt>
      <trkpt lat="45.17597" lon="6.1575">
        <ele>2954.5</ele>
        <time>2014-05-25T08:33:33Z</time>
      </trkpt>
      <trkpt lat="45.17605" lon="6.15745">
        <ele>2954.5</ele>
        <time>2014-05-25T08:33:50Z</time>
      </trkpt>
      <trkpt lat="45.17614" lon="6.15743">
        <ele>2955.5</ele>
        <time>2014-05-25T08:34:09Z</time>
      </trkpt>
      <trkpt lat="45.17634" lon="6.15742">
        <ele>2949.5</ele>
        <time>2014-05-25T08:34:28Z</time>
      </trkpt>
      <trkpt lat="45.17643" lon="6.15745">
        <ele>2956.5</ele>
        <time>2014-05-25T08:34:40Z</time>
      </trkpt>
      <trkpt lat="45.17653" lon="6.15748">
        <ele>2957.5</ele>
        <time>2014-05-25T08:34:53Z</time>
      </trkpt>
      <trkpt lat="45.17662" lon="6.1575">
        <ele>2958.5</ele>
        <time>2014-05-25T08:35:03Z</time>
      </trkpt>
      <trkpt lat="45.17671" lon="6.1575">
        <ele>2955.5</ele>
        <time>2014-05-25T08:35:17Z</time>
      </trkpt>
      <trkpt lat="45.17689" lon="6.15756">
        <ele>2955.5</ele>
        <time>2014-05-25T08:35:40Z</time>
      </trkpt>
      <trkpt lat="45.17697" lon="6.1576">
        <ele>2961.5</ele>
        <time>2014-05-25T08:35:57Z</time>
      </trkpt>
      <trkpt lat="45.17706" lon="6.15762">
        <ele>2970.5</ele>
        <time>2014-05-25T08:36:09Z</time>
      </trkpt>
      <trkpt lat="45.17715" lon="6.15759">
        <ele>2966.5</ele>
        <time>2014-05-25T08:36:26Z</time>
      </trkpt>
      <trkpt lat="45.17732" lon="6.15768">
        <ele>2977.5</ele>
        <time>2014-05-25T08:36:58Z</time>
      </trkpt>
      <trkpt lat="45.17741" lon="6.15772">
        <ele>2976.5</ele>
        <time>2014-05-25T08:37:16Z</time>
      </trkpt>
      <trkpt lat="45.1775" lon="6.15778">
        <ele>2990.5</ele>
        <time>2014-05-25T08:37:37Z</time>
      </trkpt>
      <trkpt lat="45.17767" lon="6.15771">
        <ele>2998.5</ele>
        <time>2014-05-25T08:38:10Z</time>
      </trkpt>
      <trkpt lat="45.17776" lon="6.15775">
        <ele>3001.5</ele>
        <time>2014-05-25T08:38:25Z</time>
      </trkpt>
      <trkpt lat="45.17786" lon="6.15777">
        <ele>2999.5</ele>
        <time>2014-05-25T08:38:34Z</time>
      </trkpt>
      <trkpt lat="45.17796" lon="6.15778">
        <ele>2996.5</ele>
        <time>2014-05-25T08:38:47Z</time>
      </trkpt>
      <trkpt lat="45.17815" lon="6.15773">
        <ele>2994.5</ele>
        <time>2014-05-25T08:39:04Z</time>
      </trkpt>
      <trkpt lat="45.17825" lon="6.1577">
        <ele>2999.5</ele>
        <time>2014-05-25T08:39:14Z</time>
      </trkpt>
      <trkpt lat="45.17835" lon="6.1577">
        <ele>2998.5</ele>
        <time>2014-05-25T08:39:24Z</time>
      </trkpt>
      <trkpt lat="45.17843" lon="6.15768">
        <ele>2997.5</ele>
        <time>2014-05-25T08:39:37Z</time>
      </trkpt>
      <trkpt lat="45.17853" lon="6.15765">
        <ele>3001.5</ele>
        <time>2014-05-25T08:39:52Z</time>
      </trkpt>
      <trkpt lat="45.17872" lon="6.15758">
        <ele>3002.5</ele>
        <time>2014-05-25T08:40:16Z</time>
      </trkpt>
      <trkpt lat="45.17877" lon="6.15747">
        <ele>3001.5</ele>
        <time>2014-05-25T08:40:33Z</time>
      </trkpt>
      <trkpt lat="45.17885" lon="6.1574">
        <ele>3006.5</ele>
        <time>2014-05-25T08:40:47Z</time>
      </trkpt>
      <trkpt lat="45.17893" lon="6.15734">
        <ele>3014.5</ele>
        <time>2014-05-25T08:40:59Z</time>
      </trkpt>
      <trkpt lat="45.17912" lon="6.15729">
        <ele>3012.5</ele>
        <time>2014-05-25T08:41:21Z</time>
      </trkpt>
      <trkpt lat="45.17916" lon="6.1574">
        <ele>3017.5</ele>
        <time>2014-05-25T08:41:30Z</time>
      </trkpt>
      <trkpt lat="45.17918" lon="6.15754">
        <ele>3021.5</ele>
        <time>2014-05-25T08:42:01Z</time>
      </trkpt>
      <trkpt lat="45.17935" lon="6.15766">
        <ele>3023.5</ele>
        <time>2014-05-25T08:42:32Z</time>
      </trkpt>
      <trkpt lat="45.17939" lon="6.15778">
        <ele>3027.5</ele>
        <time>2014-05-25T08:42:59Z</time>
      </trkpt>
      <trkpt lat="45.17937" lon="6.1579">
        <ele>3029.5</ele>
        <time>2014-05-25T08:43:07Z</time>
      </trkpt>
      <trkpt lat="45.17935" lon="6.15818">
        <ele>3028.5</ele>
        <time>2014-05-25T08:43:31Z</time>
      </trkpt>
      <trkpt lat="45.17939" lon="6.1583">
        <ele>3029.5</ele>
        <time>2014-05-25T08:43:43Z</time>
      </trkpt>
      <trkpt lat="45.17943" lon="6.15842">
        <ele>3034.5</ele>
        <time>2014-05-25T08:43:53Z</time>
      </trkpt>
      <trkpt lat="45.17947" lon="6.15854">
        <ele>3032.5</ele>
        <time>2014-05-25T08:44:04Z</time>
      </trkpt>
      <trkpt lat="45.17949" lon="6.15867">
        <ele>3034.5</ele>
        <time>2014-05-25T08:44:15Z</time>
      </trkpt>
      <trkpt lat="45.17956" lon="6.15891">
        <ele>3040.5</ele>
        <time>2014-05-25T08:44:35Z</time>
      </trkpt>
      <trkpt lat="45.17963" lon="6.15901">
        <ele>3040.5</ele>
        <time>2014-05-25T08:44:47Z</time>
      </trkpt>
      <trkpt lat="45.17954" lon="6.15904">
        <ele>3045.5</ele>
        <time>2014-05-25T09:06:44Z</time>
      </trkpt>
      <trkpt lat="45.17938" lon="6.15921">
        <ele>3036.5</ele>
        <time>2014-05-25T09:06:53Z</time>
      </trkpt>
      <trkpt lat="45.17928" lon="6.15925">
        <ele>3030.5</ele>
        <time>2014-05-25T09:06:58Z</time>
      </trkpt>
      <trkpt lat="45.17916" lon="6.15927">
        <ele>3029.5</ele>
        <time>2014-05-25T09:07:02Z</time>
      </trkpt>
      <trkpt lat="45.17906" lon="6.15926">
        <ele>3024.5</ele>
        <time>2014-05-25T09:07:06Z</time>
      </trkpt>
      <trkpt lat="45.17897" lon="6.15929">
        <ele>3021.5</ele>
        <time>2014-05-25T09:07:09Z</time>
      </trkpt>
      <trkpt lat="45.17888" lon="6.15937">
        <ele>3019.5</ele>
        <time>2014-05-25T09:07:12Z</time>
      </trkpt>
      <trkpt lat="45.1788" lon="6.15945">
        <ele>3012.5</ele>
        <time>2014-05-25T09:07:16Z</time>
      </trkpt>
      <trkpt lat="45.17869" lon="6.15947">
        <ele>3005.5</ele>
        <time>2014-05-25T09:07:20Z</time>
      </trkpt>
      <trkpt lat="45.17858" lon="6.1595">
        <ele>2998.5</ele>
        <time>2014-05-25T09:07:24Z</time>
      </trkpt>
      <trkpt lat="45.17848" lon="6.15954">
        <ele>2994.5</ele>
        <time>2014-05-25T09:07:27Z</time>
      </trkpt>
      <trkpt lat="45.17838" lon="6.15952">
        <ele>2987.5</ele>
        <time>2014-05-25T09:07:30Z</time>
      </trkpt>
      <trkpt lat="45.17828" lon="6.1595">
        <ele>2987.5</ele>
        <time>2014-05-25T09:07:33Z</time>
      </trkpt>
      <trkpt lat="45.17816" lon="6.15942">
        <ele>2981.5</ele>
        <time>2014-05-25T09:07:36Z</time>
      </trkpt>
      <trkpt lat="45.17807" lon="6.15944">
        <ele>2978.5</ele>
        <time>2014-05-25T09:07:38Z</time>
      </trkpt>
      <trkpt lat="45.17798" lon="6.15941">
        <ele>2978.5</ele>
        <time>2014-05-25T09:07:41Z</time>
      </trkpt>
      <trkpt lat="45.17789" lon="6.15945">
        <ele>2967.5</ele>
        <time>2014-05-25T09:07:52Z</time>
      </trkpt>
      <trkpt lat="45.17784" lon="6.15968">
        <ele>2950.5</ele>
        <time>2014-05-25T09:08:02Z</time>
      </trkpt>
      <trkpt lat="45.17783" lon="6.15983">
        <ele>2944.5</ele>
        <time>2014-05-25T09:08:07Z</time>
      </trkpt>
      <trkpt lat="45.17783" lon="6.15998">
        <ele>2940.5</ele>
        <time>2014-05-25T09:08:11Z</time>
      </trkpt>
      <trkpt lat="45.17783" lon="6.16011">
        <ele>2939.5</ele>
        <time>2014-05-25T09:08:14Z</time>
      </trkpt>
      <trkpt lat="45.1778" lon="6.16025">
        <ele>2931.5</ele>
        <time>2014-05-25T09:08:18Z</time>
      </trkpt>
      <trkpt lat="45.17778" lon="6.16039">
        <ele>2925.5</ele>
        <time>2014-05-25T09:08:22Z</time>
      </trkpt>
      <trkpt lat="45.17768" lon="6.16043">
        <ele>2921.5</ele>
        <time>2014-05-25T09:08:27Z</time>
      </trkpt>
      <trkpt lat="45.17761" lon="6.16031">
        <ele>2918.5</ele>
        <time>2014-05-25T09:08:30Z</time>
      </trkpt>
      <trkpt lat="45.17755" lon="6.16046">
        <ele>2916.5</ele>
        <time>2014-05-25T09:10:18Z</time>
      </trkpt>
      <trkpt lat="45.17755" lon="6.16073">
        <ele>2902.5</ele>
        <time>2014-05-25T09:10:24Z</time>
      </trkpt>
      <trkpt lat="45.17754" lon="6.16089">
        <ele>2895.5</ele>
        <time>2014-05-25T09:10:28Z</time>
      </trkpt>
      <trkpt lat="45.17749" lon="6.16101">
        <ele>2892.5</ele>
        <time>2014-05-25T09:10:31Z</time>
      </trkpt>
      <trkpt lat="45.17747" lon="6.16117">
        <ele>2891.5</ele>
        <time>2014-05-25T09:10:33Z</time>
      </trkpt>
      <trkpt lat="45.17752" lon="6.16135">
        <ele>2890.5</ele>
        <time>2014-05-25T09:10:34Z</time>
      </trkpt>
      <trkpt lat="45.17752" lon="6.16152">
        <ele>2892.5</ele>
        <time>2014-05-25T09:10:35Z</time>
      </trkpt>
      <trkpt lat="45.17751" lon="6.16169">
        <ele>2891.5</ele>
        <time>2014-05-25T09:10:36Z</time>
      </trkpt>
      <trkpt lat="45.17754" lon="6.16194">
        <ele>2890.5</ele>
        <time>2014-05-25T09:10:38Z</time>
      </trkpt>
      <trkpt lat="45.17755" lon="6.16214">
        <ele>2889.5</ele>
        <time>2014-05-25T09:10:40Z</time>
      </trkpt>
      <trkpt lat="45.17755" lon="6.1623">
        <ele>2887.5</ele>
        <time>2014-05-25T09:10:42Z</time>
      </trkpt>
      <trkpt lat="45.17758" lon="6.16246">
        <ele>2883.5</ele>
        <time>2014-05-25T09:10:44Z</time>
      </trkpt>
      <trkpt lat="45.17758" lon="6.16261">
        <ele>2878.5</ele>
        <time>2014-05-25T09:10:46Z</time>
      </trkpt>
      <trkpt lat="45.1776" lon="6.16274">
        <ele>2873.5</ele>
        <time>2014-05-25T09:10:50Z</time>
      </trkpt>
      <trkpt lat="45.17769" lon="6.16275">
        <ele>2866.5</ele>
        <time>2014-05-25T09:11:37Z</time>
      </trkpt>
      <trkpt lat="45.17781" lon="6.16293">
        <ele>2858.5</ele>
        <time>2014-05-25T09:13:00Z</time>
      </trkpt>
      <trkpt lat="45.17795" lon="6.16308">
        <ele>2860.5</ele>
        <time>2014-05-25T09:13:16Z</time>
      </trkpt>
      <trkpt lat="45.17806" lon="6.16314">
        <ele>2858.5</ele>
        <time>2014-05-25T09:13:53Z</time>
      </trkpt>
      <trkpt lat="45.17816" lon="6.16322">
        <ele>2857.5</ele>
        <time>2014-05-25T09:13:56Z</time>
      </trkpt>
      <trkpt lat="45.17824" lon="6.1633">
        <ele>2856.5</ele>
        <time>2014-05-25T09:13:58Z</time>
      </trkpt>
      <trkpt lat="45.17832" lon="6.16343">
        <ele>2856.5</ele>
        <time>2014-05-25T09:14:00Z</time>
      </trkpt>
      <trkpt lat="45.17851" lon="6.16365">
        <ele>2850.5</ele>
        <time>2014-05-25T09:14:06Z</time>
      </trkpt>
      <trkpt lat="45.1786" lon="6.16376">
        <ele>2846.5</ele>
        <time>2014-05-25T09:14:09Z</time>
      </trkpt>
      <trkpt lat="45.17871" lon="6.1638">
        <ele>2844.5</ele>
        <time>2014-05-25T09:14:12Z</time>
      </trkpt>
      <trkpt lat="45.17881" lon="6.16387">
        <ele>2840.5</ele>
        <time>2014-05-25T09:14:15Z</time>
      </trkpt>
      <trkpt lat="45.17892" lon="6.1639">
        <ele>2839.5</ele>
        <time>2014-05-25T09:14:18Z</time>
      </trkpt>
      <trkpt lat="45.17902" lon="6.16388">
        <ele>2837.5</ele>
        <time>2014-05-25T09:14:21Z</time>
      </trkpt>
      <trkpt lat="45.17911" lon="6.16395">
        <ele>2831.5</ele>
        <time>2014-05-25T09:15:03Z</time>
      </trkpt>
      <trkpt lat="45.17927" lon="6.16409">
        <ele>2825.5</ele>
        <time>2014-05-25T09:15:09Z</time>
      </trkpt>
      <trkpt lat="45.17933" lon="6.16419">
        <ele>2822.5</ele>
        <time>2014-05-25T09:15:12Z</time>
      </trkpt>
      <trkpt lat="45.17944" lon="6.16428">
        <ele>2817.5</ele>
        <time>2014-05-25T09:15:17Z</time>
      </trkpt>
      <trkpt lat="45.17954" lon="6.16436">
        <ele>2811.5</ele>
        <time>2014-05-25T09:15:21Z</time>
      </trkpt>
      <trkpt lat="45.17953" lon="6.16452">
        <ele>2807.5</ele>
        <time>2014-05-25T09:15:24Z</time>
      </trkpt>
      <trkpt lat="45.17954" lon="6.16467">
        <ele>2801.5</ele>
        <time>2014-05-25T09:15:27Z</time>
      </trkpt>
      <trkpt lat="45.17961" lon="6.16476">
        <ele>2796.5</ele>
        <time>2014-05-25T09:15:30Z</time>
      </trkpt>
      <trkpt lat="45.17951" lon="6.16481">
        <ele>2784.5</ele>
        <time>2014-05-25T09:15:39Z</time>
      </trkpt>
      <trkpt lat="45.17958" lon="6.16493">
        <ele>2761.5</ele>
        <time>2014-05-25T09:16:16Z</time>
      </trkpt>
      <trkpt lat="45.17973" lon="6.16509">
        <ele>2762.5</ele>
        <time>2014-05-25T09:16:23Z</time>
      </trkpt>
      <trkpt lat="45.17973" lon="6.16527">
        <ele>2759.5</ele>
        <time>2014-05-25T09:16:26Z</time>
      </trkpt>
      <trkpt lat="45.17966" lon="6.16537">
        <ele>2752.5</ele>
        <time>2014-05-25T09:16:39Z</time>
      </trkpt>
      <trkpt lat="45.17973" lon="6.16548">
        <ele>2745.5</ele>
        <time>2014-05-25T09:18:13Z</time>
      </trkpt>
      <trkpt lat="45.17986" lon="6.16567">
        <ele>2745.5</ele>
        <time>2014-05-25T09:18:23Z</time>
      </trkpt>
      <trkpt lat="45.1799" lon="6.16579">
        <ele>2741.5</ele>
        <time>2014-05-25T09:18:58Z</time>
      </trkpt>
      <trkpt lat="45.17997" lon="6.16589">
        <ele>2732.5</ele>
        <time>2014-05-25T09:19:02Z</time>
      </trkpt>
      <trkpt lat="45.18006" lon="6.16599">
        <ele>2723.5</ele>
        <time>2014-05-25T09:19:05Z</time>
      </trkpt>
      <trkpt lat="45.18015" lon="6.16606">
        <ele>2719.5</ele>
        <time>2014-05-25T09:19:08Z</time>
      </trkpt>
      <trkpt lat="45.18022" lon="6.16616">
        <ele>2715.5</ele>
        <time>2014-05-25T09:19:10Z</time>
      </trkpt>
      <trkpt lat="45.18029" lon="6.16628">
        <ele>2710.5</ele>
        <time>2014-05-25T09:19:12Z</time>
      </trkpt>
      <trkpt lat="45.18035" lon="6.16642">
        <ele>2706.5</ele>
        <time>2014-05-25T09:19:15Z</time>
      </trkpt>
      <trkpt lat="45.18052" lon="6.16654">
        <ele>2695.5</ele>
        <time>2014-05-25T09:19:20Z</time>
      </trkpt>
      <trkpt lat="45.18064" lon="6.16659">
        <ele>2689.5</ele>
        <time>2014-05-25T09:19:23Z</time>
      </trkpt>
      <trkpt lat="45.18072" lon="6.16669">
        <ele>2685.5</ele>
        <time>2014-05-25T09:19:25Z</time>
      </trkpt>
      <trkpt lat="45.1808" lon="6.16686">
        <ele>2682.5</ele>
        <time>2014-05-25T09:19:27Z</time>
      </trkpt>
      <trkpt lat="45.1809" lon="6.16698">
        <ele>2677.5</ele>
        <time>2014-05-25T09:19:29Z</time>
      </trkpt>
      <trkpt lat="45.18098" lon="6.16708">
        <ele>2671.5</ele>
        <time>2014-05-25T09:19:32Z</time>
      </trkpt>
      <trkpt lat="45.1811" lon="6.16719">
        <ele>2657.5</ele>
        <time>2014-05-25T09:20:56Z</time>
      </trkpt>
      <trkpt lat="45.18131" lon="6.16733">
        <ele>2646.5</ele>
        <time>2014-05-25T09:21:00Z</time>
      </trkpt>
      <trkpt lat="45.18144" lon="6.16736">
        <ele>2642.5</ele>
        <time>2014-05-25T09:21:02Z</time>
      </trkpt>
      <trkpt lat="45.18155" lon="6.1674">
        <ele>2637.5</ele>
        <time>2014-05-25T09:21:04Z</time>
      </trkpt>
      <trkpt lat="45.18164" lon="6.16744">
        <ele>2632.5</ele>
        <time>2014-05-25T09:21:06Z</time>
      </trkpt>
      <trkpt lat="45.18172" lon="6.16751">
        <ele>2626.5</ele>
        <time>2014-05-25T09:21:08Z</time>
      </trkpt>
      <trkpt lat="45.18185" lon="6.16758">
        <ele>2619.5</ele>
        <time>2014-05-25T09:21:11Z</time>
      </trkpt>
      <trkpt lat="45.18193" lon="6.16768">
        <ele>2615.5</ele>
        <time>2014-05-25T09:21:14Z</time>
      </trkpt>
      <trkpt lat="45.18199" lon="6.16784">
        <ele>2603.5</ele>
        <time>2014-05-25T09:21:20Z</time>
      </trkpt>
      <trkpt lat="45.18207" lon="6.16789">
        <ele>2600.5</ele>
        <time>2014-05-25T09:21:22Z</time>
      </trkpt>
      <trkpt lat="45.18213" lon="6.16801">
        <ele>2593.5</ele>
        <time>2014-05-25T09:21:25Z</time>
      </trkpt>
      <trkpt lat="45.18226" lon="6.16803">
        <ele>2586.5</ele>
        <time>2014-05-25T09:21:28Z</time>
      </trkpt>
      <trkpt lat="45.18236" lon="6.1681">
        <ele>2582.5</ele>
        <time>2014-05-25T09:21:30Z</time>
      </trkpt>
      <trkpt lat="45.18251" lon="6.16818">
        <ele>2576.5</ele>
        <time>2014-05-25T09:21:33Z</time>
      </trkpt>
      <trkpt lat="45.1826" lon="6.16826">
        <ele>2573.5</ele>
        <time>2014-05-25T09:21:35Z</time>
      </trkpt>
      <trkpt lat="45.1827" lon="6.16833">
        <ele>2569.5</ele>
        <time>2014-05-25T09:21:37Z</time>
      </trkpt>
      <trkpt lat="45.18281" lon="6.16837">
        <ele>2566.5</ele>
        <time>2014-05-25T09:21:39Z</time>
      </trkpt>
      <trkpt lat="45.18291" lon="6.16841">
        <ele>2563.5</ele>
        <time>2014-05-25T09:21:41Z</time>
      </trkpt>
      <trkpt lat="45.183" lon="6.1685">
        <ele>2562.5</ele>
        <time>2014-05-25T09:21:44Z</time>
      </trkpt>
      <trkpt lat="45.18308" lon="6.1686">
        <ele>2563.5</ele>
        <time>2014-05-25T09:21:51Z</time>
      </trkpt>
      <trkpt lat="45.183" lon="6.16865">
        <ele>2562.5</ele>
        <time>2014-05-25T09:29:49Z</time>
      </trkpt>
      <trkpt lat="45.18314" lon="6.16832">
        <ele>2568.5</ele>
        <time>2014-05-25T09:32:47Z</time>
      </trkpt>
      <trkpt lat="45.1832" lon="6.16821">
        <ele>2568.5</ele>
        <time>2014-05-25T09:32:58Z</time>
      </trkpt>
      <trkpt lat="45.18325" lon="6.1681">
        <ele>2570.5</ele>
        <time>2014-05-25T09:33:11Z</time>
      </trkpt>
      <trkpt lat="45.18329" lon="6.16798">
        <ele>2578.5</ele>
        <time>2014-05-25T09:33:34Z</time>
      </trkpt>
      <trkpt lat="45.18348" lon="6.16797">
        <ele>2587.5</ele>
        <time>2014-05-25T09:34:06Z</time>
      </trkpt>
      <trkpt lat="45.18357" lon="6.16791">
        <ele>2586.5</ele>
        <time>2014-05-25T09:34:15Z</time>
      </trkpt>
      <trkpt lat="45.18366" lon="6.1679">
        <ele>2589.5</ele>
        <time>2014-05-25T09:34:54Z</time>
      </trkpt>
      <trkpt lat="45.18384" lon="6.16787">
        <ele>2594.5</ele>
        <time>2014-05-25T09:35:23Z</time>
      </trkpt>
      <trkpt lat="45.18393" lon="6.16786">
        <ele>2598.5</ele>
        <time>2014-05-25T09:35:33Z</time>
      </trkpt>
      <trkpt lat="45.18402" lon="6.16787">
        <ele>2602.5</ele>
        <time>2014-05-25T09:35:42Z</time>
      </trkpt>
      <trkpt lat="45.18412" lon="6.16784">
        <ele>2606.5</ele>
        <time>2014-05-25T09:35:52Z</time>
      </trkpt>
      <trkpt lat="45.1842" lon="6.16778">
        <ele>2602.5</ele>
        <time>2014-05-25T09:36:03Z</time>
      </trkpt>
      <trkpt lat="45.18434" lon="6.16763">
        <ele>2611.5</ele>
        <time>2014-05-25T09:36:37Z</time>
      </trkpt>
      <trkpt lat="45.1843" lon="6.16751">
        <ele>2606.5</ele>
        <time>2014-05-25T09:36:54Z</time>
      </trkpt>
      <trkpt lat="45.18425" lon="6.1674">
        <ele>2610.5</ele>
        <time>2014-05-25T09:37:11Z</time>
      </trkpt>
      <trkpt lat="45.18425" lon="6.16718">
        <ele>2618.5</ele>
        <time>2014-05-25T09:37:42Z</time>
      </trkpt>
      <trkpt lat="45.18433" lon="6.16711">
        <ele>2628.5</ele>
        <time>2014-05-25T09:38:23Z</time>
      </trkpt>
      <trkpt lat="45.18452" lon="6.16701">
        <ele>2631.5</ele>
        <time>2014-05-25T09:38:39Z</time>
      </trkpt>
      <trkpt lat="45.18449" lon="6.16688">
        <ele>2638.5</ele>
        <time>2014-05-25T09:38:58Z</time>
      </trkpt>
      <trkpt lat="45.18445" lon="6.16677">
        <ele>2641.5</ele>
        <time>2014-05-25T09:39:18Z</time>
      </trkpt>
      <trkpt lat="45.18449" lon="6.16665">
        <ele>2644.5</ele>
        <time>2014-05-25T09:40:05Z</time>
      </trkpt>
      <trkpt lat="45.18466" lon="6.16657">
        <ele>2649.5</ele>
        <time>2014-05-25T09:40:23Z</time>
      </trkpt>
      <trkpt lat="45.1846" lon="6.16647">
        <ele>2653.5</ele>
        <time>2014-05-25T09:40:51Z</time>
      </trkpt>
      <trkpt lat="45.18464" lon="6.16635">
        <ele>2657.5</ele>
        <time>2014-05-25T09:41:04Z</time>
      </trkpt>
      <trkpt lat="45.18471" lon="6.16628">
        <ele>2661.5</ele>
        <time>2014-05-25T09:41:15Z</time>
      </trkpt>
      <trkpt lat="45.18477" lon="6.16601">
        <ele>2655.5</ele>
        <time>2014-05-25T09:41:40Z</time>
      </trkpt>
      <trkpt lat="45.1848" lon="6.16589">
        <ele>2659.5</ele>
        <time>2014-05-25T09:41:49Z</time>
      </trkpt>
      <trkpt lat="45.18482" lon="6.16575">
        <ele>2663.5</ele>
        <time>2014-05-25T09:41:58Z</time>
      </trkpt>
      <trkpt lat="45.18487" lon="6.16564">
        <ele>2667.5</ele>
        <time>2014-05-25T09:42:08Z</time>
      </trkpt>
      <trkpt lat="45.18488" lon="6.1655">
        <ele>2669.5</ele>
        <time>2014-05-25T09:42:24Z</time>
      </trkpt>
      <trkpt lat="45.18492" lon="6.16525">
        <ele>2677.5</ele>
        <time>2014-05-25T09:42:53Z</time>
      </trkpt>
      <trkpt lat="45.185" lon="6.16517">
        <ele>2680.5</ele>
        <time>2014-05-25T09:43:11Z</time>
      </trkpt>
      <trkpt lat="45.18509" lon="6.16519">
        <ele>2685.5</ele>
        <time>2014-05-25T09:43:26Z</time>
      </trkpt>
      <trkpt lat="45.18526" lon="6.16527">
        <ele>2696.5</ele>
        <time>2014-05-25T09:43:52Z</time>
      </trkpt>
      <trkpt lat="45.18533" lon="6.16535">
        <ele>2698.5</ele>
        <time>2014-05-25T09:44:09Z</time>
      </trkpt>
      <trkpt lat="45.18541" lon="6.16526">
        <ele>2704.5</ele>
        <time>2014-05-25T09:44:34Z</time>
      </trkpt>
      <trkpt lat="45.18543" lon="6.16501">
        <ele>2710.5</ele>
        <time>2014-05-25T09:45:12Z</time>
      </trkpt>
      <trkpt lat="45.1855" lon="6.16493">
        <ele>2713.5</ele>
        <time>2014-05-25T09:45:24Z</time>
      </trkpt>
      <trkpt lat="45.18556" lon="6.16483">
        <ele>2715.5</ele>
        <time>2014-05-25T09:46:20Z</time>
      </trkpt>
      <trkpt lat="45.18574" lon="6.16477">
        <ele>2718.5</ele>
        <time>2014-05-25T09:46:34Z</time>
      </trkpt>
      <trkpt lat="45.18584" lon="6.16477">
        <ele>2725.5</ele>
        <time>2014-05-25T09:46:44Z</time>
      </trkpt>
      <trkpt lat="45.18593" lon="6.16476">
        <ele>2725.5</ele>
        <time>2014-05-25T09:46:53Z</time>
      </trkpt>
      <trkpt lat="45.18602" lon="6.16471">
        <ele>2725.5</ele>
        <time>2014-05-25T09:47:01Z</time>
      </trkpt>
      <trkpt lat="45.18611" lon="6.16471">
        <ele>2727.5</ele>
        <time>2014-05-25T09:47:10Z</time>
      </trkpt>
      <trkpt lat="45.1862" lon="6.16467">
        <ele>2729.5</ele>
        <time>2014-05-25T09:47:20Z</time>
      </trkpt>
      <trkpt lat="45.18629" lon="6.16466">
        <ele>2733.5</ele>
        <time>2014-05-25T09:47:31Z</time>
      </trkpt>
      <trkpt lat="45.18646" lon="6.16462">
        <ele>2736.5</ele>
        <time>2014-05-25T09:48:01Z</time>
      </trkpt>
      <trkpt lat="45.18655" lon="6.16459">
        <ele>2736.5</ele>
        <time>2014-05-25T09:48:10Z</time>
      </trkpt>
      <trkpt lat="45.18663" lon="6.16464">
        <ele>2741.5</ele>
        <time>2014-05-25T09:48:23Z</time>
      </trkpt>
      <trkpt lat="45.18673" lon="6.16469">
        <ele>2743.5</ele>
        <time>2014-05-25T09:48:42Z</time>
      </trkpt>
      <trkpt lat="45.18692" lon="6.16469">
        <ele>2746.5</ele>
        <time>2014-05-25T09:48:56Z</time>
      </trkpt>
      <trkpt lat="45.18701" lon="6.16468">
        <ele>2748.5</ele>
        <time>2014-05-25T09:49:07Z</time>
      </trkpt>
      <trkpt lat="45.1871" lon="6.16469">
        <ele>2749.5</ele>
        <time>2014-05-25T09:49:20Z</time>
      </trkpt>
      <trkpt lat="45.1872" lon="6.16472">
        <ele>2752.5</ele>
        <time>2014-05-25T09:49:33Z</time>
      </trkpt>
      <trkpt lat="45.18729" lon="6.16474">
        <ele>2753.5</ele>
        <time>2014-05-25T09:49:41Z</time>
      </trkpt>
      <trkpt lat="45.18738" lon="6.16474">
        <ele>2754.5</ele>
        <time>2014-05-25T09:49:48Z</time>
      </trkpt>
      <trkpt lat="45.18756" lon="6.16483">
        <ele>2754.5</ele>
        <time>2014-05-25T09:50:08Z</time>
      </trkpt>
      <trkpt lat="45.18765" lon="6.16484">
        <ele>2756.5</ele>
        <time>2014-05-25T09:50:18Z</time>
      </trkpt>
      <trkpt lat="45.18774" lon="6.16488">
        <ele>2761.5</ele>
        <time>2014-05-25T09:50:25Z</time>
      </trkpt>
      <trkpt lat="45.18784" lon="6.16489">
        <ele>2762.5</ele>
        <time>2014-05-25T09:50:33Z</time>
      </trkpt>
      <trkpt lat="45.18793" lon="6.16488">
        <ele>2762.5</ele>
        <time>2014-05-25T09:50:41Z</time>
      </trkpt>
      <trkpt lat="45.18801" lon="6.16495">
        <ele>2763.5</ele>
        <time>2014-05-25T09:50:54Z</time>
      </trkpt>
      <trkpt lat="45.1882" lon="6.16492">
        <ele>2761.5</ele>
        <time>2014-05-25T09:51:22Z</time>
      </trkpt>
      <trkpt lat="45.1883" lon="6.16494">
        <ele>2763.5</ele>
        <time>2014-05-25T09:51:31Z</time>
      </trkpt>
      <trkpt lat="45.18839" lon="6.16498">
        <ele>2765.5</ele>
        <time>2014-05-25T09:51:43Z</time>
      </trkpt>
      <trkpt lat="45.18848" lon="6.16502">
        <ele>2768.5</ele>
        <time>2014-05-25T09:51:55Z</time>
      </trkpt>
      <trkpt lat="45.18867" lon="6.16502">
        <ele>2769.5</ele>
        <time>2014-05-25T09:52:20Z</time>
      </trkpt>
      <trkpt lat="45.18876" lon="6.16502">
        <ele>2772.5</ele>
        <time>2014-05-25T09:52:35Z</time>
      </trkpt>
      <trkpt lat="45.18885" lon="6.16498">
        <ele>2769.5</ele>
        <time>2014-05-25T09:52:53Z</time>
      </trkpt>
      <trkpt lat="45.18895" lon="6.16498">
        <ele>2775.5</ele>
        <time>2014-05-25T09:53:01Z</time>
      </trkpt>
      <trkpt lat="45.18912" lon="6.16488">
        <ele>2778.5</ele>
        <time>2014-05-25T09:53:25Z</time>
      </trkpt>
      <trkpt lat="45.18921" lon="6.1648">
        <ele>2777.5</ele>
        <time>2014-05-25T09:53:40Z</time>
      </trkpt>
      <trkpt lat="45.1893" lon="6.16478">
        <ele>2780.5</ele>
        <time>2014-05-25T09:53:49Z</time>
      </trkpt>
      <trkpt lat="45.18938" lon="6.16474">
        <ele>2782.5</ele>
        <time>2014-05-25T09:54:00Z</time>
      </trkpt>
      <trkpt lat="45.18946" lon="6.16467">
        <ele>2783.5</ele>
        <time>2014-05-25T09:54:15Z</time>
      </trkpt>
      <trkpt lat="45.18962" lon="6.16453">
        <ele>2779.5</ele>
        <time>2014-05-25T09:54:40Z</time>
      </trkpt>
      <trkpt lat="45.18968" lon="6.16443">
        <ele>2782.5</ele>
        <time>2014-05-25T09:54:55Z</time>
      </trkpt>
      <trkpt lat="45.18972" lon="6.16431">
        <ele>2777.5</ele>
        <time>2014-05-25T09:55:07Z</time>
      </trkpt>
      <trkpt lat="45.18978" lon="6.16421">
        <ele>2781.5</ele>
        <time>2014-05-25T09:55:20Z</time>
      </trkpt>
      <trkpt lat="45.18985" lon="6.16401">
        <ele>2782.5</ele>
        <time>2014-05-25T09:55:44Z</time>
      </trkpt>
      <trkpt lat="45.18985" lon="6.16387">
        <ele>2787.5</ele>
        <time>2014-05-25T09:56:56Z</time>
      </trkpt>
      <trkpt lat="45.18975" lon="6.16364">
        <ele>2790.5</ele>
        <time>2014-05-25T09:57:23Z</time>
      </trkpt>
      <trkpt lat="45.18971" lon="6.16353">
        <ele>2793.5</ele>
        <time>2014-05-25T09:57:36Z</time>
      </trkpt>
      <trkpt lat="45.18964" lon="6.16345">
        <ele>2795.5</ele>
        <time>2014-05-25T09:57:48Z</time>
      </trkpt>
      <trkpt lat="45.18958" lon="6.16334">
        <ele>2801.5</ele>
        <time>2014-05-25T09:58:01Z</time>
      </trkpt>
      <trkpt lat="45.18946" lon="6.16312">
        <ele>2809.5</ele>
        <time>2014-05-25T09:58:35Z</time>
      </trkpt>
      <trkpt lat="45.18941" lon="6.16302">
        <ele>2815.5</ele>
        <time>2014-05-25T09:58:51Z</time>
      </trkpt>
      <trkpt lat="45.18933" lon="6.16306">
        <ele>2819.5</ele>
        <time>2014-05-25T09:59:05Z</time>
      </trkpt>
      <trkpt lat="45.18915" lon="6.16293">
        <ele>2829.5</ele>
        <time>2014-05-25T09:59:33Z</time>
      </trkpt>
      <trkpt lat="45.18907" lon="6.16288">
        <ele>2825.5</ele>
        <time>2014-05-25T09:59:48Z</time>
      </trkpt>
      <trkpt lat="45.18899" lon="6.16279">
        <ele>2831.5</ele>
        <time>2014-05-25T09:59:57Z</time>
      </trkpt>
      <trkpt lat="45.18901" lon="6.16294">
        <ele>2833.5</ele>
        <time>2014-05-25T10:04:24Z</time>
      </trkpt>
      <trkpt lat="45.18919" lon="6.16309">
        <ele>2825.5</ele>
        <time>2014-05-25T10:04:31Z</time>
      </trkpt>
      <trkpt lat="45.1893" lon="6.1632">
        <ele>2821.5</ele>
        <time>2014-05-25T10:04:34Z</time>
      </trkpt>
      <trkpt lat="45.18939" lon="6.16329">
        <ele>2816.5</ele>
        <time>2014-05-25T10:04:37Z</time>
      </trkpt>
      <trkpt lat="45.1895" lon="6.16325">
        <ele>2813.5</ele>
        <time>2014-05-25T10:04:39Z</time>
      </trkpt>
      <trkpt lat="45.18961" lon="6.16334">
        <ele>2810.5</ele>
        <time>2014-05-25T10:04:42Z</time>
      </trkpt>
      <trkpt lat="45.18968" lon="6.16344">
        <ele>2808.5</ele>
        <time>2014-05-25T10:04:44Z</time>
      </trkpt>
      <trkpt lat="45.18971" lon="6.1636">
        <ele>2806.5</ele>
        <time>2014-05-25T10:04:46Z</time>
      </trkpt>
      <trkpt lat="45.1898" lon="6.16367">
        <ele>2803.5</ele>
        <time>2014-05-25T10:04:48Z</time>
      </trkpt>
      <trkpt lat="45.1899" lon="6.16377">
        <ele>2802.5</ele>
        <time>2014-05-25T10:04:50Z</time>
      </trkpt>
      <trkpt lat="45.19001" lon="6.16381">
        <ele>2796.5</ele>
        <time>2014-05-25T10:19:11Z</time>
      </trkpt>
      <trkpt lat="45.19022" lon="6.16378">
        <ele>2783.5</ele>
        <time>2014-05-25T10:19:17Z</time>
      </trkpt>
      <trkpt lat="45.19033" lon="6.16373">
        <ele>2778.5</ele>
        <time>2014-05-25T10:19:20Z</time>
      </trkpt>
      <trkpt lat="45.19041" lon="6.1638">
        <ele>2779.5</ele>
        <time>2014-05-25T10:19:22Z</time>
      </trkpt>
      <trkpt lat="45.19054" lon="6.16374">
        <ele>2778.5</ele>
        <time>2014-05-25T10:19:25Z</time>
      </trkpt>
      <trkpt lat="45.19062" lon="6.16368">
        <ele>2777.5</ele>
        <time>2014-05-25T10:19:27Z</time>
      </trkpt>
      <trkpt lat="45.1907" lon="6.16362">
        <ele>2775.5</ele>
        <time>2014-05-25T10:19:29Z</time>
      </trkpt>
      <trkpt lat="45.19079" lon="6.16367">
        <ele>2770.5</ele>
        <time>2014-05-25T10:19:32Z</time>
      </trkpt>
      <trkpt lat="45.19084" lon="6.16379">
        <ele>2766.5</ele>
        <time>2014-05-25T10:19:34Z</time>
      </trkpt>
      <trkpt lat="45.19093" lon="6.16389">
        <ele>2765.5</ele>
        <time>2014-05-25T10:19:37Z</time>
      </trkpt>
      <trkpt lat="45.19104" lon="6.16388">
        <ele>2763.5</ele>
        <time>2014-05-25T10:19:40Z</time>
      </trkpt>
      <trkpt lat="45.19117" lon="6.16394">
        <ele>2761.5</ele>
        <time>2014-05-25T10:19:43Z</time>
      </trkpt>
      <trkpt lat="45.19135" lon="6.16388">
        <ele>2759.5</ele>
        <time>2014-05-25T10:19:45Z</time>
      </trkpt>
      <trkpt lat="45.19144" lon="6.16387">
        <ele>2760.5</ele>
        <time>2014-05-25T10:19:47Z</time>
      </trkpt>
      <trkpt lat="45.19153" lon="6.16391">
        <ele>2757.5</ele>
        <time>2014-05-25T10:19:49Z</time>
      </trkpt>
      <trkpt lat="45.19168" lon="6.16391">
        <ele>2754.5</ele>
        <time>2014-05-25T10:19:51Z</time>
      </trkpt>
      <trkpt lat="45.19179" lon="6.16386">
        <ele>2752.5</ele>
        <time>2014-05-25T10:19:53Z</time>
      </trkpt>
      <trkpt lat="45.19191" lon="6.16381">
        <ele>2742.5</ele>
        <time>2014-05-25T10:19:56Z</time>
      </trkpt>
      <trkpt lat="45.19203" lon="6.16378">
        <ele>2734.5</ele>
        <time>2014-05-25T10:19:58Z</time>
      </trkpt>
      <trkpt lat="45.19216" lon="6.16376">
        <ele>2728.5</ele>
        <time>2014-05-25T10:20:00Z</time>
      </trkpt>
      <trkpt lat="45.19227" lon="6.16377">
        <ele>2724.5</ele>
        <time>2014-05-25T10:20:02Z</time>
      </trkpt>
      <trkpt lat="45.1924" lon="6.16372">
        <ele>2719.5</ele>
        <time>2014-05-25T10:20:05Z</time>
      </trkpt>
      <trkpt lat="45.1925" lon="6.16374">
        <ele>2717.5</ele>
        <time>2014-05-25T10:20:08Z</time>
      </trkpt>
      <trkpt lat="45.19262" lon="6.16383">
        <ele>2704.5</ele>
        <time>2014-05-25T10:20:29Z</time>
      </trkpt>
      <trkpt lat="45.19282" lon="6.16404">
        <ele>2701.5</ele>
        <time>2014-05-25T10:20:35Z</time>
      </trkpt>
      <trkpt lat="45.19292" lon="6.16405">
        <ele>2699.5</ele>
        <time>2014-05-25T10:20:37Z</time>
      </trkpt>
      <trkpt lat="45.19302" lon="6.164">
        <ele>2697.5</ele>
        <time>2014-05-25T10:20:39Z</time>
      </trkpt>
      <trkpt lat="45.19315" lon="6.16401">
        <ele>2694.5</ele>
        <time>2014-05-25T10:20:42Z</time>
      </trkpt>
      <trkpt lat="45.19326" lon="6.16405">
        <ele>2692.5</ele>
        <time>2014-05-25T10:20:44Z</time>
      </trkpt>
      <trkpt lat="45.19335" lon="6.16406">
        <ele>2691.5</ele>
        <time>2014-05-25T10:20:46Z</time>
      </trkpt>
      <trkpt lat="45.19346" lon="6.16409">
        <ele>2685.5</ele>
        <time>2014-05-25T10:20:48Z</time>
      </trkpt>
      <trkpt lat="45.1936" lon="6.16415">
        <ele>2682.5</ele>
        <time>2014-05-25T10:20:50Z</time>
      </trkpt>
      <trkpt lat="45.19376" lon="6.16419">
        <ele>2675.5</ele>
        <time>2014-05-25T10:20:52Z</time>
      </trkpt>
      <trkpt lat="45.1939" lon="6.16426">
        <ele>2674.5</ele>
        <time>2014-05-25T10:20:54Z</time>
      </trkpt>
      <trkpt lat="45.19402" lon="6.16424">
        <ele>2672.5</ele>
        <time>2014-05-25T10:20:56Z</time>
      </trkpt>
      <trkpt lat="45.19415" lon="6.16416">
        <ele>2669.5</ele>
        <time>2014-05-25T10:20:58Z</time>
      </trkpt>
      <trkpt lat="45.19428" lon="6.16407">
        <ele>2668.5</ele>
        <time>2014-05-25T10:21:00Z</time>
      </trkpt>
      <trkpt lat="45.19437" lon="6.16405">
        <ele>2668.5</ele>
        <time>2014-05-25T10:21:01Z</time>
      </trkpt>
      <trkpt lat="45.19447" lon="6.16399">
        <ele>2665.5</ele>
        <time>2014-05-25T10:21:03Z</time>
      </trkpt>
      <trkpt lat="45.19457" lon="6.16398">
        <ele>2663.5</ele>
        <time>2014-05-25T10:21:04Z</time>
      </trkpt>
      <trkpt lat="45.19473" lon="6.16394">
        <ele>2660.5</ele>
        <time>2014-05-25T10:21:06Z</time>
      </trkpt>
      <trkpt lat="45.19485" lon="6.16389">
        <ele>2655.5</ele>
        <time>2014-05-25T10:21:08Z</time>
      </trkpt>
      <trkpt lat="45.19497" lon="6.16387">
        <ele>2654.5</ele>
        <time>2014-05-25T10:21:10Z</time>
      </trkpt>
      <trkpt lat="45.19507" lon="6.16387">
        <ele>2652.5</ele>
        <time>2014-05-25T10:21:12Z</time>
      </trkpt>
      <trkpt lat="45.19519" lon="6.16382">
        <ele>2647.5</ele>
        <time>2014-05-25T10:21:16Z</time>
      </trkpt>
      <trkpt lat="45.1953" lon="6.16386">
        <ele>2646.5</ele>
        <time>2014-05-25T10:21:18Z</time>
      </trkpt>
      <trkpt lat="45.19545" lon="6.16382">
        <ele>2643.5</ele>
        <time>2014-05-25T10:21:21Z</time>
      </trkpt>
      <trkpt lat="45.19556" lon="6.1638">
        <ele>2641.5</ele>
        <time>2014-05-25T10:21:23Z</time>
      </trkpt>
      <trkpt lat="45.19567" lon="6.16379">
        <ele>2638.5</ele>
        <time>2014-05-25T10:21:26Z</time>
      </trkpt>
      <trkpt lat="45.19578" lon="6.16376">
        <ele>2636.5</ele>
        <time>2014-05-25T10:21:32Z</time>
      </trkpt>
      <trkpt lat="45.19597" lon="6.16371">
        <ele>2635.5</ele>
        <time>2014-05-25T10:21:39Z</time>
      </trkpt>
      <trkpt lat="45.19604" lon="6.16359">
        <ele>2637.5</ele>
        <time>2014-05-25T10:21:44Z</time>
      </trkpt>
      <trkpt lat="45.19607" lon="6.16345">
        <ele>2635.5</ele>
        <time>2014-05-25T10:21:51Z</time>
      </trkpt>
      <trkpt lat="45.19612" lon="6.16333">
        <ele>2633.5</ele>
        <time>2014-05-25T10:21:55Z</time>
      </trkpt>
      <trkpt lat="45.19614" lon="6.1632">
        <ele>2628.5</ele>
        <time>2014-05-25T10:22:39Z</time>
      </trkpt>
      <trkpt lat="45.19628" lon="6.16296">
        <ele>2622.5</ele>
        <time>2014-05-25T10:22:44Z</time>
      </trkpt>
      <trkpt lat="45.1964" lon="6.16287">
        <ele>2619.5</ele>
        <time>2014-05-25T10:22:47Z</time>
      </trkpt>
      <trkpt lat="45.19653" lon="6.16277">
        <ele>2618.5</ele>
        <time>2014-05-25T10:22:49Z</time>
      </trkpt>
      <trkpt lat="45.19663" lon="6.16265">
        <ele>2615.5</ele>
        <time>2014-05-25T10:22:51Z</time>
      </trkpt>
      <trkpt lat="45.19675" lon="6.16261">
        <ele>2612.5</ele>
        <time>2014-05-25T10:22:53Z</time>
      </trkpt>
      <trkpt lat="45.19688" lon="6.16247">
        <ele>2610.5</ele>
        <time>2014-05-25T10:22:55Z</time>
      </trkpt>
      <trkpt lat="45.197" lon="6.16233">
        <ele>2608.5</ele>
        <time>2014-05-25T10:22:57Z</time>
      </trkpt>
      <trkpt lat="45.19707" lon="6.16226">
        <ele>2608.5</ele>
        <time>2014-05-25T10:22:58Z</time>
      </trkpt>
      <trkpt lat="45.19715" lon="6.16212">
        <ele>2608.5</ele>
        <time>2014-05-25T10:23:00Z</time>
      </trkpt>
      <trkpt lat="45.19721" lon="6.16199">
        <ele>2604.5</ele>
        <time>2014-05-25T10:23:02Z</time>
      </trkpt>
      <trkpt lat="45.19732" lon="6.16189">
        <ele>2601.5</ele>
        <time>2014-05-25T10:23:04Z</time>
      </trkpt>
      <trkpt lat="45.19745" lon="6.16181">
        <ele>2594.5</ele>
        <time>2014-05-25T10:23:07Z</time>
      </trkpt>
      <trkpt lat="45.19756" lon="6.16175">
        <ele>2591.5</ele>
        <time>2014-05-25T10:23:09Z</time>
      </trkpt>
      <trkpt lat="45.19768" lon="6.16173">
        <ele>2588.5</ele>
        <time>2014-05-25T10:23:11Z</time>
      </trkpt>
      <trkpt lat="45.19787" lon="6.16177">
        <ele>2584.5</ele>
        <time>2014-05-25T10:23:13Z</time>
      </trkpt>
      <trkpt lat="45.19806" lon="6.16183">
        <ele>2581.5</ele>
        <time>2014-05-25T10:23:15Z</time>
      </trkpt>
      <trkpt lat="45.19821" lon="6.16184">
        <ele>2579.5</ele>
        <time>2014-05-25T10:23:17Z</time>
      </trkpt>
      <trkpt lat="45.19833" lon="6.16192">
        <ele>2577.5</ele>
        <time>2014-05-25T10:23:19Z</time>
      </trkpt>
      <trkpt lat="45.19842" lon="6.16202">
        <ele>2577.5</ele>
        <time>2014-05-25T10:23:20Z</time>
      </trkpt>
      <trkpt lat="45.19851" lon="6.16202">
        <ele>2575.5</ele>
        <time>2014-05-25T10:23:22Z</time>
      </trkpt>
      <trkpt lat="45.19862" lon="6.16201">
        <ele>2571.5</ele>
        <time>2014-05-25T10:23:24Z</time>
      </trkpt>
      <trkpt lat="45.19871" lon="6.16203">
        <ele>2571.5</ele>
        <time>2014-05-25T10:23:26Z</time>
      </trkpt>
      <trkpt lat="45.19879" lon="6.16211">
        <ele>2572.5</ele>
        <time>2014-05-25T10:23:28Z</time>
      </trkpt>
      <trkpt lat="45.19885" lon="6.16199">
        <ele>2570.5</ele>
        <time>2014-05-25T10:23:30Z</time>
      </trkpt>
      <trkpt lat="45.19895" lon="6.16195">
        <ele>2567.5</ele>
        <time>2014-05-25T10:23:32Z</time>
      </trkpt>
      <trkpt lat="45.19909" lon="6.16198">
        <ele>2563.5</ele>
        <time>2014-05-25T10:23:35Z</time>
      </trkpt>
      <trkpt lat="45.19917" lon="6.16203">
        <ele>2563.5</ele>
        <time>2014-05-25T10:23:37Z</time>
      </trkpt>
      <trkpt lat="45.19929" lon="6.16213">
        <ele>2563.5</ele>
        <time>2014-05-25T10:23:40Z</time>
      </trkpt>
      <trkpt lat="45.19949" lon="6.16231">
        <ele>2557.5</ele>
        <time>2014-05-25T10:23:44Z</time>
      </trkpt>
      <trkpt lat="45.1996" lon="6.16238">
        <ele>2556.5</ele>
        <time>2014-05-25T10:23:47Z</time>
      </trkpt>
      <trkpt lat="45.1997" lon="6.16241">
        <ele>2554.5</ele>
        <time>2014-05-25T10:23:50Z</time>
      </trkpt>
      <trkpt lat="45.1998" lon="6.16246">
        <ele>2557.5</ele>
        <time>2014-05-25T10:23:53Z</time>
      </trkpt>
      <trkpt lat="45.19992" lon="6.1625">
        <ele>2554.5</ele>
        <time>2014-05-25T10:23:57Z</time>
      </trkpt>
      <trkpt lat="45.20001" lon="6.16253">
        <ele>2553.5</ele>
        <time>2014-05-25T10:24:00Z</time>
      </trkpt>
      <trkpt lat="45.2001" lon="6.16256">
        <ele>2552.5</ele>
        <time>2014-05-25T10:24:03Z</time>
      </trkpt>
      <trkpt lat="45.2002" lon="6.16259">
        <ele>2551.5</ele>
        <time>2014-05-25T10:24:07Z</time>
      </trkpt>
      <trkpt lat="45.20031" lon="6.16259">
        <ele>2550.5</ele>
        <time>2014-05-25T10:24:12Z</time>
      </trkpt>
      <trkpt lat="45.2004" lon="6.16262">
        <ele>2552.5</ele>
        <time>2014-05-25T10:24:17Z</time>
      </trkpt>
      <trkpt lat="45.2005" lon="6.16263">
        <ele>2548.5</ele>
        <time>2014-05-25T10:24:25Z</time>
      </trkpt>
      <trkpt lat="45.2006" lon="6.16259">
        <ele>2545.5</ele>
        <time>2014-05-25T10:24:30Z</time>
      </trkpt>
      <trkpt lat="45.20071" lon="6.16258">
        <ele>2542.5</ele>
        <time>2014-05-25T10:24:35Z</time>
      </trkpt>
      <trkpt lat="45.20081" lon="6.16257">
        <ele>2541.5</ele>
        <time>2014-05-25T10:24:38Z</time>
      </trkpt>
      <trkpt lat="45.20092" lon="6.16254">
        <ele>2538.5</ele>
        <time>2014-05-25T10:24:42Z</time>
      </trkpt>
      <trkpt lat="45.20111" lon="6.1625">
        <ele>2539.5</ele>
        <time>2014-05-25T10:24:51Z</time>
      </trkpt>
      <trkpt lat="45.20114" lon="6.16237">
        <ele>2536.5</ele>
        <time>2014-05-25T10:27:01Z</time>
      </trkpt>
      <trkpt lat="45.20133" lon="6.16212">
        <ele>2536.5</ele>
        <time>2014-05-25T10:27:06Z</time>
      </trkpt>
      <trkpt lat="45.20148" lon="6.16205">
        <ele>2537.5</ele>
        <time>2014-05-25T10:27:08Z</time>
      </trkpt>
      <trkpt lat="45.20159" lon="6.16194">
        <ele>2536.5</ele>
        <time>2014-05-25T10:27:11Z</time>
      </trkpt>
      <trkpt lat="45.20169" lon="6.16188">
        <ele>2535.5</ele>
        <time>2014-05-25T10:27:14Z</time>
      </trkpt>
      <trkpt lat="45.2018" lon="6.16183">
        <ele>2534.5</ele>
        <time>2014-05-25T10:27:17Z</time>
      </trkpt>
      <trkpt lat="45.20193" lon="6.16177">
        <ele>2535.5</ele>
        <time>2014-05-25T10:27:20Z</time>
      </trkpt>
      <trkpt lat="45.20203" lon="6.16172">
        <ele>2534.5</ele>
        <time>2014-05-25T10:27:22Z</time>
      </trkpt>
      <trkpt lat="45.20212" lon="6.16164">
        <ele>2534.5</ele>
        <time>2014-05-25T10:27:25Z</time>
      </trkpt>
      <trkpt lat="45.20221" lon="6.16158">
        <ele>2534.5</ele>
        <time>2014-05-25T10:27:29Z</time>
      </trkpt>
      <trkpt lat="45.2023" lon="6.16153">
        <ele>2533.5</ele>
        <time>2014-05-25T10:27:35Z</time>
      </trkpt>
      <trkpt lat="45.2024" lon="6.16147">
        <ele>2531.5</ele>
        <time>2014-05-25T10:27:40Z</time>
      </trkpt>
      <trkpt lat="45.20249" lon="6.16141">
        <ele>2532.5</ele>
        <time>2014-05-25T10:27:43Z</time>
      </trkpt>
      <trkpt lat="45.20257" lon="6.16134">
        <ele>2530.5</ele>
        <time>2014-05-25T10:27:45Z</time>
      </trkpt>
      <trkpt lat="45.20269" lon="6.16127">
        <ele>2532.5</ele>
        <time>2014-05-25T10:27:48Z</time>
      </trkpt>
      <trkpt lat="45.20278" lon="6.16131">
        <ele>2528.5</ele>
        <time>2014-05-25T10:28:02Z</time>
      </trkpt>
      <trkpt lat="45.20287" lon="6.16107">
        <ele>2528.5</ele>
        <time>2014-05-25T10:28:29Z</time>
      </trkpt>
      <trkpt lat="45.20294" lon="6.16095">
        <ele>2528.5</ele>
        <time>2014-05-25T10:28:34Z</time>
      </trkpt>
      <trkpt lat="45.203" lon="6.16084">
        <ele>2532.5</ele>
        <time>2014-05-25T10:28:40Z</time>
      </trkpt>
      <trkpt lat="45.20306" lon="6.16074">
        <ele>2532.5</ele>
        <time>2014-05-25T10:28:45Z</time>
      </trkpt>
      <trkpt lat="45.20312" lon="6.16062">
        <ele>2532.5</ele>
        <time>2014-05-25T10:28:49Z</time>
      </trkpt>
      <trkpt lat="45.2032" lon="6.16054">
        <ele>2531.5</ele>
        <time>2014-05-25T10:28:54Z</time>
      </trkpt>
      <trkpt lat="45.20328" lon="6.16047">
        <ele>2531.5</ele>
        <time>2014-05-25T10:29:06Z</time>
      </trkpt>
      <trkpt lat="45.20331" lon="6.16031">
        <ele>2532.5</ele>
        <time>2014-05-25T10:29:47Z</time>
      </trkpt>
      <trkpt lat="45.20339" lon="6.16023">
        <ele>2540.5</ele>
        <time>2014-05-25T10:30:06Z</time>
      </trkpt>
      <trkpt lat="45.20347" lon="6.16016">
        <ele>2541.5</ele>
        <time>2014-05-25T10:30:18Z</time>
      </trkpt>
      <trkpt lat="45.20359" lon="6.15996">
        <ele>2543.5</ele>
        <time>2014-05-25T10:30:44Z</time>
      </trkpt>
      <trkpt lat="45.20368" lon="6.15986">
        <ele>2537.5</ele>
        <time>2014-05-25T10:33:49Z</time>
      </trkpt>
      <trkpt lat="45.20393" lon="6.15966">
        <ele>2535.5</ele>
        <time>2014-05-25T10:33:53Z</time>
      </trkpt>
      <trkpt lat="45.20404" lon="6.15963">
        <ele>2532.5</ele>
        <time>2014-05-25T10:33:55Z</time>
      </trkpt>
      <trkpt lat="45.20415" lon="6.15959">
        <ele>2532.5</ele>
        <time>2014-05-25T10:33:57Z</time>
      </trkpt>
      <trkpt lat="45.20424" lon="6.15955">
        <ele>2532.5</ele>
        <time>2014-05-25T10:33:59Z</time>
      </trkpt>
      <trkpt lat="45.20436" lon="6.15951">
        <ele>2533.5</ele>
        <time>2014-05-25T10:34:02Z</time>
      </trkpt>
      <trkpt lat="45.20447" lon="6.15945">
        <ele>2532.5</ele>
        <time>2014-05-25T10:34:06Z</time>
      </trkpt>
      <trkpt lat="45.20457" lon="6.15941">
        <ele>2529.5</ele>
        <time>2014-05-25T10:34:09Z</time>
      </trkpt>
      <trkpt lat="45.20467" lon="6.15937">
        <ele>2522.5</ele>
        <time>2014-05-25T10:34:35Z</time>
      </trkpt>
      <trkpt lat="45.20479" lon="6.15939">
        <ele>2520.5</ele>
        <time>2014-05-25T10:34:37Z</time>
      </trkpt>
      <trkpt lat="45.20495" lon="6.1594">
        <ele>2518.5</ele>
        <time>2014-05-25T10:34:39Z</time>
      </trkpt>
      <trkpt lat="45.20511" lon="6.15934">
        <ele>2519.5</ele>
        <time>2014-05-25T10:34:41Z</time>
      </trkpt>
      <trkpt lat="45.20526" lon="6.15932">
        <ele>2517.5</ele>
        <time>2014-05-25T10:34:43Z</time>
      </trkpt>
      <trkpt lat="45.20538" lon="6.1593">
        <ele>2515.5</ele>
        <time>2014-05-25T10:34:45Z</time>
      </trkpt>
      <trkpt lat="45.2055" lon="6.15929">
        <ele>2515.5</ele>
        <time>2014-05-25T10:34:47Z</time>
      </trkpt>
      <trkpt lat="45.2056" lon="6.15928">
        <ele>2514.5</ele>
        <time>2014-05-25T10:34:50Z</time>
      </trkpt>
      <trkpt lat="45.20581" lon="6.15925">
        <ele>2512.5</ele>
        <time>2014-05-25T10:35:00Z</time>
      </trkpt>
      <trkpt lat="45.20591" lon="6.15921">
        <ele>2512.5</ele>
        <time>2014-05-25T10:35:06Z</time>
      </trkpt>
      <trkpt lat="45.20599" lon="6.15912">
        <ele>2510.5</ele>
        <time>2014-05-25T10:35:36Z</time>
      </trkpt>
      <trkpt lat="45.20615" lon="6.15895">
        <ele>2508.5</ele>
        <time>2014-05-25T10:35:39Z</time>
      </trkpt>
      <trkpt lat="45.20623" lon="6.15886">
        <ele>2509.5</ele>
        <time>2014-05-25T10:35:41Z</time>
      </trkpt>
      <trkpt lat="45.2063" lon="6.15877">
        <ele>2506.5</ele>
        <time>2014-05-25T10:35:43Z</time>
      </trkpt>
      <trkpt lat="45.20641" lon="6.1587">
        <ele>2509.5</ele>
        <time>2014-05-25T10:35:45Z</time>
      </trkpt>
      <trkpt lat="45.20652" lon="6.15863">
        <ele>2506.5</ele>
        <time>2014-05-25T10:35:47Z</time>
      </trkpt>
      <trkpt lat="45.2066" lon="6.15856">
        <ele>2503.5</ele>
        <time>2014-05-25T10:35:50Z</time>
      </trkpt>
      <trkpt lat="45.20672" lon="6.15847">
        <ele>2501.5</ele>
        <time>2014-05-25T10:35:53Z</time>
      </trkpt>
      <trkpt lat="45.20692" lon="6.15837">
        <ele>2495.5</ele>
        <time>2014-05-25T10:35:58Z</time>
      </trkpt>
      <trkpt lat="45.20702" lon="6.15835">
        <ele>2494.5</ele>
        <time>2014-05-25T10:36:00Z</time>
      </trkpt>
      <trkpt lat="45.20715" lon="6.15836">
        <ele>2494.5</ele>
        <time>2014-05-25T10:36:02Z</time>
      </trkpt>
      <trkpt lat="45.20727" lon="6.15832">
        <ele>2487.5</ele>
        <time>2014-05-25T10:36:05Z</time>
      </trkpt>
      <trkpt lat="45.20738" lon="6.15832">
        <ele>2481.5</ele>
        <time>2014-05-25T10:36:08Z</time>
      </trkpt>
      <trkpt lat="45.2075" lon="6.15835">
        <ele>2480.5</ele>
        <time>2014-05-25T10:36:10Z</time>
      </trkpt>
      <trkpt lat="45.20762" lon="6.15838">
        <ele>2478.5</ele>
        <time>2014-05-25T10:36:12Z</time>
      </trkpt>
      <trkpt lat="45.20773" lon="6.15839">
        <ele>2478.5</ele>
        <time>2014-05-25T10:36:14Z</time>
      </trkpt>
      <trkpt lat="45.20785" lon="6.15842">
        <ele>2476.5</ele>
        <time>2014-05-25T10:36:17Z</time>
      </trkpt>
      <trkpt lat="45.20793" lon="6.1585">
        <ele>2471.5</ele>
        <time>2014-05-25T10:36:20Z</time>
      </trkpt>
      <trkpt lat="45.20802" lon="6.15854">
        <ele>2469.5</ele>
        <time>2014-05-25T10:36:23Z</time>
      </trkpt>
      <trkpt lat="45.20812" lon="6.15857">
        <ele>2467.5</ele>
        <time>2014-05-25T10:36:27Z</time>
      </trkpt>
      <trkpt lat="45.20822" lon="6.15857">
        <ele>2469.5</ele>
        <time>2014-05-25T10:36:31Z</time>
      </trkpt>
      <trkpt lat="45.20831" lon="6.15852">
        <ele>2466.5</ele>
        <time>2014-05-25T10:36:35Z</time>
      </trkpt>
      <trkpt lat="45.2084" lon="6.15848">
        <ele>2463.5</ele>
        <time>2014-05-25T10:36:38Z</time>
      </trkpt>
      <trkpt lat="45.20851" lon="6.15844">
        <ele>2461.5</ele>
        <time>2014-05-25T10:36:42Z</time>
      </trkpt>
      <trkpt lat="45.2086" lon="6.15842">
        <ele>2455.5</ele>
        <time>2014-05-25T10:36:55Z</time>
      </trkpt>
      <trkpt lat="45.20872" lon="6.15868">
        <ele>2446.5</ele>
        <time>2014-05-25T10:37:42Z</time>
      </trkpt>
      <trkpt lat="45.20878" lon="6.1588">
        <ele>2447.5</ele>
        <time>2014-05-25T10:37:45Z</time>
      </trkpt>
      <trkpt lat="45.20885" lon="6.15897">
        <ele>2445.5</ele>
        <time>2014-05-25T10:37:48Z</time>
      </trkpt>
      <trkpt lat="45.20891" lon="6.15908">
        <ele>2439.5</ele>
        <time>2014-05-25T10:37:50Z</time>
      </trkpt>
      <trkpt lat="45.20896" lon="6.15922">
        <ele>2438.5</ele>
        <time>2014-05-25T10:37:52Z</time>
      </trkpt>
      <trkpt lat="45.20902" lon="6.15934">
        <ele>2434.5</ele>
        <time>2014-05-25T10:37:53Z</time>
      </trkpt>
      <trkpt lat="45.20915" lon="6.15936">
        <ele>2429.5</ele>
        <time>2014-05-25T10:37:56Z</time>
      </trkpt>
      <trkpt lat="45.20934" lon="6.15942">
        <ele>2431.5</ele>
        <time>2014-05-25T10:38:00Z</time>
      </trkpt>
      <trkpt lat="45.20948" lon="6.15945">
        <ele>2427.5</ele>
        <time>2014-05-25T10:38:03Z</time>
      </trkpt>
      <trkpt lat="45.20961" lon="6.15945">
        <ele>2423.5</ele>
        <time>2014-05-25T10:38:06Z</time>
      </trkpt>
      <trkpt lat="45.2097" lon="6.15945">
        <ele>2420.5</ele>
        <time>2014-05-25T10:38:08Z</time>
      </trkpt>
      <trkpt lat="45.20983" lon="6.15948">
        <ele>2413.5</ele>
        <time>2014-05-25T10:38:11Z</time>
      </trkpt>
      <trkpt lat="45.20994" lon="6.15951">
        <ele>2409.5</ele>
        <time>2014-05-25T10:38:14Z</time>
      </trkpt>
      <trkpt lat="45.21004" lon="6.15955">
        <ele>2405.5</ele>
        <time>2014-05-25T10:38:18Z</time>
      </trkpt>
      <trkpt lat="45.21013" lon="6.15964">
        <ele>2402.5</ele>
        <time>2014-05-25T10:38:21Z</time>
      </trkpt>
      <trkpt lat="45.2102" lon="6.15974">
        <ele>2399.5</ele>
        <time>2014-05-25T10:38:25Z</time>
      </trkpt>
      <trkpt lat="45.21027" lon="6.15987">
        <ele>2397.5</ele>
        <time>2014-05-25T10:38:32Z</time>
      </trkpt>
      <trkpt lat="45.21033" lon="6.16">
        <ele>2396.5</ele>
        <time>2014-05-25T10:38:36Z</time>
      </trkpt>
      <trkpt lat="45.21042" lon="6.15997">
        <ele>2396.5</ele>
        <time>2014-05-25T10:38:51Z</time>
      </trkpt>
      <trkpt lat="45.21051" lon="6.15995">
        <ele>2398.5</ele>
        <time>2014-05-25T10:39:14Z</time>
      </trkpt>
      <trkpt lat="45.2107" lon="6.16008">
        <ele>2397.5</ele>
        <time>2014-05-25T10:39:28Z</time>
      </trkpt>
      <trkpt lat="45.21081" lon="6.16014">
        <ele>2394.5</ele>
        <time>2014-05-25T10:39:32Z</time>
      </trkpt>
      <trkpt lat="45.2109" lon="6.16012">
        <ele>2392.5</ele>
        <time>2014-05-25T10:39:35Z</time>
      </trkpt>
      <trkpt lat="45.21101" lon="6.16013">
        <ele>2390.5</ele>
        <time>2014-05-25T10:39:39Z</time>
      </trkpt>
      <trkpt lat="45.2111" lon="6.1602">
        <ele>2392.5</ele>
        <time>2014-05-25T10:39:46Z</time>
      </trkpt>
      <trkpt lat="45.21118" lon="6.16029">
        <ele>2392.5</ele>
        <time>2014-05-25T10:39:50Z</time>
      </trkpt>
      <trkpt lat="45.21127" lon="6.16039">
        <ele>2391.5</ele>
        <time>2014-05-25T10:39:53Z</time>
      </trkpt>
      <trkpt lat="45.21134" lon="6.16045">
        <ele>2390.5</ele>
        <time>2014-05-25T10:39:56Z</time>
      </trkpt>
      <trkpt lat="45.21144" lon="6.16052">
        <ele>2388.5</ele>
        <time>2014-05-25T10:40:00Z</time>
      </trkpt>
      <trkpt lat="45.21153" lon="6.16057">
        <ele>2384.5</ele>
        <time>2014-05-25T10:40:03Z</time>
      </trkpt>
      <trkpt lat="45.21163" lon="6.1606">
        <ele>2384.5</ele>
        <time>2014-05-25T10:40:06Z</time>
      </trkpt>
      <trkpt lat="45.21173" lon="6.16064">
        <ele>2382.5</ele>
        <time>2014-05-25T10:40:09Z</time>
      </trkpt>
      <trkpt lat="45.21182" lon="6.16068">
        <ele>2380.5</ele>
        <time>2014-05-25T10:40:12Z</time>
      </trkpt>
      <trkpt lat="45.21191" lon="6.16072">
        <ele>2378.5</ele>
        <time>2014-05-25T10:40:15Z</time>
      </trkpt>
      <trkpt lat="45.21205" lon="6.16093">
        <ele>2377.5</ele>
        <time>2014-05-25T10:40:28Z</time>
      </trkpt>
      <trkpt lat="45.21214" lon="6.16102">
        <ele>2376.5</ele>
        <time>2014-05-25T10:41:27Z</time>
      </trkpt>
      <trkpt lat="45.2123" lon="6.16124">
        <ele>2379.5</ele>
        <time>2014-05-25T10:41:34Z</time>
      </trkpt>
      <trkpt lat="45.2124" lon="6.16134">
        <ele>2375.5</ele>
        <time>2014-05-25T10:41:37Z</time>
      </trkpt>
      <trkpt lat="45.21249" lon="6.16131">
        <ele>2370.5</ele>
        <time>2014-05-25T10:41:40Z</time>
      </trkpt>
      <trkpt lat="45.21259" lon="6.16126">
        <ele>2370.5</ele>
        <time>2014-05-25T10:41:43Z</time>
      </trkpt>
      <trkpt lat="45.2127" lon="6.16123">
        <ele>2368.5</ele>
        <time>2014-05-25T10:41:46Z</time>
      </trkpt>
      <trkpt lat="45.21279" lon="6.16121">
        <ele>2366.5</ele>
        <time>2014-05-25T10:41:49Z</time>
      </trkpt>
      <trkpt lat="45.21289" lon="6.16118">
        <ele>2365.5</ele>
        <time>2014-05-25T10:41:53Z</time>
      </trkpt>
      <trkpt lat="45.21302" lon="6.16116">
        <ele>2360.5</ele>
        <time>2014-05-25T10:41:56Z</time>
      </trkpt>
      <trkpt lat="45.21314" lon="6.16116">
        <ele>2359.5</ele>
        <time>2014-05-25T10:41:59Z</time>
      </trkpt>
      <trkpt lat="45.21323" lon="6.16117">
        <ele>2358.5</ele>
        <time>2014-05-25T10:42:02Z</time>
      </trkpt>
      <trkpt lat="45.21333" lon="6.16118">
        <ele>2358.5</ele>
        <time>2014-05-25T10:42:07Z</time>
      </trkpt>
      <trkpt lat="45.21345" lon="6.1612">
        <ele>2356.5</ele>
        <time>2014-05-25T10:42:10Z</time>
      </trkpt>
      <trkpt lat="45.21354" lon="6.16118">
        <ele>2355.5</ele>
        <time>2014-05-25T10:42:12Z</time>
      </trkpt>
      <trkpt lat="45.21364" lon="6.16121">
        <ele>2353.5</ele>
        <time>2014-05-25T10:42:15Z</time>
      </trkpt>
      <trkpt lat="45.21369" lon="6.16132">
        <ele>2352.5</ele>
        <time>2014-05-25T10:42:18Z</time>
      </trkpt>
      <trkpt lat="45.21379" lon="6.16133">
        <ele>2347.5</ele>
        <time>2014-05-25T10:42:22Z</time>
      </trkpt>
      <trkpt lat="45.2139" lon="6.1613">
        <ele>2349.5</ele>
        <time>2014-05-25T10:42:25Z</time>
      </trkpt>
      <trkpt lat="45.21385" lon="6.16117">
        <ele>2350.5</ele>
        <time>2014-05-25T10:42:28Z</time>
      </trkpt>
      <trkpt lat="45.21405" lon="6.16097">
        <ele>2345.5</ele>
        <time>2014-05-25T10:42:35Z</time>
      </trkpt>
      <trkpt lat="45.21413" lon="6.16091">
        <ele>2346.5</ele>
        <time>2014-05-25T10:42:37Z</time>
      </trkpt>
      <trkpt lat="45.21424" lon="6.16081">
        <ele>2348.5</ele>
        <time>2014-05-25T10:42:39Z</time>
      </trkpt>
      <trkpt lat="45.21437" lon="6.16074">
        <ele>2346.5</ele>
        <time>2014-05-25T10:42:41Z</time>
      </trkpt>
      <trkpt lat="45.21449" lon="6.16071">
        <ele>2342.5</ele>
        <time>2014-05-25T10:42:43Z</time>
      </trkpt>
      <trkpt lat="45.21462" lon="6.16071">
        <ele>2337.5</ele>
        <time>2014-05-25T10:42:46Z</time>
      </trkpt>
      <trkpt lat="45.21471" lon="6.16071">
        <ele>2334.5</ele>
        <time>2014-05-25T10:42:48Z</time>
      </trkpt>
      <trkpt lat="45.21479" lon="6.16078">
        <ele>2331.5</ele>
        <time>2014-05-25T10:42:50Z</time>
      </trkpt>
      <trkpt lat="45.21489" lon="6.16069">
        <ele>2328.5</ele>
        <time>2014-05-25T10:42:53Z</time>
      </trkpt>
      <trkpt lat="45.215" lon="6.16077">
        <ele>2325.5</ele>
        <time>2014-05-25T10:42:55Z</time>
      </trkpt>
      <trkpt lat="45.21511" lon="6.16072">
        <ele>2322.5</ele>
        <time>2014-05-25T10:42:57Z</time>
      </trkpt>
      <trkpt lat="45.21523" lon="6.16073">
        <ele>2318.5</ele>
        <time>2014-05-25T10:42:59Z</time>
      </trkpt>
      <trkpt lat="45.21535" lon="6.16075">
        <ele>2312.5</ele>
        <time>2014-05-25T10:43:01Z</time>
      </trkpt>
      <trkpt lat="45.2155" lon="6.16066">
        <ele>2308.5</ele>
        <time>2014-05-25T10:43:03Z</time>
      </trkpt>
      <trkpt lat="45.21562" lon="6.16065">
        <ele>2305.5</ele>
        <time>2014-05-25T10:43:05Z</time>
      </trkpt>
      <trkpt lat="45.21574" lon="6.16059">
        <ele>2303.5</ele>
        <time>2014-05-25T10:43:07Z</time>
      </trkpt>
      <trkpt lat="45.21584" lon="6.16043">
        <ele>2291.5</ele>
        <time>2014-05-25T10:43:10Z</time>
      </trkpt>
      <trkpt lat="45.21596" lon="6.16043">
        <ele>2288.5</ele>
        <time>2014-05-25T10:43:12Z</time>
      </trkpt>
      <trkpt lat="45.21611" lon="6.16043">
        <ele>2281.5</ele>
        <time>2014-05-25T10:43:14Z</time>
      </trkpt>
      <trkpt lat="45.21627" lon="6.16048">
        <ele>2277.5</ele>
        <time>2014-05-25T10:43:16Z</time>
      </trkpt>
      <trkpt lat="45.2164" lon="6.16052">
        <ele>2272.5</ele>
        <time>2014-05-25T10:43:18Z</time>
      </trkpt>
      <trkpt lat="45.21653" lon="6.1605">
        <ele>2266.5</ele>
        <time>2014-05-25T10:43:20Z</time>
      </trkpt>
      <trkpt lat="45.21667" lon="6.16052">
        <ele>2261.5</ele>
        <time>2014-05-25T10:43:22Z</time>
      </trkpt>
      <trkpt lat="45.21678" lon="6.16062">
        <ele>2256.5</ele>
        <time>2014-05-25T10:43:24Z</time>
      </trkpt>
      <trkpt lat="45.21693" lon="6.16069">
        <ele>2249.5</ele>
        <time>2014-05-25T10:43:26Z</time>
      </trkpt>
      <trkpt lat="45.21702" lon="6.16085">
        <ele>2245.5</ele>
        <time>2014-05-25T10:43:28Z</time>
      </trkpt>
      <trkpt lat="45.21712" lon="6.161">
        <ele>2240.5</ele>
        <time>2014-05-25T10:43:30Z</time>
      </trkpt>
      <trkpt lat="45.2174" lon="6.16116">
        <ele>2230.5</ele>
        <time>2014-05-25T10:43:34Z</time>
      </trkpt>
      <trkpt lat="45.21755" lon="6.16124">
        <ele>2226.5</ele>
        <time>2014-05-25T10:43:36Z</time>
      </trkpt>
      <trkpt lat="45.21767" lon="6.16133">
        <ele>2221.5</ele>
        <time>2014-05-25T10:43:38Z</time>
      </trkpt>
      <trkpt lat="45.21778" lon="6.16138">
        <ele>2217.5</ele>
        <time>2014-05-25T10:43:40Z</time>
      </trkpt>
      <trkpt lat="45.21788" lon="6.16144">
        <ele>2215.5</ele>
        <time>2014-05-25T10:43:42Z</time>
      </trkpt>
      <trkpt lat="45.21797" lon="6.16148">
        <ele>2212.5</ele>
        <time>2014-05-25T10:43:45Z</time>
      </trkpt>
      <trkpt lat="45.21804" lon="6.16155">
        <ele>2209.5</ele>
        <time>2014-05-25T10:43:48Z</time>
      </trkpt>
      <trkpt lat="45.21809" lon="6.16166">
        <ele>2205.5</ele>
        <time>2014-05-25T10:43:51Z</time>
      </trkpt>
      <trkpt lat="45.21814" lon="6.16179">
        <ele>2205.5</ele>
        <time>2014-05-25T10:43:54Z</time>
      </trkpt>
      <trkpt lat="45.21818" lon="6.16192">
        <ele>2193.5</ele>
        <time>2014-05-25T10:44:40Z</time>
      </trkpt>
      <trkpt lat="45.21836" lon="6.16206">
        <ele>2185.5</ele>
        <time>2014-05-25T10:44:45Z</time>
      </trkpt>
      <trkpt lat="45.21847" lon="6.16213">
        <ele>2181.5</ele>
        <time>2014-05-25T10:44:47Z</time>
      </trkpt>
      <trkpt lat="45.21858" lon="6.16222">
        <ele>2179.5</ele>
        <time>2014-05-25T10:44:49Z</time>
      </trkpt>
      <trkpt lat="45.21869" lon="6.16232">
        <ele>2179.5</ele>
        <time>2014-05-25T10:44:51Z</time>
      </trkpt>
      <trkpt lat="45.21878" lon="6.16243">
        <ele>2177.5</ele>
        <time>2014-05-25T10:44:53Z</time>
      </trkpt>
      <trkpt lat="45.21888" lon="6.16251">
        <ele>2174.5</ele>
        <time>2014-05-25T10:44:55Z</time>
      </trkpt>
      <trkpt lat="45.21901" lon="6.16261">
        <ele>2174.5</ele>
        <time>2014-05-25T10:44:57Z</time>
      </trkpt>
      <trkpt lat="45.2191" lon="6.16262">
        <ele>2170.5</ele>
        <time>2014-05-25T10:44:59Z</time>
      </trkpt>
      <trkpt lat="45.2192" lon="6.16272">
        <ele>2168.5</ele>
        <time>2014-05-25T10:45:01Z</time>
      </trkpt>
      <trkpt lat="45.21926" lon="6.16282">
        <ele>2165.5</ele>
        <time>2014-05-25T10:45:03Z</time>
      </trkpt>
      <trkpt lat="45.21935" lon="6.16297">
        <ele>2163.5</ele>
        <time>2014-05-25T10:45:05Z</time>
      </trkpt>
      <trkpt lat="45.21941" lon="6.16308">
        <ele>2159.5</ele>
        <time>2014-05-25T10:45:07Z</time>
      </trkpt>
      <trkpt lat="45.21949" lon="6.16318">
        <ele>2158.5</ele>
        <time>2014-05-25T10:45:09Z</time>
      </trkpt>
      <trkpt lat="45.21958" lon="6.1632">
        <ele>2155.5</ele>
        <time>2014-05-25T10:45:11Z</time>
      </trkpt>
      <trkpt lat="45.21967" lon="6.16323">
        <ele>2150.5</ele>
        <time>2014-05-25T10:45:13Z</time>
      </trkpt>
      <trkpt lat="45.21978" lon="6.16334">
        <ele>2147.5</ele>
        <time>2014-05-25T10:45:15Z</time>
      </trkpt>
      <trkpt lat="45.21989" lon="6.16344">
        <ele>2144.5</ele>
        <time>2014-05-25T10:45:17Z</time>
      </trkpt>
      <trkpt lat="45.22" lon="6.16354">
        <ele>2141.5</ele>
        <time>2014-05-25T10:45:19Z</time>
      </trkpt>
      <trkpt lat="45.22011" lon="6.1636">
        <ele>2139.5</ele>
        <time>2014-05-25T10:45:21Z</time>
      </trkpt>
      <trkpt lat="45.22017" lon="6.16371">
        <ele>2138.5</ele>
        <time>2014-05-25T10:45:23Z</time>
      </trkpt>
      <trkpt lat="45.22025" lon="6.16378">
        <ele>2135.5</ele>
        <time>2014-05-25T10:45:25Z</time>
      </trkpt>
      <trkpt lat="45.22033" lon="6.16388">
        <ele>2131.5</ele>
        <time>2014-05-25T10:45:27Z</time>
      </trkpt>
      <trkpt lat="45.22043" lon="6.16398">
        <ele>2132.5</ele>
        <time>2014-05-25T10:45:29Z</time>
      </trkpt>
      <trkpt lat="45.22056" lon="6.16403">
        <ele>2129.5</ele>
        <time>2014-05-25T10:45:31Z</time>
      </trkpt>
      <trkpt lat="45.22066" lon="6.16419">
        <ele>2129.5</ele>
        <time>2014-05-25T10:45:33Z</time>
      </trkpt>
      <trkpt lat="45.22076" lon="6.16423">
        <ele>2122.5</ele>
        <time>2014-05-25T10:45:36Z</time>
      </trkpt>
      <trkpt lat="45.22081" lon="6.16435">
        <ele>2121.5</ele>
        <time>2014-05-25T10:45:38Z</time>
      </trkpt>
      <trkpt lat="45.22089" lon="6.16446">
        <ele>2119.5</ele>
        <time>2014-05-25T10:45:41Z</time>
      </trkpt>
      <trkpt lat="45.22107" lon="6.16466">
        <ele>2112.5</ele>
        <time>2014-05-25T10:45:47Z</time>
      </trkpt>
      <trkpt lat="45.2211" lon="6.1648">
        <ele>2110.5</ele>
        <time>2014-05-25T10:45:48Z</time>
      </trkpt>
      <trkpt lat="45.22116" lon="6.16492">
        <ele>2112.5</ele>
        <time>2014-05-25T10:45:50Z</time>
      </trkpt>
      <trkpt lat="45.22126" lon="6.16502">
        <ele>2111.5</ele>
        <time>2014-05-25T10:45:53Z</time>
      </trkpt>
      <trkpt lat="45.22132" lon="6.16512">
        <ele>2112.5</ele>
        <time>2014-05-25T10:45:55Z</time>
      </trkpt>
      <trkpt lat="45.2214" lon="6.16522">
        <ele>2109.5</ele>
        <time>2014-05-25T10:45:58Z</time>
      </trkpt>
      <trkpt lat="45.22145" lon="6.16533">
        <ele>2105.5</ele>
        <time>2014-05-25T10:46:01Z</time>
      </trkpt>
      <trkpt lat="45.22158" lon="6.16529">
        <ele>2094.5</ele>
        <time>2014-05-25T10:46:34Z</time>
      </trkpt>
      <trkpt lat="45.2217" lon="6.16532">
        <ele>2094.5</ele>
        <time>2014-05-25T10:46:36Z</time>
      </trkpt>
      <trkpt lat="45.22181" lon="6.16542">
        <ele>2092.5</ele>
        <time>2014-05-25T10:46:38Z</time>
      </trkpt>
      <trkpt lat="45.22193" lon="6.16551">
        <ele>2086.5</ele>
        <time>2014-05-25T10:46:41Z</time>
      </trkpt>
      <trkpt lat="45.2221" lon="6.16562">
        <ele>2084.5</ele>
        <time>2014-05-25T10:46:45Z</time>
      </trkpt>
      <trkpt lat="45.22215" lon="6.16573">
        <ele>2084.5</ele>
        <time>2014-05-25T10:46:47Z</time>
      </trkpt>
      <trkpt lat="45.22222" lon="6.16591">
        <ele>2084.5</ele>
        <time>2014-05-25T10:46:50Z</time>
      </trkpt>
      <trkpt lat="45.22224" lon="6.16607">
        <ele>2083.5</ele>
        <time>2014-05-25T10:46:52Z</time>
      </trkpt>
      <trkpt lat="45.22232" lon="6.16622">
        <ele>2081.5</ele>
        <time>2014-05-25T10:46:55Z</time>
      </trkpt>
      <trkpt lat="45.22239" lon="6.16632">
        <ele>2080.5</ele>
        <time>2014-05-25T10:46:57Z</time>
      </trkpt>
      <trkpt lat="45.22253" lon="6.1663">
        <ele>2078.5</ele>
        <time>2014-05-25T10:47:00Z</time>
      </trkpt>
      <trkpt lat="45.22264" lon="6.16625">
        <ele>2077.5</ele>
        <time>2014-05-25T10:47:02Z</time>
      </trkpt>
      <trkpt lat="45.2228" lon="6.16614">
        <ele>2074.5</ele>
        <time>2014-05-25T10:47:04Z</time>
      </trkpt>
      <trkpt lat="45.22289" lon="6.16622">
        <ele>2075.5</ele>
        <time>2014-05-25T10:47:06Z</time>
      </trkpt>
      <trkpt lat="45.22301" lon="6.16623">
        <ele>2073.5</ele>
        <time>2014-05-25T10:47:08Z</time>
      </trkpt>
      <trkpt lat="45.22305" lon="6.16637">
        <ele>2061.5</ele>
        <time>2014-05-25T10:47:11Z</time>
      </trkpt>
      <trkpt lat="45.22313" lon="6.16644">
        <ele>2055.5</ele>
        <time>2014-05-25T10:47:13Z</time>
      </trkpt>
      <trkpt lat="45.22318" lon="6.16657">
        <ele>2050.5</ele>
        <time>2014-05-25T10:47:15Z</time>
      </trkpt>
      <trkpt lat="45.22325" lon="6.16667">
        <ele>2044.5</ele>
        <time>2014-05-25T10:47:18Z</time>
      </trkpt>
      <trkpt lat="45.22336" lon="6.16671">
        <ele>2041.5</ele>
        <time>2014-05-25T10:47:23Z</time>
      </trkpt>
      <trkpt lat="45.22346" lon="6.16673">
        <ele>2037.5</ele>
        <time>2014-05-25T10:47:27Z</time>
      </trkpt>
      <trkpt lat="45.22358" lon="6.16673">
        <ele>2031.5</ele>
        <time>2014-05-25T10:47:31Z</time>
      </trkpt>
      <trkpt lat="45.22367" lon="6.16668">
        <ele>2028.5</ele>
        <time>2014-05-25T10:47:34Z</time>
      </trkpt>
      <trkpt lat="45.22375" lon="6.16674">
        <ele>2024.5</ele>
        <time>2014-05-25T10:47:37Z</time>
      </trkpt>
      <trkpt lat="45.22383" lon="6.16682">
        <ele>2017.5</ele>
        <time>2014-05-25T10:47:40Z</time>
      </trkpt>
      <trkpt lat="45.22388" lon="6.16695">
        <ele>2012.5</ele>
        <time>2014-05-25T10:47:43Z</time>
      </trkpt>
      <trkpt lat="45.22394" lon="6.16719">
        <ele>2003.5</ele>
        <time>2014-05-25T10:47:57Z</time>
      </trkpt>
      <trkpt lat="45.22398" lon="6.16735">
        <ele>2003.5</ele>
        <time>2014-05-25T10:48:01Z</time>
      </trkpt>
      <trkpt lat="45.22403" lon="6.16748">
        <ele>1999.5</ele>
        <time>2014-05-25T10:48:04Z</time>
      </trkpt>
      <trkpt lat="45.2241" lon="6.16757">
        <ele>1997.5</ele>
        <time>2014-05-25T10:48:08Z</time>
      </trkpt>
      <trkpt lat="45.22416" lon="6.16768">
        <ele>1996.5</ele>
        <time>2014-05-25T10:48:12Z</time>
      </trkpt>
      <trkpt lat="45.22423" lon="6.1678">
        <ele>1995.5</ele>
        <time>2014-05-25T10:48:15Z</time>
      </trkpt>
      <trkpt lat="45.22434" lon="6.16781">
        <ele>1992.5</ele>
        <time>2014-05-25T10:48:19Z</time>
      </trkpt>
      <trkpt lat="45.22444" lon="6.16775">
        <ele>1988.5</ele>
        <time>2014-05-25T10:48:21Z</time>
      </trkpt>
      <trkpt lat="45.22453" lon="6.16785">
        <ele>1985.5</ele>
        <time>2014-05-25T10:48:25Z</time>
      </trkpt>
      <trkpt lat="45.22463" lon="6.16791">
        <ele>1982.5</ele>
        <time>2014-05-25T10:48:28Z</time>
      </trkpt>
      <trkpt lat="45.22471" lon="6.16799">
        <ele>1979.5</ele>
        <time>2014-05-25T10:48:32Z</time>
      </trkpt>
      <trkpt lat="45.22478" lon="6.16809">
        <ele>1973.5</ele>
        <time>2014-05-25T10:48:38Z</time>
      </trkpt>
      <trkpt lat="45.22484" lon="6.1682">
        <ele>1973.5</ele>
        <time>2014-05-25T10:48:42Z</time>
      </trkpt>
      <trkpt lat="45.2249" lon="6.16831">
        <ele>1971.5</ele>
        <time>2014-05-25T10:48:45Z</time>
      </trkpt>
      <trkpt lat="45.22503" lon="6.16827">
        <ele>1967.5</ele>
        <time>2014-05-25T10:48:54Z</time>
      </trkpt>
      <trkpt lat="45.225" lon="6.16814">
        <ele>1969.5</ele>
        <time>2014-05-25T10:48:59Z</time>
      </trkpt>
      <trkpt lat="45.22508" lon="6.16807">
        <ele>1971.5</ele>
        <time>2014-05-25T10:49:11Z</time>
      </trkpt>
      <trkpt lat="45.22518" lon="6.16807">
        <ele>1963.5</ele>
        <time>2014-05-25T10:49:27Z</time>
      </trkpt>
      <trkpt lat="45.22526" lon="6.16801">
        <ele>1963.5</ele>
        <time>2014-05-25T10:53:03Z</time>
      </trkpt>
      <trkpt lat="45.22544" lon="6.16799">
        <ele>1955.5</ele>
        <time>2014-05-25T10:53:25Z</time>
      </trkpt>
      <trkpt lat="45.22554" lon="6.16798">
        <ele>1953.5</ele>
        <time>2014-05-25T10:53:41Z</time>
      </trkpt>
      <trkpt lat="45.22563" lon="6.168">
        <ele>1951.5</ele>
        <time>2014-05-25T10:53:55Z</time>
      </trkpt>
      <trkpt lat="45.22572" lon="6.168">
        <ele>1951.5</ele>
        <time>2014-05-25T10:54:04Z</time>
      </trkpt>
      <trkpt lat="45.22591" lon="6.168">
        <ele>1951.5</ele>
        <time>2014-05-25T10:54:22Z</time>
      </trkpt>
      <trkpt lat="45.226" lon="6.16802">
        <ele>1942.5</ele>
        <time>2014-05-25T10:54:32Z</time>
      </trkpt>
      <trkpt lat="45.22609" lon="6.16803">
        <ele>1937.5</ele>
        <time>2014-05-25T10:54:43Z</time>
      </trkpt>
      <trkpt lat="45.22618" lon="6.16809">
        <ele>1933.5</ele>
        <time>2014-05-25T10:54:55Z</time>
      </trkpt>
      <trkpt lat="45.22627" lon="6.16811">
        <ele>1929.5</ele>
        <time>2014-05-25T10:55:07Z</time>
      </trkpt>
      <trkpt lat="45.22646" lon="6.16809">
        <ele>1927.5</ele>
        <time>2014-05-25T10:55:28Z</time>
      </trkpt>
      <trkpt lat="45.22655" lon="6.16813">
        <ele>1925.5</ele>
        <time>2014-05-25T10:55:38Z</time>
      </trkpt>
      <trkpt lat="45.22665" lon="6.16817">
        <ele>1923.5</ele>
        <time>2014-05-25T10:55:47Z</time>
      </trkpt>
      <trkpt lat="45.22674" lon="6.16819">
        <ele>1924.5</ele>
        <time>2014-05-25T10:55:56Z</time>
      </trkpt>
      <trkpt lat="45.22683" lon="6.16824">
        <ele>1922.5</ele>
        <time>2014-05-25T10:56:05Z</time>
      </trkpt>
      <trkpt lat="45.22692" lon="6.16828">
        <ele>1922.5</ele>
        <time>2014-05-25T10:56:13Z</time>
      </trkpt>
      <trkpt lat="45.22711" lon="6.16832">
        <ele>1916.5</ele>
        <time>2014-05-25T10:56:35Z</time>
      </trkpt>
      <trkpt lat="45.2272" lon="6.16837">
        <ele>1917.5</ele>
        <time>2014-05-25T10:56:42Z</time>
      </trkpt>
      <trkpt lat="45.22728" lon="6.16842">
        <ele>1916.5</ele>
        <time>2014-05-25T10:56:50Z</time>
      </trkpt>
      <trkpt lat="45.22736" lon="6.16848">
        <ele>1914.5</ele>
        <time>2014-05-25T10:56:58Z</time>
      </trkpt>
      <trkpt lat="45.22746" lon="6.16848">
        <ele>1906.5</ele>
        <time>2014-05-25T10:57:12Z</time>
      </trkpt>
      <trkpt lat="45.22755" lon="6.16848">
        <ele>1906.5</ele>
        <time>2014-05-25T10:57:27Z</time>
      </trkpt>
      <trkpt lat="45.22773" lon="6.16853">
        <ele>1909.5</ele>
        <time>2014-05-25T10:57:43Z</time>
      </trkpt>
      <trkpt lat="45.22782" lon="6.16859">
        <ele>1906.5</ele>
        <time>2014-05-25T10:57:50Z</time>
      </trkpt>
      <trkpt lat="45.22791" lon="6.16861">
        <ele>1902.5</ele>
        <time>2014-05-25T10:58:00Z</time>
      </trkpt>
      <trkpt lat="45.22799" lon="6.16868">
        <ele>1894.5</ele>
        <time>2014-05-25T10:58:24Z</time>
      </trkpt>
      <trkpt lat="45.22807" lon="6.16874">
        <ele>1891.5</ele>
        <time>2014-05-25T10:58:31Z</time>
      </trkpt>
      <trkpt lat="45.2282" lon="6.16892">
        <ele>1881.5</ele>
        <time>2014-05-25T10:58:54Z</time>
      </trkpt>
      <trkpt lat="45.22828" lon="6.16902">
        <ele>1873.5</ele>
        <time>2014-05-25T10:59:00Z</time>
      </trkpt>
      <trkpt lat="45.22834" lon="6.16914">
        <ele>1868.5</ele>
        <time>2014-05-25T10:59:08Z</time>
      </trkpt>
      <trkpt lat="45.22842" lon="6.16922">
        <ele>1869.5</ele>
        <time>2014-05-25T10:59:16Z</time>
      </trkpt>
      <trkpt lat="45.2285" lon="6.16927">
        <ele>1867.5</ele>
        <time>2014-05-25T10:59:38Z</time>
      </trkpt>
      <trkpt lat="45.22863" lon="6.16946">
        <ele>1854.5</ele>
        <time>2014-05-25T10:59:56Z</time>
      </trkpt>
      <trkpt lat="45.2287" lon="6.16954">
        <ele>1854.5</ele>
        <time>2014-05-25T11:00:06Z</time>
      </trkpt>
      <trkpt lat="45.22879" lon="6.16957">
        <ele>1847.5</ele>
        <time>2014-05-25T11:00:21Z</time>
      </trkpt>
      <trkpt lat="45.22888" lon="6.16961">
        <ele>1843.5</ele>
        <time>2014-05-25T11:00:35Z</time>
      </trkpt>
      <trkpt lat="45.22897" lon="6.16964">
        <ele>1849.5</ele>
        <time>2014-05-25T11:00:44Z</time>
      </trkpt>
      <trkpt lat="45.22912" lon="6.16982">
        <ele>1840.5</ele>
        <time>2014-05-25T11:01:09Z</time>
      </trkpt>
      <trkpt lat="45.22919" lon="6.16992">
        <ele>1838.5</ele>
        <time>2014-05-25T11:01:29Z</time>
      </trkpt>
      <trkpt lat="45.22925" lon="6.17004">
        <ele>1838.5</ele>
        <time>2014-05-25T11:01:34Z</time>
      </trkpt>
      <trkpt lat="45.22933" lon="6.17011">
        <ele>1832.5</ele>
        <time>2014-05-25T11:01:49Z</time>
      </trkpt>
      <trkpt lat="45.2295" lon="6.1702">
        <ele>1822.5</ele>
        <time>2014-05-25T11:02:17Z</time>
      </trkpt>
      <trkpt lat="45.22959" lon="6.17013">
        <ele>1831.5</ele>
        <time>2014-05-25T11:02:29Z</time>
      </trkpt>
      <trkpt lat="45.22967" lon="6.17005">
        <ele>1840.5</ele>
        <time>2014-05-25T11:02:36Z</time>
      </trkpt>
      <trkpt lat="45.22974" lon="6.16996">
        <ele>1845.5</ele>
        <time>2014-05-25T11:02:45Z</time>
      </trkpt>
      <trkpt lat="45.22978" lon="6.16984">
        <ele>1847.5</ele>
        <time>2014-05-25T11:02:52Z</time>
      </trkpt>
      <trkpt lat="45.2299" lon="6.16964">
        <ele>1847.5</ele>
        <time>2014-05-25T11:03:19Z</time>
      </trkpt>
      <trkpt lat="45.22997" lon="6.16957">
        <ele>1847.5</ele>
        <time>2014-05-25T11:03:26Z</time>
      </trkpt>
      <trkpt lat="45.23005" lon="6.16949">
        <ele>1852.5</ele>
        <time>2014-05-25T11:03:31Z</time>
      </trkpt>
      <trkpt lat="45.23008" lon="6.16937">
        <ele>1850.5</ele>
        <time>2014-05-25T11:03:40Z</time>
      </trkpt>
      <trkpt lat="45.23007" lon="6.16924">
        <ele>1849.5</ele>
        <time>2014-05-25T11:03:57Z</time>
      </trkpt>
      <trkpt lat="45.23009" lon="6.16897">
        <ele>1840.5</ele>
        <time>2014-05-25T11:04:29Z</time>
      </trkpt>
      <trkpt lat="45.23007" lon="6.16884">
        <ele>1838.5</ele>
        <time>2014-05-25T11:04:38Z</time>
      </trkpt>
      <trkpt lat="45.23006" lon="6.1687">
        <ele>1836.5</ele>
        <time>2014-05-25T11:04:47Z</time>
      </trkpt>
      <trkpt lat="45.23007" lon="6.16857">
        <ele>1830.5</ele>
        <time>2014-05-25T11:05:05Z</time>
      </trkpt>
      <trkpt lat="45.23011" lon="6.16831">
        <ele>1823.5</ele>
        <time>2014-05-25T11:05:26Z</time>
      </trkpt>
      <trkpt lat="45.23015" lon="6.16819">
        <ele>1822.5</ele>
        <time>2014-05-25T11:05:41Z</time>
      </trkpt>
      <trkpt lat="45.23018" lon="6.16807">
        <ele>1821.5</ele>
        <time>2014-05-25T11:05:54Z</time>
      </trkpt>
      <trkpt lat="45.23022" lon="6.16795">
        <ele>1819.5</ele>
        <time>2014-05-25T11:06:04Z</time>
      </trkpt>
      <trkpt lat="45.23027" lon="6.16782">
        <ele>1816.5</ele>
        <time>2014-05-25T11:06:10Z</time>
      </trkpt>
      <trkpt lat="45.23038" lon="6.16762">
        <ele>1810.5</ele>
        <time>2014-05-25T11:06:31Z</time>
      </trkpt>
      <trkpt lat="45.2304" lon="6.16748">
        <ele>1805.5</ele>
        <time>2014-05-25T11:06:46Z</time>
      </trkpt>
      <trkpt lat="45.23043" lon="6.16736">
        <ele>1801.5</ele>
        <time>2014-05-25T11:06:53Z</time>
      </trkpt>
      <trkpt lat="45.23046" lon="6.16724">
        <ele>1801.5</ele>
        <time>2014-05-25T11:07:03Z</time>
      </trkpt>
      <trkpt lat="45.23048" lon="6.16711">
        <ele>1799.5</ele>
        <time>2014-05-25T11:07:15Z</time>
      </trkpt>
      <trkpt lat="45.23053" lon="6.16686">
        <ele>1794.5</ele>
        <time>2014-05-25T11:07:32Z</time>
      </trkpt>
      <trkpt lat="45.23055" lon="6.16673">
        <ele>1798.5</ele>
        <time>2014-05-25T11:07:50Z</time>
      </trkpt>
      <trkpt lat="45.23059" lon="6.16661">
        <ele>1793.5</ele>
        <time>2014-05-25T11:07:59Z</time>
      </trkpt>
      <trkpt lat="45.23059" lon="6.16648">
        <ele>1794.5</ele>
        <time>2014-05-25T11:08:10Z</time>
      </trkpt>
      <trkpt lat="45.23059" lon="6.16634">
        <ele>1792.5</ele>
        <time>2014-05-25T11:08:19Z</time>
      </trkpt>
      <trkpt lat="45.23063" lon="6.16608">
        <ele>1783.5</ele>
        <time>2014-05-25T11:08:38Z</time>
      </trkpt>
      <trkpt lat="45.23068" lon="6.16597">
        <ele>1780.5</ele>
        <time>2014-05-25T11:08:46Z</time>
      </trkpt>
      <trkpt lat="45.23074" lon="6.16586">
        <ele>1777.5</ele>
        <time>2014-05-25T11:08:55Z</time>
      </trkpt>
      <trkpt lat="45.23079" lon="6.16575">
        <ele>1780.5</ele>
        <time>2014-05-25T11:09:03Z</time>
      </trkpt>
      <trkpt lat="45.23085" lon="6.16563">
        <ele>1779.5</ele>
        <time>2014-05-25T11:09:14Z</time>
      </trkpt>
      <trkpt lat="45.23093" lon="6.16559">
        <ele>1778.5</ele>
        <time>2014-05-25T11:09:36Z</time>
      </trkpt>
      <trkpt lat="45.23108" lon="6.16562">
        <ele>1776.5</ele>
        <time>2014-05-25T11:10:20Z</time>
      </trkpt>
      <trkpt lat="45.23114" lon="6.16551">
        <ele>1776.5</ele>
        <time>2014-05-25T11:10:32Z</time>
      </trkpt>
      <trkpt lat="45.23121" lon="6.16541">
        <ele>1779.5</ele>
        <time>2014-05-25T11:10:39Z</time>
      </trkpt>
      <trkpt lat="45.23133" lon="6.1652">
        <ele>1783.5</ele>
        <time>2014-05-25T11:11:11Z</time>
      </trkpt>
      <trkpt lat="45.2314" lon="6.16513">
        <ele>1786.5</ele>
        <time>2014-05-25T11:11:29Z</time>
      </trkpt>
      <trkpt lat="45.23145" lon="6.16502">
        <ele>1784.5</ele>
        <time>2014-05-25T11:11:47Z</time>
      </trkpt>
      <trkpt lat="45.23162" lon="6.1649">
        <ele>1784.5</ele>
        <time>2014-05-25T11:12:02Z</time>
      </trkpt>
      <trkpt lat="45.2317" lon="6.16482">
        <ele>1783.5</ele>
        <time>2014-05-25T11:12:11Z</time>
      </trkpt>
      <trkpt lat="45.23178" lon="6.16476">
        <ele>1784.5</ele>
        <time>2014-05-25T11:12:18Z</time>
      </trkpt>
      <trkpt lat="45.23187" lon="6.16475">
        <ele>1784.5</ele>
        <time>2014-05-25T11:12:35Z</time>
      </trkpt>
      <trkpt lat="45.23196" lon="6.16474">
        <ele>1789.5</ele>
        <time>2014-05-25T11:12:44Z</time>
      </trkpt>
      <trkpt lat="45.23205" lon="6.16472">
        <ele>1786.5</ele>
        <time>2014-05-25T11:12:59Z</time>
      </trkpt>
      <trkpt lat="45.23222" lon="6.1646">
        <ele>1786.5</ele>
        <time>2014-05-25T11:13:59Z</time>
      </trkpt>
      <trkpt lat="45.2324" lon="6.16453">
        <ele>1802.5</ele>
        <time>2014-05-25T11:14:57Z</time>
      </trkpt>
      <trkpt lat="45.2324" lon="6.16453">
        <ele>1803.5</ele>
        <time>2014-05-25T11:15:15Z</time>
      </trkpt>
    </trkseg>
  </trk>
</gpx>